<?xml version="1.0" encoding="UTF-8" standalone="no" ?>
<gpx xmlns="http://www.topografix.com/GPX/1/1" xmlns:xsi="http://www.w3.org/2001/XMLSchema-instance" xsi:schemaLocation="http://www.topografix.com/GPX/1/1 http://www.topografix.com/GPX/1/1/gpx.xsd" version="1.1" creator="VisuGPX - https://www.visugpx.com">
  <metadata>
    <name>Sardaigne Corse</name>
    <desc><![CDATA[En octobre 2017 au départ de Portisco
6 membres d'équipage avec
Julien Bruno Frédéric Benjamin Sébastien 
embarqué sur Dufour 412]]></desc>
  </metadata>
  <trk>
    <name><![CDATA[Tracé actuel: 09 OCT 2017 10:00]]></name>
    <trkseg>
      <trkpt lat="41.2582" lon="9.42842">
        <ele>-7.07</ele>
        <time>2017-10-09T09:00:21Z</time>
      </trkpt>
      <trkpt lat="41.25816" lon="9.42847">
        <ele>2.06</ele>
        <time>2017-10-09T09:00:35Z</time>
      </trkpt>
      <trkpt lat="41.25815" lon="9.4285">
        <ele>5.42</ele>
        <time>2017-10-09T09:00:48Z</time>
      </trkpt>
      <trkpt lat="41.25814" lon="9.42851">
        <ele>7.83</ele>
        <time>2017-10-09T09:01:06Z</time>
      </trkpt>
      <trkpt lat="41.2582" lon="9.42832">
        <ele>1.58</ele>
        <time>2017-10-09T09:01:22Z</time>
      </trkpt>
      <trkpt lat="41.2582" lon="9.42831">
        <ele>3.5</ele>
        <time>2017-10-09T09:01:38Z</time>
      </trkpt>
      <trkpt lat="41.2582" lon="9.42831">
        <ele>4.94</ele>
        <time>2017-10-09T09:01:56Z</time>
      </trkpt>
      <trkpt lat="41.2582" lon="9.42831">
        <ele>6.39</ele>
        <time>2017-10-09T09:02:14Z</time>
      </trkpt>
      <trkpt lat="41.2582" lon="9.42831">
        <ele>7.35</ele>
        <time>2017-10-09T09:02:32Z</time>
      </trkpt>
      <trkpt lat="41.25819" lon="9.42832">
        <ele>8.79</ele>
        <time>2017-10-09T09:02:52Z</time>
      </trkpt>
      <trkpt lat="41.25821" lon="9.42832">
        <ele>6.87</ele>
        <time>2017-10-09T09:03:13Z</time>
      </trkpt>
      <trkpt lat="41.25821" lon="9.42831">
        <ele>5.91</ele>
        <time>2017-10-09T09:03:33Z</time>
      </trkpt>
      <trkpt lat="41.25821" lon="9.42831">
        <ele>4.94</ele>
        <time>2017-10-09T09:03:50Z</time>
      </trkpt>
      <trkpt lat="41.25821" lon="9.4283">
        <ele>4.94</ele>
        <time>2017-10-09T09:04:10Z</time>
      </trkpt>
      <trkpt lat="41.25823" lon="9.42822">
        <ele>5.42</ele>
        <time>2017-10-09T09:04:25Z</time>
      </trkpt>
      <trkpt lat="41.25824" lon="9.42817">
        <ele>4.94</ele>
        <time>2017-10-09T09:04:41Z</time>
      </trkpt>
      <trkpt lat="41.25823" lon="9.42813">
        <ele>4.94</ele>
        <time>2017-10-09T09:04:45Z</time>
      </trkpt>
      <trkpt lat="41.25811" lon="9.42792">
        <ele>6.87</ele>
        <time>2017-10-09T09:05:00Z</time>
      </trkpt>
      <trkpt lat="41.25788" lon="9.42779">
        <ele>6.39</ele>
        <time>2017-10-09T09:05:16Z</time>
      </trkpt>
      <trkpt lat="41.25762" lon="9.42772">
        <ele>5.42</ele>
        <time>2017-10-09T09:05:31Z</time>
      </trkpt>
      <trkpt lat="41.2573" lon="9.4278">
        <ele>4.46</ele>
        <time>2017-10-09T09:05:48Z</time>
      </trkpt>
      <trkpt lat="41.25713" lon="9.42813">
        <ele>6.39</ele>
        <time>2017-10-09T09:06:05Z</time>
      </trkpt>
      <trkpt lat="41.25705" lon="9.42853">
        <ele>6.87</ele>
        <time>2017-10-09T09:06:22Z</time>
      </trkpt>
      <trkpt lat="41.257" lon="9.42879">
        <ele>5.91</ele>
        <time>2017-10-09T09:06:33Z</time>
      </trkpt>
      <trkpt lat="41.25692" lon="9.42911">
        <ele>6.39</ele>
        <time>2017-10-09T09:06:48Z</time>
      </trkpt>
      <trkpt lat="41.25674" lon="9.42948">
        <ele>5.42</ele>
        <time>2017-10-09T09:07:07Z</time>
      </trkpt>
      <trkpt lat="41.25659" lon="9.42988">
        <ele>3.98</ele>
        <time>2017-10-09T09:07:26Z</time>
      </trkpt>
      <trkpt lat="41.25647" lon="9.43037">
        <ele>3.98</ele>
        <time>2017-10-09T09:07:47Z</time>
      </trkpt>
      <trkpt lat="41.25637" lon="9.43078">
        <ele>3.5</ele>
        <time>2017-10-09T09:08:05Z</time>
      </trkpt>
      <trkpt lat="41.2563" lon="9.43126">
        <ele>3.5</ele>
        <time>2017-10-09T09:08:26Z</time>
      </trkpt>
      <trkpt lat="41.25624" lon="9.43182">
        <ele>3.98</ele>
        <time>2017-10-09T09:08:51Z</time>
      </trkpt>
      <trkpt lat="41.25621" lon="9.43224">
        <ele>3.5</ele>
        <time>2017-10-09T09:09:09Z</time>
      </trkpt>
      <trkpt lat="41.25618" lon="9.43264">
        <ele>3.5</ele>
        <time>2017-10-09T09:09:27Z</time>
      </trkpt>
      <trkpt lat="41.25614" lon="9.43297">
        <ele>1.58</ele>
        <time>2017-10-09T09:09:42Z</time>
      </trkpt>
      <trkpt lat="41.25616" lon="9.43329">
        <ele>3.02</ele>
        <time>2017-10-09T09:09:56Z</time>
      </trkpt>
      <trkpt lat="41.25625" lon="9.43357">
        <ele>2.54</ele>
        <time>2017-10-09T09:10:11Z</time>
      </trkpt>
      <trkpt lat="41.25636" lon="9.43397">
        <ele>2.54</ele>
        <time>2017-10-09T09:10:31Z</time>
      </trkpt>
      <trkpt lat="41.25649" lon="9.43437">
        <ele>2.06</ele>
        <time>2017-10-09T09:10:51Z</time>
      </trkpt>
      <trkpt lat="41.25659" lon="9.43476">
        <ele>2.54</ele>
        <time>2017-10-09T09:11:10Z</time>
      </trkpt>
      <trkpt lat="41.25669" lon="9.43518">
        <ele>2.54</ele>
        <time>2017-10-09T09:11:30Z</time>
      </trkpt>
      <trkpt lat="41.25683" lon="9.43546">
        <ele>1.1</ele>
        <time>2017-10-09T09:11:46Z</time>
      </trkpt>
      <trkpt lat="41.25704" lon="9.43574">
        <ele>1.1</ele>
        <time>2017-10-09T09:12:05Z</time>
      </trkpt>
      <trkpt lat="41.25743" lon="9.43604">
        <ele>1.58</ele>
        <time>2017-10-09T09:12:33Z</time>
      </trkpt>
      <trkpt lat="41.2578" lon="9.43621">
        <ele>2.06</ele>
        <time>2017-10-09T09:12:56Z</time>
      </trkpt>
      <trkpt lat="41.25808" lon="9.4363">
        <ele>2.06</ele>
        <time>2017-10-09T09:13:13Z</time>
      </trkpt>
      <trkpt lat="41.25838" lon="9.43637">
        <ele>2.06</ele>
        <time>2017-10-09T09:13:31Z</time>
      </trkpt>
      <trkpt lat="41.25869" lon="9.43647">
        <ele>1.58</ele>
        <time>2017-10-09T09:13:50Z</time>
      </trkpt>
      <trkpt lat="41.25903" lon="9.43662">
        <ele>2.06</ele>
        <time>2017-10-09T09:14:11Z</time>
      </trkpt>
      <trkpt lat="41.25934" lon="9.43675">
        <ele>2.06</ele>
        <time>2017-10-09T09:14:31Z</time>
      </trkpt>
      <trkpt lat="41.25967" lon="9.43685">
        <ele>2.06</ele>
        <time>2017-10-09T09:14:52Z</time>
      </trkpt>
      <trkpt lat="41.25998" lon="9.43688">
        <ele>2.06</ele>
        <time>2017-10-09T09:15:11Z</time>
      </trkpt>
      <trkpt lat="41.2603" lon="9.43689">
        <ele>2.54</ele>
        <time>2017-10-09T09:15:29Z</time>
      </trkpt>
      <trkpt lat="41.26065" lon="9.43692">
        <ele>2.54</ele>
        <time>2017-10-09T09:15:48Z</time>
      </trkpt>
      <trkpt lat="41.26102" lon="9.43689">
        <ele>2.54</ele>
        <time>2017-10-09T09:16:09Z</time>
      </trkpt>
      <trkpt lat="41.2613" lon="9.4368">
        <ele>2.06</ele>
        <time>2017-10-09T09:16:24Z</time>
      </trkpt>
      <trkpt lat="41.26167" lon="9.43664">
        <ele>2.54</ele>
        <time>2017-10-09T09:16:44Z</time>
      </trkpt>
      <trkpt lat="41.26201" lon="9.43646">
        <ele>3.02</ele>
        <time>2017-10-09T09:17:02Z</time>
      </trkpt>
      <trkpt lat="41.2624" lon="9.43626">
        <ele>2.06</ele>
        <time>2017-10-09T09:17:24Z</time>
      </trkpt>
      <trkpt lat="41.26275" lon="9.43607">
        <ele>3.02</ele>
        <time>2017-10-09T09:17:43Z</time>
      </trkpt>
      <trkpt lat="41.26314" lon="9.43579">
        <ele>3.02</ele>
        <time>2017-10-09T09:18:05Z</time>
      </trkpt>
      <trkpt lat="41.26347" lon="9.4355">
        <ele>2.54</ele>
        <time>2017-10-09T09:18:25Z</time>
      </trkpt>
      <trkpt lat="41.26376" lon="9.43526">
        <ele>2.54</ele>
        <time>2017-10-09T09:18:42Z</time>
      </trkpt>
      <trkpt lat="41.26408" lon="9.43501">
        <ele>2.54</ele>
        <time>2017-10-09T09:19:00Z</time>
      </trkpt>
      <trkpt lat="41.26431" lon="9.43484">
        <ele>2.54</ele>
        <time>2017-10-09T09:19:13Z</time>
      </trkpt>
      <trkpt lat="41.26458" lon="9.43462">
        <ele>2.06</ele>
        <time>2017-10-09T09:19:29Z</time>
      </trkpt>
      <trkpt lat="41.26499" lon="9.43429">
        <ele>2.06</ele>
        <time>2017-10-09T09:19:53Z</time>
      </trkpt>
      <trkpt lat="41.26529" lon="9.43397">
        <ele>1.58</ele>
        <time>2017-10-09T09:20:11Z</time>
      </trkpt>
      <trkpt lat="41.26557" lon="9.43366">
        <ele>2.06</ele>
        <time>2017-10-09T09:20:28Z</time>
      </trkpt>
      <trkpt lat="41.26585" lon="9.43338">
        <ele>2.06</ele>
        <time>2017-10-09T09:20:46Z</time>
      </trkpt>
      <trkpt lat="41.26611" lon="9.43314">
        <ele>1.1</ele>
        <time>2017-10-09T09:21:03Z</time>
      </trkpt>
      <trkpt lat="41.26631" lon="9.43285">
        <ele>2.06</ele>
        <time>2017-10-09T09:21:19Z</time>
      </trkpt>
      <trkpt lat="41.26656" lon="9.43251">
        <ele>1.1</ele>
        <time>2017-10-09T09:21:38Z</time>
      </trkpt>
      <trkpt lat="41.2668" lon="9.43222">
        <ele>1.58</ele>
        <time>2017-10-09T09:21:55Z</time>
      </trkpt>
      <trkpt lat="41.26699" lon="9.43203">
        <ele>2.06</ele>
        <time>2017-10-09T09:22:07Z</time>
      </trkpt>
      <trkpt lat="41.26728" lon="9.43169">
        <ele>2.06</ele>
        <time>2017-10-09T09:22:27Z</time>
      </trkpt>
      <trkpt lat="41.26749" lon="9.43136">
        <ele>1.58</ele>
        <time>2017-10-09T09:22:44Z</time>
      </trkpt>
      <trkpt lat="41.2677" lon="9.43101">
        <ele>1.58</ele>
        <time>2017-10-09T09:23:04Z</time>
      </trkpt>
      <trkpt lat="41.26788" lon="9.4307">
        <ele>2.54</ele>
        <time>2017-10-09T09:23:22Z</time>
      </trkpt>
      <trkpt lat="41.26808" lon="9.43036">
        <ele>2.06</ele>
        <time>2017-10-09T09:23:42Z</time>
      </trkpt>
      <trkpt lat="41.26824" lon="9.43002">
        <ele>2.06</ele>
        <time>2017-10-09T09:24:01Z</time>
      </trkpt>
      <trkpt lat="41.26837" lon="9.42971">
        <ele>1.1</ele>
        <time>2017-10-09T09:24:18Z</time>
      </trkpt>
      <trkpt lat="41.26852" lon="9.42934">
        <ele>1.58</ele>
        <time>2017-10-09T09:24:37Z</time>
      </trkpt>
      <trkpt lat="41.26868" lon="9.42894">
        <ele>2.06</ele>
        <time>2017-10-09T09:24:56Z</time>
      </trkpt>
      <trkpt lat="41.26884" lon="9.42857">
        <ele>2.06</ele>
        <time>2017-10-09T09:25:14Z</time>
      </trkpt>
      <trkpt lat="41.26899" lon="9.42825">
        <ele>2.54</ele>
        <time>2017-10-09T09:25:30Z</time>
      </trkpt>
      <trkpt lat="41.26915" lon="9.42789">
        <ele>2.06</ele>
        <time>2017-10-09T09:25:48Z</time>
      </trkpt>
      <trkpt lat="41.26932" lon="9.42751">
        <ele>2.06</ele>
        <time>2017-10-09T09:26:08Z</time>
      </trkpt>
      <trkpt lat="41.26946" lon="9.42719">
        <ele>1.58</ele>
        <time>2017-10-09T09:26:26Z</time>
      </trkpt>
      <trkpt lat="41.26955" lon="9.42691">
        <ele>1.58</ele>
        <time>2017-10-09T09:26:41Z</time>
      </trkpt>
      <trkpt lat="41.26965" lon="9.42662">
        <ele>1.1</ele>
        <time>2017-10-09T09:26:58Z</time>
      </trkpt>
      <trkpt lat="41.26974" lon="9.4264">
        <ele>0.14</ele>
        <time>2017-10-09T09:27:11Z</time>
      </trkpt>
      <trkpt lat="41.26986" lon="9.42614">
        <ele>0.14</ele>
        <time>2017-10-09T09:27:28Z</time>
      </trkpt>
      <trkpt lat="41.26998" lon="9.42585">
        <ele>0.62</ele>
        <time>2017-10-09T09:27:46Z</time>
      </trkpt>
      <trkpt lat="41.27009" lon="9.42558">
        <ele>1.1</ele>
        <time>2017-10-09T09:28:02Z</time>
      </trkpt>
      <trkpt lat="41.27022" lon="9.42531">
        <ele>0.62</ele>
        <time>2017-10-09T09:28:21Z</time>
      </trkpt>
      <trkpt lat="41.27033" lon="9.42506">
        <ele>0.14</ele>
        <time>2017-10-09T09:28:38Z</time>
      </trkpt>
      <trkpt lat="41.27035" lon="9.425">
        <ele>0.14</ele>
        <time>2017-10-09T09:28:42Z</time>
      </trkpt>
      <trkpt lat="41.27045" lon="9.42475">
        <ele>0.62</ele>
        <time>2017-10-09T09:28:58Z</time>
      </trkpt>
      <trkpt lat="41.27055" lon="9.42444">
        <ele>1.1</ele>
        <time>2017-10-09T09:29:16Z</time>
      </trkpt>
      <trkpt lat="41.27066" lon="9.42416">
        <ele>0.62</ele>
        <time>2017-10-09T09:29:34Z</time>
      </trkpt>
      <trkpt lat="41.27078" lon="9.42389">
        <ele>0.14</ele>
        <time>2017-10-09T09:29:51Z</time>
      </trkpt>
      <trkpt lat="41.27088" lon="9.42364">
        <ele>-0.82</ele>
        <time>2017-10-09T09:30:06Z</time>
      </trkpt>
      <trkpt lat="41.27093" lon="9.42348">
        <ele>0.14</ele>
        <time>2017-10-09T09:30:16Z</time>
      </trkpt>
      <trkpt lat="41.27101" lon="9.42326">
        <ele>0.62</ele>
        <time>2017-10-09T09:30:30Z</time>
      </trkpt>
      <trkpt lat="41.2711" lon="9.42296">
        <ele>1.1</ele>
        <time>2017-10-09T09:30:48Z</time>
      </trkpt>
      <trkpt lat="41.27117" lon="9.42275">
        <ele>0.62</ele>
        <time>2017-10-09T09:31:01Z</time>
      </trkpt>
      <trkpt lat="41.27126" lon="9.42252">
        <ele>0.62</ele>
        <time>2017-10-09T09:31:17Z</time>
      </trkpt>
      <trkpt lat="41.27135" lon="9.42229">
        <ele>0.62</ele>
        <time>2017-10-09T09:31:33Z</time>
      </trkpt>
      <trkpt lat="41.27136" lon="9.42227">
        <ele>1.1</ele>
        <time>2017-10-09T09:31:35Z</time>
      </trkpt>
      <trkpt lat="41.27139" lon="9.42222">
        <ele>0.62</ele>
        <time>2017-10-09T09:31:39Z</time>
      </trkpt>
      <trkpt lat="41.27141" lon="9.42216">
        <ele>1.1</ele>
        <time>2017-10-09T09:31:43Z</time>
      </trkpt>
      <trkpt lat="41.27143" lon="9.4221">
        <ele>1.1</ele>
        <time>2017-10-09T09:31:47Z</time>
      </trkpt>
      <trkpt lat="41.27153" lon="9.42182">
        <ele>1.1</ele>
        <time>2017-10-09T09:32:06Z</time>
      </trkpt>
      <trkpt lat="41.27161" lon="9.42154">
        <ele>2.06</ele>
        <time>2017-10-09T09:32:22Z</time>
      </trkpt>
      <trkpt lat="41.27171" lon="9.42123">
        <ele>1.58</ele>
        <time>2017-10-09T09:32:39Z</time>
      </trkpt>
      <trkpt lat="41.27172" lon="9.42122">
        <ele>1.58</ele>
        <time>2017-10-09T09:32:40Z</time>
      </trkpt>
      <trkpt lat="41.27177" lon="9.42101">
        <ele>1.58</ele>
        <time>2017-10-09T09:32:51Z</time>
      </trkpt>
      <trkpt lat="41.27178" lon="9.421">
        <ele>1.58</ele>
        <time>2017-10-09T09:32:52Z</time>
      </trkpt>
      <trkpt lat="41.27187" lon="9.42073">
        <ele>2.54</ele>
        <time>2017-10-09T09:33:08Z</time>
      </trkpt>
      <trkpt lat="41.27195" lon="9.42049">
        <ele>2.54</ele>
        <time>2017-10-09T09:33:23Z</time>
      </trkpt>
      <trkpt lat="41.27204" lon="9.42024">
        <ele>2.06</ele>
        <time>2017-10-09T09:33:39Z</time>
      </trkpt>
      <trkpt lat="41.27215" lon="9.41999">
        <ele>2.06</ele>
        <time>2017-10-09T09:33:54Z</time>
      </trkpt>
      <trkpt lat="41.27229" lon="9.41978">
        <ele>0.14</ele>
        <time>2017-10-09T09:34:08Z</time>
      </trkpt>
      <trkpt lat="41.2724" lon="9.41947">
        <ele>0.14</ele>
        <time>2017-10-09T09:34:25Z</time>
      </trkpt>
      <trkpt lat="41.27245" lon="9.41916">
        <ele>1.58</ele>
        <time>2017-10-09T09:34:42Z</time>
      </trkpt>
      <trkpt lat="41.27253" lon="9.41889">
        <ele>2.06</ele>
        <time>2017-10-09T09:34:58Z</time>
      </trkpt>
      <trkpt lat="41.27259" lon="9.41864">
        <ele>2.06</ele>
        <time>2017-10-09T09:35:13Z</time>
      </trkpt>
      <trkpt lat="41.2726" lon="9.41842">
        <ele>1.58</ele>
        <time>2017-10-09T09:35:27Z</time>
      </trkpt>
      <trkpt lat="41.2726" lon="9.41833">
        <ele>1.58</ele>
        <time>2017-10-09T09:35:33Z</time>
      </trkpt>
      <trkpt lat="41.27261" lon="9.41814">
        <ele>2.06</ele>
        <time>2017-10-09T09:35:47Z</time>
      </trkpt>
      <trkpt lat="41.27263" lon="9.41798">
        <ele>1.58</ele>
        <time>2017-10-09T09:35:58Z</time>
      </trkpt>
      <trkpt lat="41.27263" lon="9.41792">
        <ele>2.06</ele>
        <time>2017-10-09T09:36:02Z</time>
      </trkpt>
      <trkpt lat="41.27267" lon="9.41768">
        <ele>1.58</ele>
        <time>2017-10-09T09:36:18Z</time>
      </trkpt>
      <trkpt lat="41.27271" lon="9.41746">
        <ele>1.1</ele>
        <time>2017-10-09T09:36:33Z</time>
      </trkpt>
      <trkpt lat="41.27278" lon="9.4172">
        <ele>1.1</ele>
        <time>2017-10-09T09:36:51Z</time>
      </trkpt>
      <trkpt lat="41.2728" lon="9.41709">
        <ele>1.58</ele>
        <time>2017-10-09T09:36:59Z</time>
      </trkpt>
      <trkpt lat="41.27282" lon="9.41686">
        <ele>1.1</ele>
        <time>2017-10-09T09:37:15Z</time>
      </trkpt>
      <trkpt lat="41.27281" lon="9.41665">
        <ele>1.58</ele>
        <time>2017-10-09T09:37:32Z</time>
      </trkpt>
      <trkpt lat="41.27279" lon="9.41646">
        <ele>1.58</ele>
        <time>2017-10-09T09:37:47Z</time>
      </trkpt>
      <trkpt lat="41.27277" lon="9.41626">
        <ele>1.58</ele>
        <time>2017-10-09T09:38:02Z</time>
      </trkpt>
      <trkpt lat="41.27275" lon="9.41604">
        <ele>2.06</ele>
        <time>2017-10-09T09:38:17Z</time>
      </trkpt>
      <trkpt lat="41.27275" lon="9.41582">
        <ele>2.06</ele>
        <time>2017-10-09T09:38:32Z</time>
      </trkpt>
      <trkpt lat="41.27274" lon="9.41558">
        <ele>2.06</ele>
        <time>2017-10-09T09:38:49Z</time>
      </trkpt>
      <trkpt lat="41.27274" lon="9.41548">
        <ele>2.06</ele>
        <time>2017-10-09T09:38:56Z</time>
      </trkpt>
      <trkpt lat="41.27273" lon="9.41546">
        <ele>2.06</ele>
        <time>2017-10-09T09:38:58Z</time>
      </trkpt>
      <trkpt lat="41.27272" lon="9.41528">
        <ele>2.06</ele>
        <time>2017-10-09T09:39:12Z</time>
      </trkpt>
      <trkpt lat="41.27269" lon="9.41506">
        <ele>1.58</ele>
        <time>2017-10-09T09:39:30Z</time>
      </trkpt>
      <trkpt lat="41.27267" lon="9.41485">
        <ele>2.06</ele>
        <time>2017-10-09T09:39:48Z</time>
      </trkpt>
      <trkpt lat="41.27264" lon="9.41466">
        <ele>2.06</ele>
        <time>2017-10-09T09:40:05Z</time>
      </trkpt>
      <trkpt lat="41.27262" lon="9.41451">
        <ele>2.54</ele>
        <time>2017-10-09T09:40:19Z</time>
      </trkpt>
      <trkpt lat="41.2726" lon="9.41437">
        <ele>1.58</ele>
        <time>2017-10-09T09:40:32Z</time>
      </trkpt>
      <trkpt lat="41.27258" lon="9.41421">
        <ele>1.1</ele>
        <time>2017-10-09T09:40:48Z</time>
      </trkpt>
      <trkpt lat="41.27258" lon="9.41415">
        <ele>0.62</ele>
        <time>2017-10-09T09:40:53Z</time>
      </trkpt>
      <trkpt lat="41.27257" lon="9.41395">
        <ele>0.62</ele>
        <time>2017-10-09T09:41:11Z</time>
      </trkpt>
      <trkpt lat="41.27257" lon="9.41384">
        <ele>1.1</ele>
        <time>2017-10-09T09:41:21Z</time>
      </trkpt>
      <trkpt lat="41.27258" lon="9.41365">
        <ele>2.54</ele>
        <time>2017-10-09T09:41:39Z</time>
      </trkpt>
      <trkpt lat="41.27259" lon="9.41349">
        <ele>1.58</ele>
        <time>2017-10-09T09:41:52Z</time>
      </trkpt>
      <trkpt lat="41.27259" lon="9.41333">
        <ele>2.06</ele>
        <time>2017-10-09T09:42:04Z</time>
      </trkpt>
      <trkpt lat="41.27261" lon="9.41325">
        <ele>1.58</ele>
        <time>2017-10-09T09:42:14Z</time>
      </trkpt>
      <trkpt lat="41.27262" lon="9.4131">
        <ele>1.1</ele>
        <time>2017-10-09T09:42:28Z</time>
      </trkpt>
      <trkpt lat="41.27262" lon="9.41293">
        <ele>1.58</ele>
        <time>2017-10-09T09:42:45Z</time>
      </trkpt>
      <trkpt lat="41.27261" lon="9.41275">
        <ele>0.14</ele>
        <time>2017-10-09T09:43:04Z</time>
      </trkpt>
      <trkpt lat="41.27261" lon="9.41268">
        <ele>0.14</ele>
        <time>2017-10-09T09:43:10Z</time>
      </trkpt>
      <trkpt lat="41.27258" lon="9.41247">
        <ele>0.62</ele>
        <time>2017-10-09T09:43:29Z</time>
      </trkpt>
      <trkpt lat="41.27253" lon="9.4123">
        <ele>1.1</ele>
        <time>2017-10-09T09:43:48Z</time>
      </trkpt>
      <trkpt lat="41.27248" lon="9.41215">
        <ele>0.62</ele>
        <time>2017-10-09T09:44:03Z</time>
      </trkpt>
      <trkpt lat="41.27244" lon="9.41199">
        <ele>0.14</ele>
        <time>2017-10-09T09:44:18Z</time>
      </trkpt>
      <trkpt lat="41.27243" lon="9.4118">
        <ele>0.14</ele>
        <time>2017-10-09T09:44:36Z</time>
      </trkpt>
      <trkpt lat="41.27243" lon="9.41161">
        <ele>0.14</ele>
        <time>2017-10-09T09:44:52Z</time>
      </trkpt>
      <trkpt lat="41.27242" lon="9.41142">
        <ele>1.58</ele>
        <time>2017-10-09T09:45:09Z</time>
      </trkpt>
      <trkpt lat="41.27241" lon="9.41127">
        <ele>2.06</ele>
        <time>2017-10-09T09:45:23Z</time>
      </trkpt>
      <trkpt lat="41.2724" lon="9.41112">
        <ele>2.06</ele>
        <time>2017-10-09T09:45:38Z</time>
      </trkpt>
      <trkpt lat="41.27238" lon="9.41095">
        <ele>2.06</ele>
        <time>2017-10-09T09:45:56Z</time>
      </trkpt>
      <trkpt lat="41.27235" lon="9.41082">
        <ele>2.06</ele>
        <time>2017-10-09T09:46:11Z</time>
      </trkpt>
      <trkpt lat="41.27233" lon="9.41069">
        <ele>1.58</ele>
        <time>2017-10-09T09:46:27Z</time>
      </trkpt>
      <trkpt lat="41.27229" lon="9.41055">
        <ele>2.06</ele>
        <time>2017-10-09T09:46:44Z</time>
      </trkpt>
      <trkpt lat="41.27226" lon="9.41039">
        <ele>2.54</ele>
        <time>2017-10-09T09:47:03Z</time>
      </trkpt>
      <trkpt lat="41.27221" lon="9.41027">
        <ele>2.06</ele>
        <time>2017-10-09T09:47:20Z</time>
      </trkpt>
      <trkpt lat="41.27217" lon="9.41012">
        <ele>1.58</ele>
        <time>2017-10-09T09:47:37Z</time>
      </trkpt>
      <trkpt lat="41.27211" lon="9.40996">
        <ele>-0.82</ele>
        <time>2017-10-09T09:47:56Z</time>
      </trkpt>
      <trkpt lat="41.27205" lon="9.4098">
        <ele>0.14</ele>
        <time>2017-10-09T09:48:14Z</time>
      </trkpt>
      <trkpt lat="41.27197" lon="9.40968">
        <ele>0.62</ele>
        <time>2017-10-09T09:48:30Z</time>
      </trkpt>
      <trkpt lat="41.2719" lon="9.40948">
        <ele>0.62</ele>
        <time>2017-10-09T09:48:48Z</time>
      </trkpt>
      <trkpt lat="41.27185" lon="9.40925">
        <ele>1.1</ele>
        <time>2017-10-09T09:49:08Z</time>
      </trkpt>
      <trkpt lat="41.27178" lon="9.40906">
        <ele>1.58</ele>
        <time>2017-10-09T09:49:26Z</time>
      </trkpt>
      <trkpt lat="41.27175" lon="9.40889">
        <ele>2.06</ele>
        <time>2017-10-09T09:49:42Z</time>
      </trkpt>
      <trkpt lat="41.27173" lon="9.40871">
        <ele>2.06</ele>
        <time>2017-10-09T09:49:59Z</time>
      </trkpt>
      <trkpt lat="41.27169" lon="9.40852">
        <ele>2.54</ele>
        <time>2017-10-09T09:50:18Z</time>
      </trkpt>
      <trkpt lat="41.27166" lon="9.40839">
        <ele>2.06</ele>
        <time>2017-10-09T09:50:33Z</time>
      </trkpt>
      <trkpt lat="41.27164" lon="9.40823">
        <ele>1.58</ele>
        <time>2017-10-09T09:50:50Z</time>
      </trkpt>
      <trkpt lat="41.27162" lon="9.40804">
        <ele>1.1</ele>
        <time>2017-10-09T09:51:10Z</time>
      </trkpt>
      <trkpt lat="41.2716" lon="9.40789">
        <ele>1.58</ele>
        <time>2017-10-09T09:51:26Z</time>
      </trkpt>
      <trkpt lat="41.27158" lon="9.4077">
        <ele>1.58</ele>
        <time>2017-10-09T09:51:46Z</time>
      </trkpt>
      <trkpt lat="41.27156" lon="9.40754">
        <ele>1.58</ele>
        <time>2017-10-09T09:52:04Z</time>
      </trkpt>
      <trkpt lat="41.27153" lon="9.40737">
        <ele>1.58</ele>
        <time>2017-10-09T09:52:20Z</time>
      </trkpt>
      <trkpt lat="41.27148" lon="9.40716">
        <ele>0.14</ele>
        <time>2017-10-09T09:52:38Z</time>
      </trkpt>
      <trkpt lat="41.27147" lon="9.40707">
        <ele>0.62</ele>
        <time>2017-10-09T09:52:45Z</time>
      </trkpt>
      <trkpt lat="41.27146" lon="9.40698">
        <ele>1.1</ele>
        <time>2017-10-09T09:52:51Z</time>
      </trkpt>
      <trkpt lat="41.27143" lon="9.4067">
        <ele>1.58</ele>
        <time>2017-10-09T09:53:10Z</time>
      </trkpt>
      <trkpt lat="41.27139" lon="9.40648">
        <ele>1.58</ele>
        <time>2017-10-09T09:53:26Z</time>
      </trkpt>
      <trkpt lat="41.27135" lon="9.40622">
        <ele>2.06</ele>
        <time>2017-10-09T09:53:45Z</time>
      </trkpt>
      <trkpt lat="41.27131" lon="9.40601">
        <ele>2.06</ele>
        <time>2017-10-09T09:54:03Z</time>
      </trkpt>
      <trkpt lat="41.27129" lon="9.40581">
        <ele>1.58</ele>
        <time>2017-10-09T09:54:20Z</time>
      </trkpt>
      <trkpt lat="41.27128" lon="9.40564">
        <ele>2.54</ele>
        <time>2017-10-09T09:54:36Z</time>
      </trkpt>
      <trkpt lat="41.27128" lon="9.40543">
        <ele>3.02</ele>
        <time>2017-10-09T09:54:54Z</time>
      </trkpt>
      <trkpt lat="41.27126" lon="9.4052">
        <ele>3.02</ele>
        <time>2017-10-09T09:55:13Z</time>
      </trkpt>
      <trkpt lat="41.27124" lon="9.40493">
        <ele>3.02</ele>
        <time>2017-10-09T09:55:35Z</time>
      </trkpt>
      <trkpt lat="41.27124" lon="9.40467">
        <ele>2.54</ele>
        <time>2017-10-09T09:55:56Z</time>
      </trkpt>
      <trkpt lat="41.27124" lon="9.40441">
        <ele>2.54</ele>
        <time>2017-10-09T09:56:15Z</time>
      </trkpt>
      <trkpt lat="41.27124" lon="9.40417">
        <ele>2.54</ele>
        <time>2017-10-09T09:56:31Z</time>
      </trkpt>
      <trkpt lat="41.27123" lon="9.404">
        <ele>2.54</ele>
        <time>2017-10-09T09:56:42Z</time>
      </trkpt>
      <trkpt lat="41.27122" lon="9.4037">
        <ele>1.58</ele>
        <time>2017-10-09T09:57:02Z</time>
      </trkpt>
      <trkpt lat="41.27123" lon="9.4034">
        <ele>2.06</ele>
        <time>2017-10-09T09:57:20Z</time>
      </trkpt>
      <trkpt lat="41.27123" lon="9.40325">
        <ele>2.54</ele>
        <time>2017-10-09T09:57:29Z</time>
      </trkpt>
      <trkpt lat="41.27121" lon="9.40294">
        <ele>2.06</ele>
        <time>2017-10-09T09:57:47Z</time>
      </trkpt>
      <trkpt lat="41.27119" lon="9.40263">
        <ele>2.54</ele>
        <time>2017-10-09T09:58:05Z</time>
      </trkpt>
      <trkpt lat="41.27116" lon="9.40235">
        <ele>2.06</ele>
        <time>2017-10-09T09:58:21Z</time>
      </trkpt>
      <trkpt lat="41.27114" lon="9.40225">
        <ele>1.58</ele>
        <time>2017-10-09T09:58:27Z</time>
      </trkpt>
      <trkpt lat="41.27114" lon="9.40222">
        <ele>1.58</ele>
        <time>2017-10-09T09:58:29Z</time>
      </trkpt>
      <trkpt lat="41.27113" lon="9.40215">
        <ele>1.1</ele>
        <time>2017-10-09T09:58:34Z</time>
      </trkpt>
      <trkpt lat="41.2711" lon="9.40189">
        <ele>2.54</ele>
        <time>2017-10-09T09:58:51Z</time>
      </trkpt>
      <trkpt lat="41.2711" lon="9.40183">
        <ele>1.58</ele>
        <time>2017-10-09T09:58:55Z</time>
      </trkpt>
      <trkpt lat="41.27106" lon="9.40155">
        <ele>3.02</ele>
        <time>2017-10-09T09:59:13Z</time>
      </trkpt>
      <trkpt lat="41.27103" lon="9.40134">
        <ele>2.54</ele>
        <time>2017-10-09T09:59:28Z</time>
      </trkpt>
      <trkpt lat="41.27101" lon="9.40112">
        <ele>1.1</ele>
        <time>2017-10-09T09:59:41Z</time>
      </trkpt>
      <trkpt lat="41.27099" lon="9.40088">
        <ele>0.14</ele>
        <time>2017-10-09T09:59:57Z</time>
      </trkpt>
      <trkpt lat="41.27096" lon="9.40058">
        <ele>0.62</ele>
        <time>2017-10-09T10:00:18Z</time>
      </trkpt>
      <trkpt lat="41.27094" lon="9.40042">
        <ele>2.06</ele>
        <time>2017-10-09T10:00:31Z</time>
      </trkpt>
      <trkpt lat="41.27094" lon="9.40036">
        <ele>1.58</ele>
        <time>2017-10-09T10:00:35Z</time>
      </trkpt>
      <trkpt lat="41.27094" lon="9.40028">
        <ele>1.58</ele>
        <time>2017-10-09T10:00:39Z</time>
      </trkpt>
      <trkpt lat="41.2709" lon="9.40005">
        <ele>2.54</ele>
        <time>2017-10-09T10:00:53Z</time>
      </trkpt>
      <trkpt lat="41.27089" lon="9.39982">
        <ele>3.02</ele>
        <time>2017-10-09T10:01:04Z</time>
      </trkpt>
      <trkpt lat="41.27087" lon="9.39971">
        <ele>3.02</ele>
        <time>2017-10-09T10:01:16Z</time>
      </trkpt>
      <trkpt lat="41.27086" lon="9.39961">
        <ele>2.06</ele>
        <time>2017-10-09T10:01:28Z</time>
      </trkpt>
      <trkpt lat="41.27083" lon="9.39944">
        <ele>2.06</ele>
        <time>2017-10-09T10:01:42Z</time>
      </trkpt>
      <trkpt lat="41.27083" lon="9.39931">
        <ele>2.06</ele>
        <time>2017-10-09T10:01:54Z</time>
      </trkpt>
      <trkpt lat="41.27082" lon="9.39917">
        <ele>3.02</ele>
        <time>2017-10-09T10:02:06Z</time>
      </trkpt>
      <trkpt lat="41.2708" lon="9.39897">
        <ele>2.54</ele>
        <time>2017-10-09T10:02:24Z</time>
      </trkpt>
      <trkpt lat="41.27077" lon="9.39872">
        <ele>2.54</ele>
        <time>2017-10-09T10:02:44Z</time>
      </trkpt>
      <trkpt lat="41.27076" lon="9.39866">
        <ele>3.02</ele>
        <time>2017-10-09T10:02:48Z</time>
      </trkpt>
      <trkpt lat="41.27073" lon="9.3983">
        <ele>3.5</ele>
        <time>2017-10-09T10:03:11Z</time>
      </trkpt>
      <trkpt lat="41.2707" lon="9.39798">
        <ele>3.02</ele>
        <time>2017-10-09T10:03:30Z</time>
      </trkpt>
      <trkpt lat="41.27069" lon="9.39772">
        <ele>2.06</ele>
        <time>2017-10-09T10:03:46Z</time>
      </trkpt>
      <trkpt lat="41.27066" lon="9.39748">
        <ele>2.06</ele>
        <time>2017-10-09T10:04:01Z</time>
      </trkpt>
      <trkpt lat="41.27065" lon="9.39734">
        <ele>2.54</ele>
        <time>2017-10-09T10:04:10Z</time>
      </trkpt>
      <trkpt lat="41.27064" lon="9.39723">
        <ele>2.06</ele>
        <time>2017-10-09T10:04:17Z</time>
      </trkpt>
      <trkpt lat="41.27062" lon="9.39697">
        <ele>2.54</ele>
        <time>2017-10-09T10:04:35Z</time>
      </trkpt>
      <trkpt lat="41.2706" lon="9.39671">
        <ele>3.02</ele>
        <time>2017-10-09T10:04:55Z</time>
      </trkpt>
      <trkpt lat="41.27058" lon="9.39647">
        <ele>3.5</ele>
        <time>2017-10-09T10:05:14Z</time>
      </trkpt>
      <trkpt lat="41.27056" lon="9.39626">
        <ele>4.94</ele>
        <time>2017-10-09T10:05:32Z</time>
      </trkpt>
      <trkpt lat="41.27055" lon="9.39604">
        <ele>4.94</ele>
        <time>2017-10-09T10:05:52Z</time>
      </trkpt>
      <trkpt lat="41.27054" lon="9.39587">
        <ele>3.98</ele>
        <time>2017-10-09T10:06:10Z</time>
      </trkpt>
      <trkpt lat="41.27052" lon="9.3957">
        <ele>3.98</ele>
        <time>2017-10-09T10:06:27Z</time>
      </trkpt>
      <trkpt lat="41.27051" lon="9.39554">
        <ele>3.98</ele>
        <time>2017-10-09T10:06:43Z</time>
      </trkpt>
      <trkpt lat="41.2705" lon="9.39537">
        <ele>3.5</ele>
        <time>2017-10-09T10:07:00Z</time>
      </trkpt>
      <trkpt lat="41.27049" lon="9.39523">
        <ele>3.02</ele>
        <time>2017-10-09T10:07:15Z</time>
      </trkpt>
      <trkpt lat="41.27047" lon="9.39509">
        <ele>3.5</ele>
        <time>2017-10-09T10:07:30Z</time>
      </trkpt>
      <trkpt lat="41.27047" lon="9.39492">
        <ele>3.5</ele>
        <time>2017-10-09T10:07:47Z</time>
      </trkpt>
      <trkpt lat="41.27047" lon="9.39475">
        <ele>3.02</ele>
        <time>2017-10-09T10:08:03Z</time>
      </trkpt>
      <trkpt lat="41.27046" lon="9.39457">
        <ele>2.54</ele>
        <time>2017-10-09T10:08:21Z</time>
      </trkpt>
      <trkpt lat="41.27045" lon="9.39439">
        <ele>2.54</ele>
        <time>2017-10-09T10:08:38Z</time>
      </trkpt>
      <trkpt lat="41.27042" lon="9.39419">
        <ele>3.02</ele>
        <time>2017-10-09T10:08:56Z</time>
      </trkpt>
      <trkpt lat="41.27041" lon="9.39398">
        <ele>2.54</ele>
        <time>2017-10-09T10:09:16Z</time>
      </trkpt>
      <trkpt lat="41.27039" lon="9.39374">
        <ele>2.54</ele>
        <time>2017-10-09T10:09:38Z</time>
      </trkpt>
      <trkpt lat="41.27038" lon="9.39353">
        <ele>2.54</ele>
        <time>2017-10-09T10:09:59Z</time>
      </trkpt>
      <trkpt lat="41.27036" lon="9.39331">
        <ele>2.54</ele>
        <time>2017-10-09T10:10:21Z</time>
      </trkpt>
      <trkpt lat="41.27035" lon="9.39313">
        <ele>3.02</ele>
        <time>2017-10-09T10:10:40Z</time>
      </trkpt>
      <trkpt lat="41.27034" lon="9.39299">
        <ele>3.5</ele>
        <time>2017-10-09T10:10:56Z</time>
      </trkpt>
      <trkpt lat="41.27032" lon="9.39282">
        <ele>3.02</ele>
        <time>2017-10-09T10:11:14Z</time>
      </trkpt>
      <trkpt lat="41.2703" lon="9.39264">
        <ele>3.02</ele>
        <time>2017-10-09T10:11:34Z</time>
      </trkpt>
      <trkpt lat="41.27029" lon="9.39244">
        <ele>2.54</ele>
        <time>2017-10-09T10:11:55Z</time>
      </trkpt>
      <trkpt lat="41.27028" lon="9.39229">
        <ele>2.06</ele>
        <time>2017-10-09T10:12:11Z</time>
      </trkpt>
      <trkpt lat="41.27027" lon="9.39212">
        <ele>1.58</ele>
        <time>2017-10-09T10:12:28Z</time>
      </trkpt>
      <trkpt lat="41.27025" lon="9.39187">
        <ele>1.58</ele>
        <time>2017-10-09T10:12:46Z</time>
      </trkpt>
      <trkpt lat="41.27022" lon="9.39143">
        <ele>1.58</ele>
        <time>2017-10-09T10:13:06Z</time>
      </trkpt>
      <trkpt lat="41.27019" lon="9.39102">
        <ele>0.62</ele>
        <time>2017-10-09T10:13:22Z</time>
      </trkpt>
      <trkpt lat="41.27016" lon="9.39051">
        <ele>1.1</ele>
        <time>2017-10-09T10:13:41Z</time>
      </trkpt>
      <trkpt lat="41.27014" lon="9.39007">
        <ele>0.62</ele>
        <time>2017-10-09T10:13:57Z</time>
      </trkpt>
      <trkpt lat="41.27012" lon="9.38958">
        <ele>1.58</ele>
        <time>2017-10-09T10:14:15Z</time>
      </trkpt>
      <trkpt lat="41.27008" lon="9.38907">
        <ele>1.58</ele>
        <time>2017-10-09T10:14:34Z</time>
      </trkpt>
      <trkpt lat="41.27006" lon="9.38863">
        <ele>0.14</ele>
        <time>2017-10-09T10:14:50Z</time>
      </trkpt>
      <trkpt lat="41.27004" lon="9.38817">
        <ele>0.14</ele>
        <time>2017-10-09T10:15:07Z</time>
      </trkpt>
      <trkpt lat="41.27" lon="9.38761">
        <ele>1.1</ele>
        <time>2017-10-09T10:15:25Z</time>
      </trkpt>
      <trkpt lat="41.26997" lon="9.38697">
        <ele>0.14</ele>
        <time>2017-10-09T10:15:44Z</time>
      </trkpt>
      <trkpt lat="41.26995" lon="9.38631">
        <ele>-0.34</ele>
        <time>2017-10-09T10:16:03Z</time>
      </trkpt>
      <trkpt lat="41.26992" lon="9.38572">
        <ele>0.62</ele>
        <time>2017-10-09T10:16:20Z</time>
      </trkpt>
      <trkpt lat="41.26989" lon="9.3851">
        <ele>0.62</ele>
        <time>2017-10-09T10:16:38Z</time>
      </trkpt>
      <trkpt lat="41.26987" lon="9.38448">
        <ele>0.14</ele>
        <time>2017-10-09T10:16:56Z</time>
      </trkpt>
      <trkpt lat="41.26984" lon="9.38392">
        <ele>1.1</ele>
        <time>2017-10-09T10:17:12Z</time>
      </trkpt>
      <trkpt lat="41.26981" lon="9.38329">
        <ele>0.62</ele>
        <time>2017-10-09T10:17:30Z</time>
      </trkpt>
      <trkpt lat="41.26978" lon="9.38265">
        <ele>0.14</ele>
        <time>2017-10-09T10:17:48Z</time>
      </trkpt>
      <trkpt lat="41.26975" lon="9.38196">
        <ele>1.1</ele>
        <time>2017-10-09T10:18:08Z</time>
      </trkpt>
      <trkpt lat="41.26972" lon="9.38139">
        <ele>1.58</ele>
        <time>2017-10-09T10:18:24Z</time>
      </trkpt>
      <trkpt lat="41.26968" lon="9.38073">
        <ele>1.58</ele>
        <time>2017-10-09T10:18:43Z</time>
      </trkpt>
      <trkpt lat="41.26965" lon="9.3801">
        <ele>1.1</ele>
        <time>2017-10-09T10:19:01Z</time>
      </trkpt>
      <trkpt lat="41.26962" lon="9.3794">
        <ele>1.58</ele>
        <time>2017-10-09T10:19:19Z</time>
      </trkpt>
      <trkpt lat="41.26958" lon="9.37855">
        <ele>1.58</ele>
        <time>2017-10-09T10:19:40Z</time>
      </trkpt>
      <trkpt lat="41.26955" lon="9.37774">
        <ele>1.1</ele>
        <time>2017-10-09T10:20:00Z</time>
      </trkpt>
      <trkpt lat="41.26952" lon="9.37692">
        <ele>1.1</ele>
        <time>2017-10-09T10:20:20Z</time>
      </trkpt>
      <trkpt lat="41.2695" lon="9.37626">
        <ele>0.62</ele>
        <time>2017-10-09T10:20:36Z</time>
      </trkpt>
      <trkpt lat="41.26947" lon="9.37553">
        <ele>1.1</ele>
        <time>2017-10-09T10:20:54Z</time>
      </trkpt>
      <trkpt lat="41.26946" lon="9.37489">
        <ele>1.1</ele>
        <time>2017-10-09T10:21:10Z</time>
      </trkpt>
      <trkpt lat="41.26945" lon="9.3742">
        <ele>0.62</ele>
        <time>2017-10-09T10:21:27Z</time>
      </trkpt>
      <trkpt lat="41.26944" lon="9.37349">
        <ele>1.58</ele>
        <time>2017-10-09T10:21:44Z</time>
      </trkpt>
      <trkpt lat="41.26943" lon="9.37283">
        <ele>0.62</ele>
        <time>2017-10-09T10:22:00Z</time>
      </trkpt>
      <trkpt lat="41.26941" lon="9.37214">
        <ele>0.62</ele>
        <time>2017-10-09T10:22:17Z</time>
      </trkpt>
      <trkpt lat="41.2694" lon="9.37137">
        <ele>1.1</ele>
        <time>2017-10-09T10:22:36Z</time>
      </trkpt>
      <trkpt lat="41.26938" lon="9.37064">
        <ele>0.14</ele>
        <time>2017-10-09T10:22:54Z</time>
      </trkpt>
      <trkpt lat="41.26936" lon="9.36983">
        <ele>0.14</ele>
        <time>2017-10-09T10:23:14Z</time>
      </trkpt>
      <trkpt lat="41.26935" lon="9.3691">
        <ele>0.14</ele>
        <time>2017-10-09T10:23:32Z</time>
      </trkpt>
      <trkpt lat="41.26934" lon="9.36842">
        <ele>0.62</ele>
        <time>2017-10-09T10:23:49Z</time>
      </trkpt>
      <trkpt lat="41.26934" lon="9.36778">
        <ele>0.14</ele>
        <time>2017-10-09T10:24:05Z</time>
      </trkpt>
      <trkpt lat="41.26933" lon="9.36709">
        <ele>-0.34</ele>
        <time>2017-10-09T10:24:22Z</time>
      </trkpt>
      <trkpt lat="41.26934" lon="9.36641">
        <ele>-0.34</ele>
        <time>2017-10-09T10:24:39Z</time>
      </trkpt>
      <trkpt lat="41.26933" lon="9.36581">
        <ele>0.62</ele>
        <time>2017-10-09T10:24:54Z</time>
      </trkpt>
      <trkpt lat="41.26934" lon="9.36512">
        <ele>0.14</ele>
        <time>2017-10-09T10:25:11Z</time>
      </trkpt>
      <trkpt lat="41.26933" lon="9.36443">
        <ele>0.62</ele>
        <time>2017-10-09T10:25:28Z</time>
      </trkpt>
      <trkpt lat="41.26932" lon="9.36362">
        <ele>0.62</ele>
        <time>2017-10-09T10:25:48Z</time>
      </trkpt>
      <trkpt lat="41.26932" lon="9.36299">
        <ele>0.62</ele>
        <time>2017-10-09T10:26:04Z</time>
      </trkpt>
      <trkpt lat="41.26931" lon="9.36236">
        <ele>1.1</ele>
        <time>2017-10-09T10:26:20Z</time>
      </trkpt>
      <trkpt lat="41.2693" lon="9.36156">
        <ele>1.1</ele>
        <time>2017-10-09T10:26:40Z</time>
      </trkpt>
      <trkpt lat="41.26929" lon="9.36083">
        <ele>0.14</ele>
        <time>2017-10-09T10:26:58Z</time>
      </trkpt>
      <trkpt lat="41.26927" lon="9.3601">
        <ele>0.62</ele>
        <time>2017-10-09T10:27:16Z</time>
      </trkpt>
      <trkpt lat="41.26928" lon="9.3595">
        <ele>1.1</ele>
        <time>2017-10-09T10:27:31Z</time>
      </trkpt>
      <trkpt lat="41.26929" lon="9.35884">
        <ele>1.1</ele>
        <time>2017-10-09T10:27:47Z</time>
      </trkpt>
      <trkpt lat="41.2693" lon="9.35802">
        <ele>1.58</ele>
        <time>2017-10-09T10:28:07Z</time>
      </trkpt>
      <trkpt lat="41.26933" lon="9.35738">
        <ele>1.1</ele>
        <time>2017-10-09T10:28:23Z</time>
      </trkpt>
      <trkpt lat="41.26936" lon="9.35678">
        <ele>1.1</ele>
        <time>2017-10-09T10:28:38Z</time>
      </trkpt>
      <trkpt lat="41.2694" lon="9.35609">
        <ele>1.1</ele>
        <time>2017-10-09T10:28:55Z</time>
      </trkpt>
      <trkpt lat="41.26944" lon="9.35532">
        <ele>1.1</ele>
        <time>2017-10-09T10:29:14Z</time>
      </trkpt>
      <trkpt lat="41.26948" lon="9.35455">
        <ele>0.14</ele>
        <time>2017-10-09T10:29:33Z</time>
      </trkpt>
      <trkpt lat="41.26953" lon="9.35391">
        <ele>0.14</ele>
        <time>2017-10-09T10:29:49Z</time>
      </trkpt>
      <trkpt lat="41.2696" lon="9.35308">
        <ele>0.62</ele>
        <time>2017-10-09T10:30:09Z</time>
      </trkpt>
      <trkpt lat="41.26967" lon="9.35239">
        <ele>0.14</ele>
        <time>2017-10-09T10:30:26Z</time>
      </trkpt>
      <trkpt lat="41.26973" lon="9.35162">
        <ele>1.1</ele>
        <time>2017-10-09T10:30:45Z</time>
      </trkpt>
      <trkpt lat="41.2698" lon="9.35093">
        <ele>0.62</ele>
        <time>2017-10-09T10:31:02Z</time>
      </trkpt>
      <trkpt lat="41.26986" lon="9.35031">
        <ele>0.14</ele>
        <time>2017-10-09T10:31:17Z</time>
      </trkpt>
      <trkpt lat="41.26992" lon="9.3497">
        <ele>-2.75</ele>
        <time>2017-10-09T10:31:32Z</time>
      </trkpt>
      <trkpt lat="41.26998" lon="9.34915">
        <ele>-1.79</ele>
        <time>2017-10-09T10:31:46Z</time>
      </trkpt>
      <trkpt lat="41.27004" lon="9.34855">
        <ele>-1.3</ele>
        <time>2017-10-09T10:32:01Z</time>
      </trkpt>
      <trkpt lat="41.27012" lon="9.34797">
        <ele>-0.34</ele>
        <time>2017-10-09T10:32:16Z</time>
      </trkpt>
      <trkpt lat="41.27021" lon="9.34734">
        <ele>0.62</ele>
        <time>2017-10-09T10:32:32Z</time>
      </trkpt>
      <trkpt lat="41.2703" lon="9.34674">
        <ele>1.1</ele>
        <time>2017-10-09T10:32:47Z</time>
      </trkpt>
      <trkpt lat="41.27039" lon="9.3461">
        <ele>1.1</ele>
        <time>2017-10-09T10:33:03Z</time>
      </trkpt>
      <trkpt lat="41.27049" lon="9.34553">
        <ele>-0.34</ele>
        <time>2017-10-09T10:33:17Z</time>
      </trkpt>
      <trkpt lat="41.27057" lon="9.34506">
        <ele>0.62</ele>
        <time>2017-10-09T10:33:29Z</time>
      </trkpt>
      <trkpt lat="41.2707" lon="9.34435">
        <ele>0.62</ele>
        <time>2017-10-09T10:33:47Z</time>
      </trkpt>
      <trkpt lat="41.27086" lon="9.34356">
        <ele>1.1</ele>
        <time>2017-10-09T10:34:07Z</time>
      </trkpt>
      <trkpt lat="41.271" lon="9.34285">
        <ele>1.58</ele>
        <time>2017-10-09T10:34:25Z</time>
      </trkpt>
      <trkpt lat="41.27115" lon="9.34214">
        <ele>0.62</ele>
        <time>2017-10-09T10:34:43Z</time>
      </trkpt>
      <trkpt lat="41.27133" lon="9.34145">
        <ele>0.14</ele>
        <time>2017-10-09T10:35:01Z</time>
      </trkpt>
      <trkpt lat="41.27149" lon="9.34087">
        <ele>0.14</ele>
        <time>2017-10-09T10:35:16Z</time>
      </trkpt>
      <trkpt lat="41.27171" lon="9.3403">
        <ele>0.14</ele>
        <time>2017-10-09T10:35:32Z</time>
      </trkpt>
      <trkpt lat="41.27194" lon="9.33975">
        <ele>0.14</ele>
        <time>2017-10-09T10:35:48Z</time>
      </trkpt>
      <trkpt lat="41.2722" lon="9.33922">
        <ele>-0.82</ele>
        <time>2017-10-09T10:36:04Z</time>
      </trkpt>
      <trkpt lat="41.27255" lon="9.33855">
        <ele>-1.3</ele>
        <time>2017-10-09T10:36:25Z</time>
      </trkpt>
      <trkpt lat="41.27281" lon="9.33807">
        <ele>-0.82</ele>
        <time>2017-10-09T10:36:40Z</time>
      </trkpt>
      <trkpt lat="41.27309" lon="9.33759">
        <ele>-0.34</ele>
        <time>2017-10-09T10:36:55Z</time>
      </trkpt>
      <trkpt lat="41.27339" lon="9.33706">
        <ele>-0.34</ele>
        <time>2017-10-09T10:37:12Z</time>
      </trkpt>
      <trkpt lat="41.27374" lon="9.33646">
        <ele>-0.82</ele>
        <time>2017-10-09T10:37:31Z</time>
      </trkpt>
      <trkpt lat="41.27409" lon="9.3359">
        <ele>0.14</ele>
        <time>2017-10-09T10:37:49Z</time>
      </trkpt>
      <trkpt lat="41.27439" lon="9.33535">
        <ele>0.14</ele>
        <time>2017-10-09T10:38:06Z</time>
      </trkpt>
      <trkpt lat="41.2747" lon="9.33481">
        <ele>0.62</ele>
        <time>2017-10-09T10:38:23Z</time>
      </trkpt>
      <trkpt lat="41.27499" lon="9.33432">
        <ele>0.62</ele>
        <time>2017-10-09T10:38:38Z</time>
      </trkpt>
      <trkpt lat="41.27531" lon="9.33376">
        <ele>1.58</ele>
        <time>2017-10-09T10:38:55Z</time>
      </trkpt>
      <trkpt lat="41.27563" lon="9.33318">
        <ele>1.58</ele>
        <time>2017-10-09T10:39:13Z</time>
      </trkpt>
      <trkpt lat="41.2759" lon="9.33274">
        <ele>0.62</ele>
        <time>2017-10-09T10:39:27Z</time>
      </trkpt>
      <trkpt lat="41.27623" lon="9.33222">
        <ele>1.1</ele>
        <time>2017-10-09T10:39:44Z</time>
      </trkpt>
      <trkpt lat="41.27656" lon="9.33165">
        <ele>1.1</ele>
        <time>2017-10-09T10:40:02Z</time>
      </trkpt>
      <trkpt lat="41.27688" lon="9.33112">
        <ele>1.58</ele>
        <time>2017-10-09T10:40:19Z</time>
      </trkpt>
      <trkpt lat="41.27722" lon="9.33055">
        <ele>1.1</ele>
        <time>2017-10-09T10:40:37Z</time>
      </trkpt>
      <trkpt lat="41.27755" lon="9.33001">
        <ele>1.1</ele>
        <time>2017-10-09T10:40:54Z</time>
      </trkpt>
      <trkpt lat="41.27786" lon="9.3295">
        <ele>2.06</ele>
        <time>2017-10-09T10:41:10Z</time>
      </trkpt>
      <trkpt lat="41.27823" lon="9.3289">
        <ele>1.1</ele>
        <time>2017-10-09T10:41:29Z</time>
      </trkpt>
      <trkpt lat="41.27854" lon="9.32839">
        <ele>0.62</ele>
        <time>2017-10-09T10:41:45Z</time>
      </trkpt>
      <trkpt lat="41.27884" lon="9.3279">
        <ele>0.62</ele>
        <time>2017-10-09T10:42:01Z</time>
      </trkpt>
      <trkpt lat="41.27914" lon="9.32742">
        <ele>0.14</ele>
        <time>2017-10-09T10:42:17Z</time>
      </trkpt>
      <trkpt lat="41.27941" lon="9.32698">
        <ele>0.62</ele>
        <time>2017-10-09T10:42:32Z</time>
      </trkpt>
      <trkpt lat="41.27971" lon="9.32648">
        <ele>0.62</ele>
        <time>2017-10-09T10:42:49Z</time>
      </trkpt>
      <trkpt lat="41.28003" lon="9.32596">
        <ele>1.1</ele>
        <time>2017-10-09T10:43:07Z</time>
      </trkpt>
      <trkpt lat="41.28031" lon="9.3255">
        <ele>0.62</ele>
        <time>2017-10-09T10:43:23Z</time>
      </trkpt>
      <trkpt lat="41.28062" lon="9.32497">
        <ele>0.14</ele>
        <time>2017-10-09T10:44:00Z</time>
      </trkpt>
      <trkpt lat="41.28093" lon="9.32449">
        <ele>0.14</ele>
        <time>2017-10-09T10:44:17Z</time>
      </trkpt>
      <trkpt lat="41.28118" lon="9.32409">
        <ele>1.1</ele>
        <time>2017-10-09T10:44:31Z</time>
      </trkpt>
      <trkpt lat="41.28154" lon="9.32352">
        <ele>1.1</ele>
        <time>2017-10-09T10:44:51Z</time>
      </trkpt>
      <trkpt lat="41.28185" lon="9.32303">
        <ele>1.1</ele>
        <time>2017-10-09T10:45:08Z</time>
      </trkpt>
      <trkpt lat="41.28215" lon="9.32254">
        <ele>1.1</ele>
        <time>2017-10-09T10:45:25Z</time>
      </trkpt>
      <trkpt lat="41.28247" lon="9.32202">
        <ele>0.14</ele>
        <time>2017-10-09T10:45:43Z</time>
      </trkpt>
      <trkpt lat="41.28276" lon="9.32158">
        <ele>-0.34</ele>
        <time>2017-10-09T10:45:59Z</time>
      </trkpt>
      <trkpt lat="41.2831" lon="9.32104">
        <ele>-0.34</ele>
        <time>2017-10-09T10:46:18Z</time>
      </trkpt>
      <trkpt lat="41.28335" lon="9.32063">
        <ele>0.14</ele>
        <time>2017-10-09T10:46:32Z</time>
      </trkpt>
      <trkpt lat="41.28366" lon="9.32014">
        <ele>0.14</ele>
        <time>2017-10-09T10:46:49Z</time>
      </trkpt>
      <trkpt lat="41.28401" lon="9.31959">
        <ele>0.14</ele>
        <time>2017-10-09T10:47:08Z</time>
      </trkpt>
      <trkpt lat="41.28429" lon="9.31914">
        <ele>-0.82</ele>
        <time>2017-10-09T10:47:23Z</time>
      </trkpt>
      <trkpt lat="41.28458" lon="9.31867">
        <ele>0.62</ele>
        <time>2017-10-09T10:47:39Z</time>
      </trkpt>
      <trkpt lat="41.28482" lon="9.31826">
        <ele>1.1</ele>
        <time>2017-10-09T10:47:53Z</time>
      </trkpt>
      <trkpt lat="41.28513" lon="9.31773">
        <ele>-0.34</ele>
        <time>2017-10-09T10:48:11Z</time>
      </trkpt>
      <trkpt lat="41.28539" lon="9.31728">
        <ele>-0.82</ele>
        <time>2017-10-09T10:48:26Z</time>
      </trkpt>
      <trkpt lat="41.28564" lon="9.31686">
        <ele>-0.34</ele>
        <time>2017-10-09T10:48:40Z</time>
      </trkpt>
      <trkpt lat="41.28591" lon="9.31643">
        <ele>-0.34</ele>
        <time>2017-10-09T10:48:55Z</time>
      </trkpt>
      <trkpt lat="41.28615" lon="9.31601">
        <ele>-0.34</ele>
        <time>2017-10-09T10:49:09Z</time>
      </trkpt>
      <trkpt lat="41.28643" lon="9.31554">
        <ele>-0.82</ele>
        <time>2017-10-09T10:49:25Z</time>
      </trkpt>
      <trkpt lat="41.28672" lon="9.31508">
        <ele>-0.82</ele>
        <time>2017-10-09T10:49:41Z</time>
      </trkpt>
      <trkpt lat="41.28694" lon="9.3147">
        <ele>-0.34</ele>
        <time>2017-10-09T10:49:54Z</time>
      </trkpt>
      <trkpt lat="41.28722" lon="9.31423">
        <ele>-0.34</ele>
        <time>2017-10-09T10:50:10Z</time>
      </trkpt>
      <trkpt lat="41.28742" lon="9.31387">
        <ele>-0.82</ele>
        <time>2017-10-09T10:50:22Z</time>
      </trkpt>
      <trkpt lat="41.28772" lon="9.31337">
        <ele>0.14</ele>
        <time>2017-10-09T10:50:39Z</time>
      </trkpt>
      <trkpt lat="41.28796" lon="9.31297">
        <ele>0.14</ele>
        <time>2017-10-09T10:50:53Z</time>
      </trkpt>
      <trkpt lat="41.28823" lon="9.31249">
        <ele>0.14</ele>
        <time>2017-10-09T10:51:09Z</time>
      </trkpt>
      <trkpt lat="41.28853" lon="9.31199">
        <ele>-0.34</ele>
        <time>2017-10-09T10:51:26Z</time>
      </trkpt>
      <trkpt lat="41.28881" lon="9.3115">
        <ele>-0.34</ele>
        <time>2017-10-09T10:51:42Z</time>
      </trkpt>
      <trkpt lat="41.28911" lon="9.31103">
        <ele>-1.3</ele>
        <time>2017-10-09T10:51:58Z</time>
      </trkpt>
      <trkpt lat="41.28934" lon="9.31065">
        <ele>-0.34</ele>
        <time>2017-10-09T10:52:11Z</time>
      </trkpt>
      <trkpt lat="41.28963" lon="9.31023">
        <ele>-0.34</ele>
        <time>2017-10-09T10:52:26Z</time>
      </trkpt>
      <trkpt lat="41.28994" lon="9.30979">
        <ele>-0.34</ele>
        <time>2017-10-09T10:52:42Z</time>
      </trkpt>
      <trkpt lat="41.29026" lon="9.30934">
        <ele>-0.82</ele>
        <time>2017-10-09T10:52:58Z</time>
      </trkpt>
      <trkpt lat="41.29055" lon="9.30892">
        <ele>0.14</ele>
        <time>2017-10-09T10:53:13Z</time>
      </trkpt>
      <trkpt lat="41.29091" lon="9.30841">
        <ele>-0.34</ele>
        <time>2017-10-09T10:53:31Z</time>
      </trkpt>
      <trkpt lat="41.29121" lon="9.308">
        <ele>-0.82</ele>
        <time>2017-10-09T10:53:46Z</time>
      </trkpt>
      <trkpt lat="41.29149" lon="9.30761">
        <ele>-0.34</ele>
        <time>2017-10-09T10:54:00Z</time>
      </trkpt>
      <trkpt lat="41.29184" lon="9.30713">
        <ele>0.14</ele>
        <time>2017-10-09T10:54:18Z</time>
      </trkpt>
      <trkpt lat="41.29218" lon="9.30663">
        <ele>0.62</ele>
        <time>2017-10-09T10:54:36Z</time>
      </trkpt>
      <trkpt lat="41.2925" lon="9.30616">
        <ele>-0.34</ele>
        <time>2017-10-09T10:54:53Z</time>
      </trkpt>
      <trkpt lat="41.29281" lon="9.30571">
        <ele>0.14</ele>
        <time>2017-10-09T10:55:09Z</time>
      </trkpt>
      <trkpt lat="41.29313" lon="9.30528">
        <ele>0.14</ele>
        <time>2017-10-09T10:55:25Z</time>
      </trkpt>
      <trkpt lat="41.2934" lon="9.30488">
        <ele>-0.34</ele>
        <time>2017-10-09T10:55:39Z</time>
      </trkpt>
      <trkpt lat="41.29369" lon="9.30447">
        <ele>0.14</ele>
        <time>2017-10-09T10:55:54Z</time>
      </trkpt>
      <trkpt lat="41.29392" lon="9.30415">
        <ele>-0.34</ele>
        <time>2017-10-09T10:56:06Z</time>
      </trkpt>
      <trkpt lat="41.29424" lon="9.30369">
        <ele>-0.34</ele>
        <time>2017-10-09T10:56:23Z</time>
      </trkpt>
      <trkpt lat="41.29446" lon="9.30338">
        <ele>-0.82</ele>
        <time>2017-10-09T10:56:16Z</time>
      </trkpt>
      <trkpt lat="41.29475" lon="9.30299">
        <ele>-0.34</ele>
        <time>2017-10-09T10:56:31Z</time>
      </trkpt>
      <trkpt lat="41.29504" lon="9.30259">
        <ele>0.14</ele>
        <time>2017-10-09T10:56:46Z</time>
      </trkpt>
      <trkpt lat="41.29531" lon="9.30222">
        <ele>1.58</ele>
        <time>2017-10-09T10:57:00Z</time>
      </trkpt>
      <trkpt lat="41.29558" lon="9.30184">
        <ele>1.1</ele>
        <time>2017-10-09T10:57:14Z</time>
      </trkpt>
      <trkpt lat="41.29585" lon="9.30146">
        <ele>1.58</ele>
        <time>2017-10-09T10:57:28Z</time>
      </trkpt>
      <trkpt lat="41.2962" lon="9.30101">
        <ele>1.58</ele>
        <time>2017-10-09T10:57:45Z</time>
      </trkpt>
      <trkpt lat="41.29647" lon="9.30066">
        <ele>2.06</ele>
        <time>2017-10-09T10:57:58Z</time>
      </trkpt>
      <trkpt lat="41.29676" lon="9.30028">
        <ele>2.06</ele>
        <time>2017-10-09T10:58:12Z</time>
      </trkpt>
      <trkpt lat="41.29706" lon="9.29991">
        <ele>1.1</ele>
        <time>2017-10-09T10:58:26Z</time>
      </trkpt>
      <trkpt lat="41.29734" lon="9.29951">
        <ele>0.62</ele>
        <time>2017-10-09T10:58:40Z</time>
      </trkpt>
      <trkpt lat="41.29767" lon="9.29905">
        <ele>0.62</ele>
        <time>2017-10-09T10:58:56Z</time>
      </trkpt>
      <trkpt lat="41.29793" lon="9.29867">
        <ele>0.62</ele>
        <time>2017-10-09T10:59:09Z</time>
      </trkpt>
      <trkpt lat="41.29821" lon="9.29827">
        <ele>0.62</ele>
        <time>2017-10-09T10:59:23Z</time>
      </trkpt>
      <trkpt lat="41.29843" lon="9.29796">
        <ele>-0.34</ele>
        <time>2017-10-09T10:59:34Z</time>
      </trkpt>
      <trkpt lat="41.29869" lon="9.29756">
        <ele>0.14</ele>
        <time>2017-10-09T10:59:48Z</time>
      </trkpt>
      <trkpt lat="41.29899" lon="9.29715">
        <ele>-0.82</ele>
        <time>2017-10-09T11:00:03Z</time>
      </trkpt>
      <trkpt lat="41.2993" lon="9.29664">
        <ele>-0.82</ele>
        <time>2017-10-09T11:00:20Z</time>
      </trkpt>
      <trkpt lat="41.29957" lon="9.29621">
        <ele>-0.82</ele>
        <time>2017-10-09T11:00:35Z</time>
      </trkpt>
      <trkpt lat="41.29983" lon="9.29576">
        <ele>-1.3</ele>
        <time>2017-10-09T11:00:50Z</time>
      </trkpt>
      <trkpt lat="41.30007" lon="9.29534">
        <ele>-2.27</ele>
        <time>2017-10-09T11:01:04Z</time>
      </trkpt>
      <trkpt lat="41.30034" lon="9.2949">
        <ele>-1.3</ele>
        <time>2017-10-09T11:01:19Z</time>
      </trkpt>
      <trkpt lat="41.30058" lon="9.29448">
        <ele>-2.27</ele>
        <time>2017-10-09T11:01:33Z</time>
      </trkpt>
      <trkpt lat="41.30085" lon="9.29406">
        <ele>-1.3</ele>
        <time>2017-10-09T11:01:48Z</time>
      </trkpt>
      <trkpt lat="41.30116" lon="9.29363">
        <ele>-0.82</ele>
        <time>2017-10-09T11:02:04Z</time>
      </trkpt>
      <trkpt lat="41.30141" lon="9.2933">
        <ele>0.62</ele>
        <time>2017-10-09T11:02:17Z</time>
      </trkpt>
      <trkpt lat="41.30173" lon="9.29289">
        <ele>1.58</ele>
        <time>2017-10-09T11:02:33Z</time>
      </trkpt>
      <trkpt lat="41.30202" lon="9.29252">
        <ele>2.06</ele>
        <time>2017-10-09T11:02:47Z</time>
      </trkpt>
      <trkpt lat="41.3023" lon="9.29214">
        <ele>3.02</ele>
        <time>2017-10-09T11:03:01Z</time>
      </trkpt>
      <trkpt lat="41.30256" lon="9.29179">
        <ele>3.02</ele>
        <time>2017-10-09T11:03:14Z</time>
      </trkpt>
      <trkpt lat="41.30285" lon="9.29143">
        <ele>0.62</ele>
        <time>2017-10-09T11:03:28Z</time>
      </trkpt>
      <trkpt lat="41.30309" lon="9.29112">
        <ele>1.58</ele>
        <time>2017-10-09T11:03:40Z</time>
      </trkpt>
      <trkpt lat="41.30335" lon="9.29077">
        <ele>1.58</ele>
        <time>2017-10-09T11:03:53Z</time>
      </trkpt>
      <trkpt lat="41.3036" lon="9.29042">
        <ele>2.06</ele>
        <time>2017-10-09T11:04:06Z</time>
      </trkpt>
      <trkpt lat="41.30384" lon="9.2901">
        <ele>1.58</ele>
        <time>2017-10-09T11:04:18Z</time>
      </trkpt>
      <trkpt lat="41.3041" lon="9.28977">
        <ele>2.06</ele>
        <time>2017-10-09T11:04:31Z</time>
      </trkpt>
      <trkpt lat="41.30437" lon="9.28939">
        <ele>1.1</ele>
        <time>2017-10-09T11:04:45Z</time>
      </trkpt>
      <trkpt lat="41.30459" lon="9.28906">
        <ele>1.1</ele>
        <time>2017-10-09T11:04:57Z</time>
      </trkpt>
      <trkpt lat="41.30476" lon="9.28885">
        <ele>1.1</ele>
        <time>2017-10-09T11:05:05Z</time>
      </trkpt>
      <trkpt lat="41.30501" lon="9.28849">
        <ele>-0.82</ele>
        <time>2017-10-09T11:05:18Z</time>
      </trkpt>
      <trkpt lat="41.30527" lon="9.28812">
        <ele>-0.82</ele>
        <time>2017-10-09T11:05:31Z</time>
      </trkpt>
      <trkpt lat="41.30557" lon="9.28771">
        <ele>-0.34</ele>
        <time>2017-10-09T11:05:46Z</time>
      </trkpt>
      <trkpt lat="41.30587" lon="9.28728">
        <ele>-0.82</ele>
        <time>2017-10-09T11:06:01Z</time>
      </trkpt>
      <trkpt lat="41.3062" lon="9.28683">
        <ele>-1.3</ele>
        <time>2017-10-09T11:06:17Z</time>
      </trkpt>
      <trkpt lat="41.30642" lon="9.28651">
        <ele>-2.75</ele>
        <time>2017-10-09T11:06:28Z</time>
      </trkpt>
      <trkpt lat="41.30662" lon="9.28623">
        <ele>-2.27</ele>
        <time>2017-10-09T11:06:38Z</time>
      </trkpt>
      <trkpt lat="41.30691" lon="9.28582">
        <ele>-1.3</ele>
        <time>2017-10-09T11:06:53Z</time>
      </trkpt>
      <trkpt lat="41.30715" lon="9.28545">
        <ele>-2.27</ele>
        <time>2017-10-09T11:07:06Z</time>
      </trkpt>
      <trkpt lat="41.30738" lon="9.28512">
        <ele>-1.79</ele>
        <time>2017-10-09T11:07:18Z</time>
      </trkpt>
      <trkpt lat="41.30762" lon="9.28478">
        <ele>-1.3</ele>
        <time>2017-10-09T11:07:30Z</time>
      </trkpt>
      <trkpt lat="41.30787" lon="9.28442">
        <ele>0.62</ele>
        <time>2017-10-09T11:07:43Z</time>
      </trkpt>
      <trkpt lat="41.30812" lon="9.28407">
        <ele>0.62</ele>
        <time>2017-10-09T11:07:55Z</time>
      </trkpt>
      <trkpt lat="41.30841" lon="9.28364">
        <ele>0.62</ele>
        <time>2017-10-09T11:08:10Z</time>
      </trkpt>
      <trkpt lat="41.30866" lon="9.28326">
        <ele>0.14</ele>
        <time>2017-10-09T11:08:23Z</time>
      </trkpt>
      <trkpt lat="41.30897" lon="9.2828">
        <ele>-0.82</ele>
        <time>2017-10-09T11:08:39Z</time>
      </trkpt>
      <trkpt lat="41.30923" lon="9.2824">
        <ele>-0.82</ele>
        <time>2017-10-09T11:08:53Z</time>
      </trkpt>
      <trkpt lat="41.30948" lon="9.28202">
        <ele>-1.3</ele>
        <time>2017-10-09T11:09:06Z</time>
      </trkpt>
      <trkpt lat="41.30971" lon="9.28168">
        <ele>-3.23</ele>
        <time>2017-10-09T11:09:18Z</time>
      </trkpt>
      <trkpt lat="41.30996" lon="9.28131">
        <ele>-3.23</ele>
        <time>2017-10-09T11:09:31Z</time>
      </trkpt>
      <trkpt lat="41.31016" lon="9.28099">
        <ele>-3.71</ele>
        <time>2017-10-09T11:09:42Z</time>
      </trkpt>
      <trkpt lat="41.31039" lon="9.28064">
        <ele>-4.19</ele>
        <time>2017-10-09T11:09:54Z</time>
      </trkpt>
      <trkpt lat="41.31061" lon="9.2803">
        <ele>-2.75</ele>
        <time>2017-10-09T11:10:06Z</time>
      </trkpt>
      <trkpt lat="41.31082" lon="9.27998">
        <ele>-2.75</ele>
        <time>2017-10-09T11:10:17Z</time>
      </trkpt>
      <trkpt lat="41.31105" lon="9.27962">
        <ele>-2.75</ele>
        <time>2017-10-09T11:10:29Z</time>
      </trkpt>
      <trkpt lat="41.3113" lon="9.27925">
        <ele>-1.79</ele>
        <time>2017-10-09T11:10:42Z</time>
      </trkpt>
      <trkpt lat="41.31159" lon="9.27883">
        <ele>-0.82</ele>
        <time>2017-10-09T11:10:57Z</time>
      </trkpt>
      <trkpt lat="41.31185" lon="9.27842">
        <ele>-1.3</ele>
        <time>2017-10-09T11:11:11Z</time>
      </trkpt>
      <trkpt lat="41.31211" lon="9.27803">
        <ele>-1.3</ele>
        <time>2017-10-09T11:11:25Z</time>
      </trkpt>
      <trkpt lat="41.31237" lon="9.27763">
        <ele>-1.3</ele>
        <time>2017-10-09T11:11:39Z</time>
      </trkpt>
      <trkpt lat="41.3126" lon="9.27728">
        <ele>-0.82</ele>
        <time>2017-10-09T11:11:51Z</time>
      </trkpt>
      <trkpt lat="41.31283" lon="9.27694">
        <ele>-1.79</ele>
        <time>2017-10-09T11:12:03Z</time>
      </trkpt>
      <trkpt lat="41.31306" lon="9.27659">
        <ele>-0.82</ele>
        <time>2017-10-09T11:12:15Z</time>
      </trkpt>
      <trkpt lat="41.31332" lon="9.27617">
        <ele>-1.79</ele>
        <time>2017-10-09T11:12:29Z</time>
      </trkpt>
      <trkpt lat="41.31363" lon="9.27571">
        <ele>-0.82</ele>
        <time>2017-10-09T11:12:45Z</time>
      </trkpt>
      <trkpt lat="41.31388" lon="9.27532">
        <ele>-1.79</ele>
        <time>2017-10-09T11:12:58Z</time>
      </trkpt>
      <trkpt lat="41.31413" lon="9.27495">
        <ele>-0.82</ele>
        <time>2017-10-09T11:13:11Z</time>
      </trkpt>
      <trkpt lat="41.31441" lon="9.27456">
        <ele>-0.34</ele>
        <time>2017-10-09T11:13:25Z</time>
      </trkpt>
      <trkpt lat="41.31443" lon="9.2742">
        <ele>0.62</ele>
        <time>2017-10-09T11:13:36Z</time>
      </trkpt>
      <trkpt lat="41.31443" lon="9.27389">
        <ele>0.62</ele>
        <time>2017-10-09T11:13:49Z</time>
      </trkpt>
      <trkpt lat="41.3144" lon="9.27364">
        <ele>0.14</ele>
        <time>2017-10-09T11:14:05Z</time>
      </trkpt>
      <trkpt lat="41.31437" lon="9.27355">
        <ele>-0.34</ele>
        <time>2017-10-09T11:14:16Z</time>
      </trkpt>
      <trkpt lat="41.31434" lon="9.27348">
        <ele>-0.82</ele>
        <time>2017-10-09T11:14:31Z</time>
      </trkpt>
      <trkpt lat="41.31431" lon="9.27343">
        <ele>-1.3</ele>
        <time>2017-10-09T11:14:44Z</time>
      </trkpt>
      <trkpt lat="41.31426" lon="9.2734">
        <ele>-1.3</ele>
        <time>2017-10-09T11:14:58Z</time>
      </trkpt>
      <trkpt lat="41.31425" lon="9.27331">
        <ele>-2.27</ele>
        <time>2017-10-09T11:15:09Z</time>
      </trkpt>
      <trkpt lat="41.31426" lon="9.27328">
        <ele>-3.71</ele>
        <time>2017-10-09T11:15:11Z</time>
      </trkpt>
      <trkpt lat="41.31434" lon="9.27315">
        <ele>-2.75</ele>
        <time>2017-10-09T11:15:24Z</time>
      </trkpt>
      <trkpt lat="41.3144" lon="9.27306">
        <ele>-2.27</ele>
        <time>2017-10-09T11:15:38Z</time>
      </trkpt>
      <trkpt lat="41.31444" lon="9.27303">
        <ele>-1.79</ele>
        <time>2017-10-09T11:15:50Z</time>
      </trkpt>
      <trkpt lat="41.31449" lon="9.27299">
        <ele>-2.27</ele>
        <time>2017-10-09T11:16:06Z</time>
      </trkpt>
      <trkpt lat="41.31452" lon="9.27294">
        <ele>-0.82</ele>
        <time>2017-10-09T11:16:16Z</time>
      </trkpt>
      <trkpt lat="41.31454" lon="9.2729">
        <ele>-2.75</ele>
        <time>2017-10-09T11:16:26Z</time>
      </trkpt>
      <trkpt lat="41.31455" lon="9.27282">
        <ele>-2.75</ele>
        <time>2017-10-09T11:16:38Z</time>
      </trkpt>
      <trkpt lat="41.31454" lon="9.27275">
        <ele>-2.75</ele>
        <time>2017-10-09T11:16:51Z</time>
      </trkpt>
      <trkpt lat="41.31453" lon="9.27268">
        <ele>-2.75</ele>
        <time>2017-10-09T11:17:04Z</time>
      </trkpt>
      <trkpt lat="41.31451" lon="9.27262">
        <ele>-2.27</ele>
        <time>2017-10-09T11:17:17Z</time>
      </trkpt>
      <trkpt lat="41.31449" lon="9.27258">
        <ele>-2.27</ele>
        <time>2017-10-09T11:17:27Z</time>
      </trkpt>
      <trkpt lat="41.31448" lon="9.27254">
        <ele>-1.79</ele>
        <time>2017-10-09T11:17:40Z</time>
      </trkpt>
      <trkpt lat="41.31448" lon="9.2725">
        <ele>-1.79</ele>
        <time>2017-10-09T11:17:53Z</time>
      </trkpt>
      <trkpt lat="41.31448" lon="9.27249">
        <ele>-2.27</ele>
        <time>2017-10-09T11:18:05Z</time>
      </trkpt>
      <trkpt lat="41.31449" lon="9.27249">
        <ele>-2.75</ele>
        <time>2017-10-09T11:18:16Z</time>
      </trkpt>
      <trkpt lat="41.3145" lon="9.27247">
        <ele>-3.23</ele>
        <time>2017-10-09T11:18:33Z</time>
      </trkpt>
      <trkpt lat="41.31453" lon="9.27245">
        <ele>-3.23</ele>
        <time>2017-10-09T11:18:45Z</time>
      </trkpt>
      <trkpt lat="41.31455" lon="9.27243">
        <ele>-3.23</ele>
        <time>2017-10-09T11:19:01Z</time>
      </trkpt>
      <trkpt lat="41.31456" lon="9.2724">
        <ele>-2.75</ele>
        <time>2017-10-09T11:19:14Z</time>
      </trkpt>
      <trkpt lat="41.31458" lon="9.27237">
        <ele>-3.23</ele>
        <time>2017-10-09T11:19:26Z</time>
      </trkpt>
      <trkpt lat="41.31458" lon="9.27234">
        <ele>-3.23</ele>
        <time>2017-10-09T11:19:41Z</time>
      </trkpt>
      <trkpt lat="41.31459" lon="9.27232">
        <ele>-2.75</ele>
        <time>2017-10-09T11:19:52Z</time>
      </trkpt>
      <trkpt lat="41.3146" lon="9.27228">
        <ele>-2.75</ele>
        <time>2017-10-09T11:20:07Z</time>
      </trkpt>
      <trkpt lat="41.3146" lon="9.27224">
        <ele>-2.27</ele>
        <time>2017-10-09T11:20:18Z</time>
      </trkpt>
      <trkpt lat="41.3146" lon="9.27221">
        <ele>-1.79</ele>
        <time>2017-10-09T11:20:32Z</time>
      </trkpt>
      <trkpt lat="41.3146" lon="9.27217">
        <ele>-2.27</ele>
        <time>2017-10-09T11:20:47Z</time>
      </trkpt>
      <trkpt lat="41.31459" lon="9.27214">
        <ele>-2.27</ele>
        <time>2017-10-09T11:21:00Z</time>
      </trkpt>
      <trkpt lat="41.31457" lon="9.27209">
        <ele>-2.27</ele>
        <time>2017-10-09T11:21:13Z</time>
      </trkpt>
      <trkpt lat="41.31457" lon="9.27207">
        <ele>-2.75</ele>
        <time>2017-10-09T11:21:25Z</time>
      </trkpt>
      <trkpt lat="41.31456" lon="9.27205">
        <ele>-2.75</ele>
        <time>2017-10-09T11:21:37Z</time>
      </trkpt>
      <trkpt lat="41.31456" lon="9.27203">
        <ele>-2.27</ele>
        <time>2017-10-09T11:21:48Z</time>
      </trkpt>
      <trkpt lat="41.31456" lon="9.27199">
        <ele>-2.75</ele>
        <time>2017-10-09T11:21:59Z</time>
      </trkpt>
      <trkpt lat="41.31456" lon="9.27197">
        <ele>-3.23</ele>
        <time>2017-10-09T11:22:11Z</time>
      </trkpt>
      <trkpt lat="41.31456" lon="9.27195">
        <ele>-2.75</ele>
        <time>2017-10-09T11:22:25Z</time>
      </trkpt>
      <trkpt lat="41.31457" lon="9.27192">
        <ele>-3.23</ele>
        <time>2017-10-09T11:22:42Z</time>
      </trkpt>
      <trkpt lat="41.31456" lon="9.27188">
        <ele>-3.23</ele>
        <time>2017-10-09T11:22:58Z</time>
      </trkpt>
      <trkpt lat="41.31455" lon="9.27184">
        <ele>-3.71</ele>
        <time>2017-10-09T11:23:09Z</time>
      </trkpt>
      <trkpt lat="41.31455" lon="9.27182">
        <ele>-3.23</ele>
        <time>2017-10-09T11:23:20Z</time>
      </trkpt>
      <trkpt lat="41.31455" lon="9.2718">
        <ele>-2.75</ele>
        <time>2017-10-09T11:23:31Z</time>
      </trkpt>
      <trkpt lat="41.31455" lon="9.27178">
        <ele>-2.75</ele>
        <time>2017-10-09T11:23:46Z</time>
      </trkpt>
      <trkpt lat="41.31454" lon="9.27176">
        <ele>-4.67</ele>
        <time>2017-10-09T11:23:58Z</time>
      </trkpt>
      <trkpt lat="41.31453" lon="9.27172">
        <ele>-4.19</ele>
        <time>2017-10-09T11:24:12Z</time>
      </trkpt>
      <trkpt lat="41.31452" lon="9.27168">
        <ele>-3.71</ele>
        <time>2017-10-09T11:24:26Z</time>
      </trkpt>
      <trkpt lat="41.31451" lon="9.27165">
        <ele>-3.71</ele>
        <time>2017-10-09T11:24:40Z</time>
      </trkpt>
      <trkpt lat="41.31451" lon="9.27161">
        <ele>-4.19</ele>
        <time>2017-10-09T11:24:50Z</time>
      </trkpt>
      <trkpt lat="41.3145" lon="9.27159">
        <ele>-3.71</ele>
        <time>2017-10-09T11:25:03Z</time>
      </trkpt>
      <trkpt lat="41.3145" lon="9.27157">
        <ele>-3.71</ele>
        <time>2017-10-09T11:25:14Z</time>
      </trkpt>
      <trkpt lat="41.31449" lon="9.27154">
        <ele>-3.71</ele>
        <time>2017-10-09T11:25:28Z</time>
      </trkpt>
      <trkpt lat="41.31448" lon="9.27149">
        <ele>-2.75</ele>
        <time>2017-10-09T11:25:44Z</time>
      </trkpt>
      <trkpt lat="41.31448" lon="9.27147">
        <ele>-2.27</ele>
        <time>2017-10-09T11:25:57Z</time>
      </trkpt>
      <trkpt lat="41.31448" lon="9.27142">
        <ele>-1.79</ele>
        <time>2017-10-09T11:26:08Z</time>
      </trkpt>
      <trkpt lat="41.31447" lon="9.27139">
        <ele>-1.79</ele>
        <time>2017-10-09T11:26:17Z</time>
      </trkpt>
      <trkpt lat="41.31446" lon="9.27134">
        <ele>-1.79</ele>
        <time>2017-10-09T11:26:29Z</time>
      </trkpt>
      <trkpt lat="41.31445" lon="9.27129">
        <ele>-2.27</ele>
        <time>2017-10-09T11:26:42Z</time>
      </trkpt>
      <trkpt lat="41.31444" lon="9.27124">
        <ele>-2.75</ele>
        <time>2017-10-09T11:26:56Z</time>
      </trkpt>
      <trkpt lat="41.31443" lon="9.27121">
        <ele>-2.75</ele>
        <time>2017-10-09T11:27:10Z</time>
      </trkpt>
      <trkpt lat="41.31442" lon="9.27115">
        <ele>-3.23</ele>
        <time>2017-10-09T11:27:24Z</time>
      </trkpt>
      <trkpt lat="41.3144" lon="9.27112">
        <ele>-3.71</ele>
        <time>2017-10-09T11:27:34Z</time>
      </trkpt>
      <trkpt lat="41.3144" lon="9.27108">
        <ele>-2.75</ele>
        <time>2017-10-09T11:27:47Z</time>
      </trkpt>
      <trkpt lat="41.31439" lon="9.27104">
        <ele>-2.27</ele>
        <time>2017-10-09T11:28:00Z</time>
      </trkpt>
      <trkpt lat="41.31439" lon="9.271">
        <ele>-2.27</ele>
        <time>2017-10-09T11:28:13Z</time>
      </trkpt>
      <trkpt lat="41.31439" lon="9.27098">
        <ele>-2.27</ele>
        <time>2017-10-09T11:28:23Z</time>
      </trkpt>
      <trkpt lat="41.31439" lon="9.27095">
        <ele>-3.23</ele>
        <time>2017-10-09T11:28:34Z</time>
      </trkpt>
      <trkpt lat="41.3144" lon="9.27093">
        <ele>-3.23</ele>
        <time>2017-10-09T11:28:46Z</time>
      </trkpt>
      <trkpt lat="41.31441" lon="9.2709">
        <ele>-2.75</ele>
        <time>2017-10-09T11:28:56Z</time>
      </trkpt>
      <trkpt lat="41.31442" lon="9.27088">
        <ele>-2.27</ele>
        <time>2017-10-09T11:29:09Z</time>
      </trkpt>
      <trkpt lat="41.31444" lon="9.27084">
        <ele>-2.27</ele>
        <time>2017-10-09T11:29:23Z</time>
      </trkpt>
      <trkpt lat="41.31444" lon="9.27079">
        <ele>-2.27</ele>
        <time>2017-10-09T11:29:36Z</time>
      </trkpt>
      <trkpt lat="41.31445" lon="9.27072">
        <ele>-2.27</ele>
        <time>2017-10-09T11:29:49Z</time>
      </trkpt>
      <trkpt lat="41.31444" lon="9.27065">
        <ele>-1.79</ele>
        <time>2017-10-09T11:30:01Z</time>
      </trkpt>
      <trkpt lat="41.31443" lon="9.27058">
        <ele>-2.75</ele>
        <time>2017-10-09T11:30:18Z</time>
      </trkpt>
      <trkpt lat="41.31443" lon="9.27052">
        <ele>-2.75</ele>
        <time>2017-10-09T11:30:31Z</time>
      </trkpt>
      <trkpt lat="41.31441" lon="9.27047">
        <ele>-3.23</ele>
        <time>2017-10-09T11:30:45Z</time>
      </trkpt>
      <trkpt lat="41.3144" lon="9.27043">
        <ele>-3.23</ele>
        <time>2017-10-09T11:30:59Z</time>
      </trkpt>
      <trkpt lat="41.3144" lon="9.27041">
        <ele>-3.23</ele>
        <time>2017-10-09T11:31:14Z</time>
      </trkpt>
      <trkpt lat="41.3144" lon="9.27036">
        <ele>-3.23</ele>
        <time>2017-10-09T11:31:27Z</time>
      </trkpt>
      <trkpt lat="41.31439" lon="9.27032">
        <ele>-2.75</ele>
        <time>2017-10-09T11:31:39Z</time>
      </trkpt>
      <trkpt lat="41.31438" lon="9.27029">
        <ele>-2.27</ele>
        <time>2017-10-09T11:31:52Z</time>
      </trkpt>
      <trkpt lat="41.31437" lon="9.27024">
        <ele>-2.75</ele>
        <time>2017-10-09T11:32:05Z</time>
      </trkpt>
      <trkpt lat="41.31436" lon="9.27021">
        <ele>-3.23</ele>
        <time>2017-10-09T11:32:18Z</time>
      </trkpt>
      <trkpt lat="41.31435" lon="9.27018">
        <ele>-3.23</ele>
        <time>2017-10-09T11:32:32Z</time>
      </trkpt>
      <trkpt lat="41.31435" lon="9.27015">
        <ele>-3.71</ele>
        <time>2017-10-09T11:32:45Z</time>
      </trkpt>
      <trkpt lat="41.31437" lon="9.27013">
        <ele>-2.75</ele>
        <time>2017-10-09T11:32:57Z</time>
      </trkpt>
      <trkpt lat="41.31438" lon="9.27007">
        <ele>-4.19</ele>
        <time>2017-10-09T11:33:11Z</time>
      </trkpt>
      <trkpt lat="41.31437" lon="9.27002">
        <ele>-3.71</ele>
        <time>2017-10-09T11:33:24Z</time>
      </trkpt>
      <trkpt lat="41.31436" lon="9.26996">
        <ele>-2.75</ele>
        <time>2017-10-09T11:33:37Z</time>
      </trkpt>
      <trkpt lat="41.31435" lon="9.26991">
        <ele>-3.23</ele>
        <time>2017-10-09T11:33:50Z</time>
      </trkpt>
      <trkpt lat="41.31434" lon="9.26985">
        <ele>-4.19</ele>
        <time>2017-10-09T11:34:05Z</time>
      </trkpt>
      <trkpt lat="41.31433" lon="9.26981">
        <ele>-3.23</ele>
        <time>2017-10-09T11:34:17Z</time>
      </trkpt>
      <trkpt lat="41.31432" lon="9.26978">
        <ele>-3.71</ele>
        <time>2017-10-09T11:34:31Z</time>
      </trkpt>
      <trkpt lat="41.31432" lon="9.26974">
        <ele>-4.19</ele>
        <time>2017-10-09T11:34:44Z</time>
      </trkpt>
      <trkpt lat="41.31429" lon="9.26969">
        <ele>-4.67</ele>
        <time>2017-10-09T11:35:00Z</time>
      </trkpt>
      <trkpt lat="41.31428" lon="9.26963">
        <ele>-4.19</ele>
        <time>2017-10-09T11:35:15Z</time>
      </trkpt>
      <trkpt lat="41.31426" lon="9.26961">
        <ele>-4.19</ele>
        <time>2017-10-09T11:35:30Z</time>
      </trkpt>
      <trkpt lat="41.31426" lon="9.26958">
        <ele>-3.71</ele>
        <time>2017-10-09T11:35:47Z</time>
      </trkpt>
      <trkpt lat="41.31424" lon="9.26953">
        <ele>-3.23</ele>
        <time>2017-10-09T11:36:04Z</time>
      </trkpt>
      <trkpt lat="41.31424" lon="9.2695">
        <ele>-3.71</ele>
        <time>2017-10-09T11:36:17Z</time>
      </trkpt>
      <trkpt lat="41.31423" lon="9.26945">
        <ele>-3.23</ele>
        <time>2017-10-09T11:36:31Z</time>
      </trkpt>
      <trkpt lat="41.31422" lon="9.2694">
        <ele>-3.71</ele>
        <time>2017-10-09T11:36:45Z</time>
      </trkpt>
      <trkpt lat="41.31422" lon="9.26935">
        <ele>-3.71</ele>
        <time>2017-10-09T11:36:58Z</time>
      </trkpt>
      <trkpt lat="41.31422" lon="9.26931">
        <ele>-4.19</ele>
        <time>2017-10-09T11:37:13Z</time>
      </trkpt>
      <trkpt lat="41.31421" lon="9.26926">
        <ele>-3.23</ele>
        <time>2017-10-09T11:37:28Z</time>
      </trkpt>
      <trkpt lat="41.3142" lon="9.26922">
        <ele>-2.75</ele>
        <time>2017-10-09T11:37:41Z</time>
      </trkpt>
      <trkpt lat="41.31419" lon="9.26916">
        <ele>-3.23</ele>
        <time>2017-10-09T11:37:55Z</time>
      </trkpt>
      <trkpt lat="41.31418" lon="9.26911">
        <ele>-3.71</ele>
        <time>2017-10-09T11:38:11Z</time>
      </trkpt>
      <trkpt lat="41.31415" lon="9.26907">
        <ele>-2.75</ele>
        <time>2017-10-09T11:38:25Z</time>
      </trkpt>
      <trkpt lat="41.31414" lon="9.26903">
        <ele>-2.27</ele>
        <time>2017-10-09T11:38:38Z</time>
      </trkpt>
      <trkpt lat="41.31413" lon="9.26898">
        <ele>-2.27</ele>
        <time>2017-10-09T11:38:52Z</time>
      </trkpt>
      <trkpt lat="41.31412" lon="9.26894">
        <ele>-1.3</ele>
        <time>2017-10-09T11:39:05Z</time>
      </trkpt>
      <trkpt lat="41.3141" lon="9.2689">
        <ele>-2.75</ele>
        <time>2017-10-09T11:39:18Z</time>
      </trkpt>
      <trkpt lat="41.3141" lon="9.26889">
        <ele>-2.75</ele>
        <time>2017-10-09T11:39:31Z</time>
      </trkpt>
      <trkpt lat="41.31409" lon="9.26887">
        <ele>-3.23</ele>
        <time>2017-10-09T11:39:45Z</time>
      </trkpt>
      <trkpt lat="41.31408" lon="9.26885">
        <ele>-3.23</ele>
        <time>2017-10-09T11:40:00Z</time>
      </trkpt>
      <trkpt lat="41.31406" lon="9.26883">
        <ele>-3.71</ele>
        <time>2017-10-09T11:40:14Z</time>
      </trkpt>
      <trkpt lat="41.31405" lon="9.26881">
        <ele>-3.71</ele>
        <time>2017-10-09T11:40:26Z</time>
      </trkpt>
      <trkpt lat="41.31402" lon="9.26878">
        <ele>-2.75</ele>
        <time>2017-10-09T11:40:39Z</time>
      </trkpt>
      <trkpt lat="41.31401" lon="9.26876">
        <ele>-1.79</ele>
        <time>2017-10-09T11:40:51Z</time>
      </trkpt>
      <trkpt lat="41.31399" lon="9.26874">
        <ele>-2.27</ele>
        <time>2017-10-09T11:41:08Z</time>
      </trkpt>
      <trkpt lat="41.31397" lon="9.26873">
        <ele>-2.27</ele>
        <time>2017-10-09T11:41:19Z</time>
      </trkpt>
      <trkpt lat="41.31396" lon="9.26871">
        <ele>-2.75</ele>
        <time>2017-10-09T11:41:30Z</time>
      </trkpt>
      <trkpt lat="41.31395" lon="9.26869">
        <ele>-3.23</ele>
        <time>2017-10-09T11:41:45Z</time>
      </trkpt>
      <trkpt lat="41.31393" lon="9.26867">
        <ele>-3.23</ele>
        <time>2017-10-09T11:42:00Z</time>
      </trkpt>
      <trkpt lat="41.31393" lon="9.26865">
        <ele>-3.71</ele>
        <time>2017-10-09T11:42:10Z</time>
      </trkpt>
      <trkpt lat="41.31391" lon="9.26862">
        <ele>-4.19</ele>
        <time>2017-10-09T11:42:27Z</time>
      </trkpt>
      <trkpt lat="41.3139" lon="9.2686">
        <ele>-4.19</ele>
        <time>2017-10-09T11:42:39Z</time>
      </trkpt>
      <trkpt lat="41.31389" lon="9.26857">
        <ele>-3.71</ele>
        <time>2017-10-09T11:42:53Z</time>
      </trkpt>
      <trkpt lat="41.31387" lon="9.26854">
        <ele>-4.19</ele>
        <time>2017-10-09T11:43:08Z</time>
      </trkpt>
      <trkpt lat="41.31385" lon="9.26851">
        <ele>-4.67</ele>
        <time>2017-10-09T11:43:24Z</time>
      </trkpt>
      <trkpt lat="41.31384" lon="9.26848">
        <ele>-5.15</ele>
        <time>2017-10-09T11:43:38Z</time>
      </trkpt>
      <trkpt lat="41.31383" lon="9.26846">
        <ele>-5.15</ele>
        <time>2017-10-09T11:43:52Z</time>
      </trkpt>
      <trkpt lat="41.31381" lon="9.26842">
        <ele>-5.63</ele>
        <time>2017-10-09T11:44:08Z</time>
      </trkpt>
      <trkpt lat="41.3138" lon="9.2684">
        <ele>-6.11</ele>
        <time>2017-10-09T11:44:20Z</time>
      </trkpt>
      <trkpt lat="41.31378" lon="9.26837">
        <ele>-6.11</ele>
        <time>2017-10-09T11:44:33Z</time>
      </trkpt>
      <trkpt lat="41.31374" lon="9.26833">
        <ele>-6.11</ele>
        <time>2017-10-09T11:44:46Z</time>
      </trkpt>
      <trkpt lat="41.31371" lon="9.2683">
        <ele>-5.63</ele>
        <time>2017-10-09T11:45:01Z</time>
      </trkpt>
      <trkpt lat="41.31368" lon="9.26827">
        <ele>-5.15</ele>
        <time>2017-10-09T11:45:15Z</time>
      </trkpt>
      <trkpt lat="41.31365" lon="9.26824">
        <ele>-5.15</ele>
        <time>2017-10-09T11:45:27Z</time>
      </trkpt>
      <trkpt lat="41.31363" lon="9.26822">
        <ele>-4.67</ele>
        <time>2017-10-09T11:45:40Z</time>
      </trkpt>
      <trkpt lat="41.31362" lon="9.2682">
        <ele>-4.19</ele>
        <time>2017-10-09T11:45:55Z</time>
      </trkpt>
      <trkpt lat="41.31361" lon="9.2682">
        <ele>-4.19</ele>
        <time>2017-10-09T11:46:10Z</time>
      </trkpt>
      <trkpt lat="41.31361" lon="9.26817">
        <ele>-3.71</ele>
        <time>2017-10-09T11:46:23Z</time>
      </trkpt>
      <trkpt lat="41.31361" lon="9.26814">
        <ele>-3.71</ele>
        <time>2017-10-09T11:46:34Z</time>
      </trkpt>
      <trkpt lat="41.31361" lon="9.26811">
        <ele>-3.23</ele>
        <time>2017-10-09T11:46:48Z</time>
      </trkpt>
      <trkpt lat="41.3136" lon="9.26808">
        <ele>-3.23</ele>
        <time>2017-10-09T11:47:00Z</time>
      </trkpt>
      <trkpt lat="41.31359" lon="9.26805">
        <ele>-2.75</ele>
        <time>2017-10-09T11:47:13Z</time>
      </trkpt>
      <trkpt lat="41.31359" lon="9.26802">
        <ele>-2.75</ele>
        <time>2017-10-09T11:47:24Z</time>
      </trkpt>
      <trkpt lat="41.31359" lon="9.26797">
        <ele>-2.75</ele>
        <time>2017-10-09T11:47:37Z</time>
      </trkpt>
      <trkpt lat="41.31359" lon="9.26794">
        <ele>-2.75</ele>
        <time>2017-10-09T11:47:49Z</time>
      </trkpt>
      <trkpt lat="41.3136" lon="9.2679">
        <ele>-2.75</ele>
        <time>2017-10-09T11:48:02Z</time>
      </trkpt>
      <trkpt lat="41.3136" lon="9.26786">
        <ele>-3.23</ele>
        <time>2017-10-09T11:48:13Z</time>
      </trkpt>
      <trkpt lat="41.3136" lon="9.26781">
        <ele>-2.75</ele>
        <time>2017-10-09T11:48:26Z</time>
      </trkpt>
      <trkpt lat="41.3136" lon="9.26776">
        <ele>-2.27</ele>
        <time>2017-10-09T11:48:41Z</time>
      </trkpt>
      <trkpt lat="41.3136" lon="9.26772">
        <ele>-1.3</ele>
        <time>2017-10-09T11:48:55Z</time>
      </trkpt>
      <trkpt lat="41.3136" lon="9.26767">
        <ele>-0.82</ele>
        <time>2017-10-09T11:49:08Z</time>
      </trkpt>
      <trkpt lat="41.31359" lon="9.26763">
        <ele>-0.82</ele>
        <time>2017-10-09T11:49:22Z</time>
      </trkpt>
      <trkpt lat="41.31359" lon="9.26759">
        <ele>-1.79</ele>
        <time>2017-10-09T11:49:38Z</time>
      </trkpt>
      <trkpt lat="41.31357" lon="9.26755">
        <ele>-2.75</ele>
        <time>2017-10-09T11:49:54Z</time>
      </trkpt>
      <trkpt lat="41.31356" lon="9.26751">
        <ele>-2.75</ele>
        <time>2017-10-09T11:50:10Z</time>
      </trkpt>
      <trkpt lat="41.31355" lon="9.26747">
        <ele>-1.79</ele>
        <time>2017-10-09T11:50:24Z</time>
      </trkpt>
      <trkpt lat="41.31353" lon="9.26742">
        <ele>-2.75</ele>
        <time>2017-10-09T11:50:39Z</time>
      </trkpt>
      <trkpt lat="41.31352" lon="9.2674">
        <ele>-3.23</ele>
        <time>2017-10-09T11:50:54Z</time>
      </trkpt>
      <trkpt lat="41.3135" lon="9.26735">
        <ele>-3.71</ele>
        <time>2017-10-09T11:51:09Z</time>
      </trkpt>
      <trkpt lat="41.31346" lon="9.26731">
        <ele>-2.75</ele>
        <time>2017-10-09T11:51:23Z</time>
      </trkpt>
      <trkpt lat="41.31342" lon="9.26727">
        <ele>-1.79</ele>
        <time>2017-10-09T11:51:38Z</time>
      </trkpt>
      <trkpt lat="41.31339" lon="9.26725">
        <ele>-2.27</ele>
        <time>2017-10-09T11:51:52Z</time>
      </trkpt>
      <trkpt lat="41.31336" lon="9.26723">
        <ele>-2.75</ele>
        <time>2017-10-09T11:52:06Z</time>
      </trkpt>
      <trkpt lat="41.31333" lon="9.26724">
        <ele>-2.27</ele>
        <time>2017-10-09T11:52:17Z</time>
      </trkpt>
      <trkpt lat="41.31333" lon="9.26724">
        <ele>-2.75</ele>
        <time>2017-10-09T11:52:31Z</time>
      </trkpt>
      <trkpt lat="41.31333" lon="9.26723">
        <ele>-3.23</ele>
        <time>2017-10-09T11:52:46Z</time>
      </trkpt>
      <trkpt lat="41.31333" lon="9.26718">
        <ele>-2.75</ele>
        <time>2017-10-09T11:52:59Z</time>
      </trkpt>
      <trkpt lat="41.31332" lon="9.26715">
        <ele>-3.23</ele>
        <time>2017-10-09T11:53:11Z</time>
      </trkpt>
      <trkpt lat="41.31332" lon="9.26712">
        <ele>-3.71</ele>
        <time>2017-10-09T11:53:24Z</time>
      </trkpt>
      <trkpt lat="41.31333" lon="9.2671">
        <ele>-2.75</ele>
        <time>2017-10-09T11:53:37Z</time>
      </trkpt>
      <trkpt lat="41.31333" lon="9.26707">
        <ele>-2.27</ele>
        <time>2017-10-09T11:53:51Z</time>
      </trkpt>
      <trkpt lat="41.31331" lon="9.26703">
        <ele>-2.27</ele>
        <time>2017-10-09T11:54:04Z</time>
      </trkpt>
      <trkpt lat="41.3133" lon="9.26699">
        <ele>-1.79</ele>
        <time>2017-10-09T11:54:14Z</time>
      </trkpt>
      <trkpt lat="41.31328" lon="9.26695">
        <ele>-2.27</ele>
        <time>2017-10-09T11:54:29Z</time>
      </trkpt>
      <trkpt lat="41.31326" lon="9.26693">
        <ele>-3.23</ele>
        <time>2017-10-09T11:54:41Z</time>
      </trkpt>
      <trkpt lat="41.31325" lon="9.26691">
        <ele>-3.23</ele>
        <time>2017-10-09T11:54:55Z</time>
      </trkpt>
      <trkpt lat="41.31324" lon="9.2669">
        <ele>-3.23</ele>
        <time>2017-10-09T11:55:07Z</time>
      </trkpt>
      <trkpt lat="41.31323" lon="9.26689">
        <ele>-2.75</ele>
        <time>2017-10-09T11:55:21Z</time>
      </trkpt>
      <trkpt lat="41.31323" lon="9.26688">
        <ele>-2.27</ele>
        <time>2017-10-09T11:55:33Z</time>
      </trkpt>
      <trkpt lat="41.31323" lon="9.26687">
        <ele>-2.27</ele>
        <time>2017-10-09T11:55:48Z</time>
      </trkpt>
      <trkpt lat="41.31323" lon="9.26684">
        <ele>-1.79</ele>
        <time>2017-10-09T11:56:02Z</time>
      </trkpt>
      <trkpt lat="41.31322" lon="9.26682">
        <ele>-1.79</ele>
        <time>2017-10-09T11:56:15Z</time>
      </trkpt>
      <trkpt lat="41.31322" lon="9.26682">
        <ele>-1.79</ele>
        <time>2017-10-09T11:56:16Z</time>
      </trkpt>
      <trkpt lat="41.31322" lon="9.26678">
        <ele>-2.27</ele>
        <time>2017-10-09T11:56:26Z</time>
      </trkpt>
      <trkpt lat="41.31322" lon="9.26675">
        <ele>-2.27</ele>
        <time>2017-10-09T11:56:37Z</time>
      </trkpt>
      <trkpt lat="41.31322" lon="9.26673">
        <ele>-2.27</ele>
        <time>2017-10-09T11:56:51Z</time>
      </trkpt>
      <trkpt lat="41.31322" lon="9.26671">
        <ele>-2.27</ele>
        <time>2017-10-09T11:57:05Z</time>
      </trkpt>
      <trkpt lat="41.31321" lon="9.26668">
        <ele>-2.27</ele>
        <time>2017-10-09T11:57:15Z</time>
      </trkpt>
      <trkpt lat="41.31322" lon="9.26666">
        <ele>-1.79</ele>
        <time>2017-10-09T11:57:26Z</time>
      </trkpt>
      <trkpt lat="41.31323" lon="9.26663">
        <ele>-0.82</ele>
        <time>2017-10-09T11:57:42Z</time>
      </trkpt>
      <trkpt lat="41.31324" lon="9.26659">
        <ele>0.14</ele>
        <time>2017-10-09T11:57:54Z</time>
      </trkpt>
      <trkpt lat="41.31325" lon="9.26655">
        <ele>0.62</ele>
        <time>2017-10-09T11:58:08Z</time>
      </trkpt>
      <trkpt lat="41.31325" lon="9.26651">
        <ele>0.62</ele>
        <time>2017-10-09T11:58:20Z</time>
      </trkpt>
      <trkpt lat="41.31325" lon="9.26646">
        <ele>0.14</ele>
        <time>2017-10-09T11:58:32Z</time>
      </trkpt>
      <trkpt lat="41.31324" lon="9.26641">
        <ele>-0.34</ele>
        <time>2017-10-09T11:58:47Z</time>
      </trkpt>
      <trkpt lat="41.31324" lon="9.26638">
        <ele>-0.34</ele>
        <time>2017-10-09T11:59:01Z</time>
      </trkpt>
      <trkpt lat="41.31322" lon="9.26634">
        <ele>-0.34</ele>
        <time>2017-10-09T11:59:18Z</time>
      </trkpt>
      <trkpt lat="41.31321" lon="9.26632">
        <ele>-0.34</ele>
        <time>2017-10-09T11:59:29Z</time>
      </trkpt>
      <trkpt lat="41.31319" lon="9.2663">
        <ele>-0.82</ele>
        <time>2017-10-09T11:59:45Z</time>
      </trkpt>
      <trkpt lat="41.31318" lon="9.26628">
        <ele>-0.82</ele>
        <time>2017-10-09T12:00:01Z</time>
      </trkpt>
      <trkpt lat="41.31317" lon="9.26627">
        <ele>-0.82</ele>
        <time>2017-10-09T12:00:11Z</time>
      </trkpt>
      <trkpt lat="41.31317" lon="9.26626">
        <ele>-0.82</ele>
        <time>2017-10-09T12:00:22Z</time>
      </trkpt>
      <trkpt lat="41.31316" lon="9.26624">
        <ele>-0.82</ele>
        <time>2017-10-09T12:00:35Z</time>
      </trkpt>
      <trkpt lat="41.31316" lon="9.26621">
        <ele>-0.34</ele>
        <time>2017-10-09T12:00:48Z</time>
      </trkpt>
      <trkpt lat="41.31317" lon="9.26615">
        <ele>-0.82</ele>
        <time>2017-10-09T12:01:01Z</time>
      </trkpt>
      <trkpt lat="41.31318" lon="9.26608">
        <ele>-0.34</ele>
        <time>2017-10-09T12:01:14Z</time>
      </trkpt>
      <trkpt lat="41.31318" lon="9.26603">
        <ele>0.14</ele>
        <time>2017-10-09T12:01:30Z</time>
      </trkpt>
      <trkpt lat="41.31318" lon="9.26598">
        <ele>-0.34</ele>
        <time>2017-10-09T12:01:43Z</time>
      </trkpt>
      <trkpt lat="41.31318" lon="9.26594">
        <ele>-0.82</ele>
        <time>2017-10-09T12:01:54Z</time>
      </trkpt>
      <trkpt lat="41.31317" lon="9.26589">
        <ele>-0.82</ele>
        <time>2017-10-09T12:02:08Z</time>
      </trkpt>
      <trkpt lat="41.31317" lon="9.26584">
        <ele>-0.82</ele>
        <time>2017-10-09T12:02:23Z</time>
      </trkpt>
      <trkpt lat="41.31316" lon="9.26581">
        <ele>-0.82</ele>
        <time>2017-10-09T12:02:37Z</time>
      </trkpt>
      <trkpt lat="41.31316" lon="9.26578">
        <ele>-0.34</ele>
        <time>2017-10-09T12:02:52Z</time>
      </trkpt>
      <trkpt lat="41.31315" lon="9.26576">
        <ele>-0.34</ele>
        <time>2017-10-09T12:03:04Z</time>
      </trkpt>
      <trkpt lat="41.31314" lon="9.26576">
        <ele>-0.82</ele>
        <time>2017-10-09T12:03:15Z</time>
      </trkpt>
      <trkpt lat="41.31314" lon="9.26575">
        <ele>-0.82</ele>
        <time>2017-10-09T12:03:28Z</time>
      </trkpt>
      <trkpt lat="41.31315" lon="9.26574">
        <ele>-0.82</ele>
        <time>2017-10-09T12:03:37Z</time>
      </trkpt>
      <trkpt lat="41.31316" lon="9.26572">
        <ele>-0.82</ele>
        <time>2017-10-09T12:03:49Z</time>
      </trkpt>
      <trkpt lat="41.31316" lon="9.26571">
        <ele>-0.82</ele>
        <time>2017-10-09T12:04:01Z</time>
      </trkpt>
      <trkpt lat="41.31317" lon="9.26568">
        <ele>-0.82</ele>
        <time>2017-10-09T12:04:17Z</time>
      </trkpt>
      <trkpt lat="41.31317" lon="9.26566">
        <ele>-0.82</ele>
        <time>2017-10-09T12:04:30Z</time>
      </trkpt>
      <trkpt lat="41.31316" lon="9.26564">
        <ele>-0.82</ele>
        <time>2017-10-09T12:04:41Z</time>
      </trkpt>
      <trkpt lat="41.31316" lon="9.26562">
        <ele>-0.82</ele>
        <time>2017-10-09T12:04:51Z</time>
      </trkpt>
      <trkpt lat="41.31316" lon="9.26559">
        <ele>-0.82</ele>
        <time>2017-10-09T12:05:05Z</time>
      </trkpt>
      <trkpt lat="41.31315" lon="9.26557">
        <ele>-0.82</ele>
        <time>2017-10-09T12:05:19Z</time>
      </trkpt>
      <trkpt lat="41.31315" lon="9.26554">
        <ele>-0.34</ele>
        <time>2017-10-09T12:05:32Z</time>
      </trkpt>
      <trkpt lat="41.31314" lon="9.26552">
        <ele>-0.82</ele>
        <time>2017-10-09T12:05:46Z</time>
      </trkpt>
      <trkpt lat="41.31313" lon="9.26549">
        <ele>-0.82</ele>
        <time>2017-10-09T12:05:59Z</time>
      </trkpt>
      <trkpt lat="41.31312" lon="9.26545">
        <ele>-0.34</ele>
        <time>2017-10-09T12:06:15Z</time>
      </trkpt>
      <trkpt lat="41.3131" lon="9.26542">
        <ele>-0.34</ele>
        <time>2017-10-09T12:06:30Z</time>
      </trkpt>
      <trkpt lat="41.31308" lon="9.2654">
        <ele>-0.82</ele>
        <time>2017-10-09T12:06:47Z</time>
      </trkpt>
      <trkpt lat="41.31307" lon="9.26539">
        <ele>-1.3</ele>
        <time>2017-10-09T12:07:00Z</time>
      </trkpt>
      <trkpt lat="41.31306" lon="9.26538">
        <ele>-0.82</ele>
        <time>2017-10-09T12:07:15Z</time>
      </trkpt>
      <trkpt lat="41.31306" lon="9.26536">
        <ele>-0.82</ele>
        <time>2017-10-09T12:07:28Z</time>
      </trkpt>
      <trkpt lat="41.31305" lon="9.26533">
        <ele>-0.34</ele>
        <time>2017-10-09T12:07:42Z</time>
      </trkpt>
      <trkpt lat="41.31305" lon="9.26531">
        <ele>-0.34</ele>
        <time>2017-10-09T12:07:55Z</time>
      </trkpt>
      <trkpt lat="41.31305" lon="9.26529">
        <ele>0.14</ele>
        <time>2017-10-09T12:08:08Z</time>
      </trkpt>
      <trkpt lat="41.31305" lon="9.26526">
        <ele>0.62</ele>
        <time>2017-10-09T12:08:22Z</time>
      </trkpt>
      <trkpt lat="41.31305" lon="9.26522">
        <ele>1.1</ele>
        <time>2017-10-09T12:08:34Z</time>
      </trkpt>
      <trkpt lat="41.31304" lon="9.26519">
        <ele>0.62</ele>
        <time>2017-10-09T12:08:47Z</time>
      </trkpt>
      <trkpt lat="41.31304" lon="9.26517">
        <ele>1.1</ele>
        <time>2017-10-09T12:08:59Z</time>
      </trkpt>
      <trkpt lat="41.31304" lon="9.26515">
        <ele>1.1</ele>
        <time>2017-10-09T12:09:17Z</time>
      </trkpt>
      <trkpt lat="41.31304" lon="9.26513">
        <ele>1.1</ele>
        <time>2017-10-09T12:09:29Z</time>
      </trkpt>
      <trkpt lat="41.31303" lon="9.26511">
        <ele>1.1</ele>
        <time>2017-10-09T12:09:42Z</time>
      </trkpt>
      <trkpt lat="41.31303" lon="9.26509">
        <ele>1.1</ele>
        <time>2017-10-09T12:09:57Z</time>
      </trkpt>
      <trkpt lat="41.31303" lon="9.26508">
        <ele>1.58</ele>
        <time>2017-10-09T12:10:14Z</time>
      </trkpt>
      <trkpt lat="41.31304" lon="9.26506">
        <ele>1.58</ele>
        <time>2017-10-09T12:10:24Z</time>
      </trkpt>
      <trkpt lat="41.31305" lon="9.26504">
        <ele>2.06</ele>
        <time>2017-10-09T12:10:38Z</time>
      </trkpt>
      <trkpt lat="41.31306" lon="9.26501">
        <ele>2.54</ele>
        <time>2017-10-09T12:10:53Z</time>
      </trkpt>
      <trkpt lat="41.31307" lon="9.26497">
        <ele>3.02</ele>
        <time>2017-10-09T12:11:06Z</time>
      </trkpt>
      <trkpt lat="41.31308" lon="9.26494">
        <ele>3.02</ele>
        <time>2017-10-09T12:11:18Z</time>
      </trkpt>
      <trkpt lat="41.31309" lon="9.2649">
        <ele>3.02</ele>
        <time>2017-10-09T12:11:35Z</time>
      </trkpt>
      <trkpt lat="41.31309" lon="9.26486">
        <ele>3.5</ele>
        <time>2017-10-09T12:11:49Z</time>
      </trkpt>
      <trkpt lat="41.31309" lon="9.26483">
        <ele>3.02</ele>
        <time>2017-10-09T12:12:03Z</time>
      </trkpt>
      <trkpt lat="41.31308" lon="9.26479">
        <ele>2.06</ele>
        <time>2017-10-09T12:12:15Z</time>
      </trkpt>
      <trkpt lat="41.31308" lon="9.26478">
        <ele>1.58</ele>
        <time>2017-10-09T12:12:30Z</time>
      </trkpt>
      <trkpt lat="41.31308" lon="9.26477">
        <ele>2.06</ele>
        <time>2017-10-09T12:12:43Z</time>
      </trkpt>
      <trkpt lat="41.31309" lon="9.26476">
        <ele>1.58</ele>
        <time>2017-10-09T12:12:57Z</time>
      </trkpt>
      <trkpt lat="41.3131" lon="9.26473">
        <ele>2.06</ele>
        <time>2017-10-09T12:13:09Z</time>
      </trkpt>
      <trkpt lat="41.31311" lon="9.26471">
        <ele>2.06</ele>
        <time>2017-10-09T12:13:23Z</time>
      </trkpt>
      <trkpt lat="41.31313" lon="9.26468">
        <ele>2.06</ele>
        <time>2017-10-09T12:13:36Z</time>
      </trkpt>
      <trkpt lat="41.31315" lon="9.26465">
        <ele>2.54</ele>
        <time>2017-10-09T12:13:50Z</time>
      </trkpt>
      <trkpt lat="41.31316" lon="9.26458">
        <ele>2.54</ele>
        <time>2017-10-09T12:14:06Z</time>
      </trkpt>
      <trkpt lat="41.31317" lon="9.26453">
        <ele>1.58</ele>
        <time>2017-10-09T12:14:18Z</time>
      </trkpt>
      <trkpt lat="41.31318" lon="9.26449">
        <ele>1.1</ele>
        <time>2017-10-09T12:14:30Z</time>
      </trkpt>
      <trkpt lat="41.31317" lon="9.26446">
        <ele>1.1</ele>
        <time>2017-10-09T12:14:45Z</time>
      </trkpt>
      <trkpt lat="41.31318" lon="9.26445">
        <ele>1.1</ele>
        <time>2017-10-09T12:14:56Z</time>
      </trkpt>
      <trkpt lat="41.31318" lon="9.26444">
        <ele>1.1</ele>
        <time>2017-10-09T12:15:10Z</time>
      </trkpt>
      <trkpt lat="41.31319" lon="9.26442">
        <ele>1.58</ele>
        <time>2017-10-09T12:15:26Z</time>
      </trkpt>
      <trkpt lat="41.3132" lon="9.2644">
        <ele>1.58</ele>
        <time>2017-10-09T12:15:40Z</time>
      </trkpt>
      <trkpt lat="41.31322" lon="9.26436">
        <ele>1.58</ele>
        <time>2017-10-09T12:15:53Z</time>
      </trkpt>
      <trkpt lat="41.31322" lon="9.26432">
        <ele>1.58</ele>
        <time>2017-10-09T12:16:06Z</time>
      </trkpt>
      <trkpt lat="41.31323" lon="9.2643">
        <ele>1.1</ele>
        <time>2017-10-09T12:16:17Z</time>
      </trkpt>
      <trkpt lat="41.31323" lon="9.26427">
        <ele>1.58</ele>
        <time>2017-10-09T12:16:32Z</time>
      </trkpt>
      <trkpt lat="41.31324" lon="9.26426">
        <ele>1.58</ele>
        <time>2017-10-09T12:16:43Z</time>
      </trkpt>
      <trkpt lat="41.31325" lon="9.26425">
        <ele>1.58</ele>
        <time>2017-10-09T12:16:55Z</time>
      </trkpt>
      <trkpt lat="41.31326" lon="9.26423">
        <ele>1.58</ele>
        <time>2017-10-09T12:17:07Z</time>
      </trkpt>
      <trkpt lat="41.31327" lon="9.2642">
        <ele>2.06</ele>
        <time>2017-10-09T12:17:20Z</time>
      </trkpt>
      <trkpt lat="41.31328" lon="9.26416">
        <ele>1.58</ele>
        <time>2017-10-09T12:17:36Z</time>
      </trkpt>
      <trkpt lat="41.31329" lon="9.2641">
        <ele>1.58</ele>
        <time>2017-10-09T12:17:48Z</time>
      </trkpt>
      <trkpt lat="41.31331" lon="9.26406">
        <ele>0.62</ele>
        <time>2017-10-09T12:18:02Z</time>
      </trkpt>
      <trkpt lat="41.31332" lon="9.26404">
        <ele>0.14</ele>
        <time>2017-10-09T12:18:14Z</time>
      </trkpt>
      <trkpt lat="41.31332" lon="9.26402">
        <ele>-0.34</ele>
        <time>2017-10-09T12:18:28Z</time>
      </trkpt>
      <trkpt lat="41.31328" lon="9.26402">
        <ele>0.14</ele>
        <time>2017-10-09T12:18:40Z</time>
      </trkpt>
      <trkpt lat="41.31323" lon="9.26404">
        <ele>0.14</ele>
        <time>2017-10-09T12:18:46Z</time>
      </trkpt>
      <trkpt lat="41.31314" lon="9.26411">
        <ele>-0.34</ele>
        <time>2017-10-09T12:18:58Z</time>
      </trkpt>
      <trkpt lat="41.3131" lon="9.26416">
        <ele>0.14</ele>
        <time>2017-10-09T12:19:04Z</time>
      </trkpt>
      <trkpt lat="41.31304" lon="9.26422">
        <ele>0.14</ele>
        <time>2017-10-09T12:19:11Z</time>
      </trkpt>
      <trkpt lat="41.31297" lon="9.26427">
        <ele>0.14</ele>
        <time>2017-10-09T12:19:18Z</time>
      </trkpt>
      <trkpt lat="41.31292" lon="9.26432">
        <ele>0.62</ele>
        <time>2017-10-09T12:19:23Z</time>
      </trkpt>
      <trkpt lat="41.31276" lon="9.26449">
        <ele>0.14</ele>
        <time>2017-10-09T12:19:40Z</time>
      </trkpt>
      <trkpt lat="41.3126" lon="9.26463">
        <ele>0.14</ele>
        <time>2017-10-09T12:19:54Z</time>
      </trkpt>
      <trkpt lat="41.31256" lon="9.26468">
        <ele>0.62</ele>
        <time>2017-10-09T12:19:58Z</time>
      </trkpt>
      <trkpt lat="41.31239" lon="9.26484">
        <ele>0.14</ele>
        <time>2017-10-09T12:20:13Z</time>
      </trkpt>
      <trkpt lat="41.31225" lon="9.265">
        <ele>0.62</ele>
        <time>2017-10-09T12:20:25Z</time>
      </trkpt>
      <trkpt lat="41.31204" lon="9.26526">
        <ele>1.58</ele>
        <time>2017-10-09T12:20:43Z</time>
      </trkpt>
      <trkpt lat="41.31186" lon="9.26548">
        <ele>1.58</ele>
        <time>2017-10-09T12:20:57Z</time>
      </trkpt>
      <trkpt lat="41.31169" lon="9.26569">
        <ele>0.62</ele>
        <time>2017-10-09T12:21:10Z</time>
      </trkpt>
      <trkpt lat="41.31151" lon="9.2659">
        <ele>0.62</ele>
        <time>2017-10-09T12:21:23Z</time>
      </trkpt>
      <trkpt lat="41.31135" lon="9.2661">
        <ele>0.14</ele>
        <time>2017-10-09T12:21:35Z</time>
      </trkpt>
      <trkpt lat="41.31119" lon="9.26631">
        <ele>0.62</ele>
        <time>2017-10-09T12:21:47Z</time>
      </trkpt>
      <trkpt lat="41.31118" lon="9.26634">
        <ele>0.62</ele>
        <time>2017-10-09T12:21:48Z</time>
      </trkpt>
      <trkpt lat="41.31115" lon="9.26636">
        <ele>0.14</ele>
        <time>2017-10-09T12:21:50Z</time>
      </trkpt>
      <trkpt lat="41.3111" lon="9.26643">
        <ele>0.62</ele>
        <time>2017-10-09T12:21:54Z</time>
      </trkpt>
      <trkpt lat="41.311" lon="9.26655">
        <ele>0.62</ele>
        <time>2017-10-09T12:22:01Z</time>
      </trkpt>
      <trkpt lat="41.3108" lon="9.26681">
        <ele>1.1</ele>
        <time>2017-10-09T12:22:16Z</time>
      </trkpt>
      <trkpt lat="41.31076" lon="9.26685">
        <ele>2.06</ele>
        <time>2017-10-09T12:22:19Z</time>
      </trkpt>
      <trkpt lat="41.31071" lon="9.26692">
        <ele>1.58</ele>
        <time>2017-10-09T12:22:23Z</time>
      </trkpt>
      <trkpt lat="41.31055" lon="9.26711">
        <ele>2.06</ele>
        <time>2017-10-09T12:22:35Z</time>
      </trkpt>
      <trkpt lat="41.31033" lon="9.26734">
        <ele>2.54</ele>
        <time>2017-10-09T12:22:51Z</time>
      </trkpt>
      <trkpt lat="41.31014" lon="9.2675">
        <ele>1.1</ele>
        <time>2017-10-09T12:23:04Z</time>
      </trkpt>
      <trkpt lat="41.30987" lon="9.26762">
        <ele>0.62</ele>
        <time>2017-10-09T12:23:18Z</time>
      </trkpt>
      <trkpt lat="41.30957" lon="9.2677">
        <ele>-0.34</ele>
        <time>2017-10-09T12:23:32Z</time>
      </trkpt>
      <trkpt lat="41.30954" lon="9.26769">
        <ele>-0.82</ele>
        <time>2017-10-09T12:23:33Z</time>
      </trkpt>
      <trkpt lat="41.30926" lon="9.2677">
        <ele>-0.82</ele>
        <time>2017-10-09T12:23:45Z</time>
      </trkpt>
      <trkpt lat="41.30898" lon="9.26767">
        <ele>1.1</ele>
        <time>2017-10-09T12:23:57Z</time>
      </trkpt>
      <trkpt lat="41.30867" lon="9.26759">
        <ele>-0.34</ele>
        <time>2017-10-09T12:24:09Z</time>
      </trkpt>
      <trkpt lat="41.30837" lon="9.26752">
        <ele>-0.34</ele>
        <time>2017-10-09T12:24:21Z</time>
      </trkpt>
      <trkpt lat="41.30807" lon="9.26742">
        <ele>-0.34</ele>
        <time>2017-10-09T12:24:33Z</time>
      </trkpt>
      <trkpt lat="41.30777" lon="9.2673">
        <ele>-0.34</ele>
        <time>2017-10-09T12:24:46Z</time>
      </trkpt>
      <trkpt lat="41.30754" lon="9.2672">
        <ele>-1.3</ele>
        <time>2017-10-09T12:24:56Z</time>
      </trkpt>
      <trkpt lat="41.30723" lon="9.26704">
        <ele>-1.3</ele>
        <time>2017-10-09T12:25:09Z</time>
      </trkpt>
      <trkpt lat="41.30701" lon="9.26694">
        <ele>-0.82</ele>
        <time>2017-10-09T12:25:18Z</time>
      </trkpt>
      <trkpt lat="41.30678" lon="9.26683">
        <ele>-0.34</ele>
        <time>2017-10-09T12:25:27Z</time>
      </trkpt>
      <trkpt lat="41.30647" lon="9.26667">
        <ele>-1.3</ele>
        <time>2017-10-09T12:25:40Z</time>
      </trkpt>
      <trkpt lat="41.30622" lon="9.26655">
        <ele>-1.3</ele>
        <time>2017-10-09T12:25:51Z</time>
      </trkpt>
      <trkpt lat="41.30594" lon="9.26641">
        <ele>-1.3</ele>
        <time>2017-10-09T12:26:03Z</time>
      </trkpt>
      <trkpt lat="41.30564" lon="9.26625">
        <ele>-0.82</ele>
        <time>2017-10-09T12:26:16Z</time>
      </trkpt>
      <trkpt lat="41.30539" lon="9.26613">
        <ele>-1.3</ele>
        <time>2017-10-09T12:26:26Z</time>
      </trkpt>
      <trkpt lat="41.30512" lon="9.26599">
        <ele>-1.3</ele>
        <time>2017-10-09T12:26:37Z</time>
      </trkpt>
      <trkpt lat="41.30484" lon="9.26585">
        <ele>-0.82</ele>
        <time>2017-10-09T12:26:48Z</time>
      </trkpt>
      <trkpt lat="41.30448" lon="9.26567">
        <ele>-0.82</ele>
        <time>2017-10-09T12:27:02Z</time>
      </trkpt>
      <trkpt lat="41.30426" lon="9.26556">
        <ele>-1.3</ele>
        <time>2017-10-09T12:27:11Z</time>
      </trkpt>
      <trkpt lat="41.30419" lon="9.26552">
        <ele>-0.82</ele>
        <time>2017-10-09T12:27:14Z</time>
      </trkpt>
      <trkpt lat="41.30391" lon="9.26535">
        <ele>-1.3</ele>
        <time>2017-10-09T12:27:26Z</time>
      </trkpt>
      <trkpt lat="41.30367" lon="9.26523">
        <ele>-1.3</ele>
        <time>2017-10-09T12:27:36Z</time>
      </trkpt>
      <trkpt lat="41.30342" lon="9.2651">
        <ele>-1.79</ele>
        <time>2017-10-09T12:27:46Z</time>
      </trkpt>
      <trkpt lat="41.30304" lon="9.2649">
        <ele>-2.27</ele>
        <time>2017-10-09T12:28:01Z</time>
      </trkpt>
      <trkpt lat="41.30274" lon="9.26475">
        <ele>-1.79</ele>
        <time>2017-10-09T12:28:13Z</time>
      </trkpt>
      <trkpt lat="41.30255" lon="9.26463">
        <ele>-1.3</ele>
        <time>2017-10-09T12:28:21Z</time>
      </trkpt>
      <trkpt lat="41.30226" lon="9.26449">
        <ele>-1.3</ele>
        <time>2017-10-09T12:28:32Z</time>
      </trkpt>
      <trkpt lat="41.30196" lon="9.26432">
        <ele>-2.27</ele>
        <time>2017-10-09T12:28:44Z</time>
      </trkpt>
      <trkpt lat="41.30167" lon="9.26418">
        <ele>-1.79</ele>
        <time>2017-10-09T12:28:55Z</time>
      </trkpt>
      <trkpt lat="41.30138" lon="9.26402">
        <ele>-2.27</ele>
        <time>2017-10-09T12:29:06Z</time>
      </trkpt>
      <trkpt lat="41.30123" lon="9.26396">
        <ele>-1.3</ele>
        <time>2017-10-09T12:29:12Z</time>
      </trkpt>
      <trkpt lat="41.30098" lon="9.26381">
        <ele>-1.79</ele>
        <time>2017-10-09T12:29:22Z</time>
      </trkpt>
      <trkpt lat="41.30072" lon="9.26368">
        <ele>-1.3</ele>
        <time>2017-10-09T12:29:33Z</time>
      </trkpt>
      <trkpt lat="41.30047" lon="9.26354">
        <ele>-1.79</ele>
        <time>2017-10-09T12:29:44Z</time>
      </trkpt>
      <trkpt lat="41.30018" lon="9.2634">
        <ele>-2.27</ele>
        <time>2017-10-09T12:29:56Z</time>
      </trkpt>
      <trkpt lat="41.29994" lon="9.26328">
        <ele>-2.27</ele>
        <time>2017-10-09T12:30:05Z</time>
      </trkpt>
      <trkpt lat="41.29981" lon="9.26319">
        <ele>-1.79</ele>
        <time>2017-10-09T12:30:10Z</time>
      </trkpt>
      <trkpt lat="41.29961" lon="9.26309">
        <ele>-1.79</ele>
        <time>2017-10-09T12:30:17Z</time>
      </trkpt>
      <trkpt lat="41.29926" lon="9.26293">
        <ele>-1.79</ele>
        <time>2017-10-09T12:30:29Z</time>
      </trkpt>
      <trkpt lat="41.29887" lon="9.26271">
        <ele>-1.79</ele>
        <time>2017-10-09T12:30:43Z</time>
      </trkpt>
      <trkpt lat="41.29854" lon="9.26254">
        <ele>-2.27</ele>
        <time>2017-10-09T12:30:55Z</time>
      </trkpt>
      <trkpt lat="41.29818" lon="9.26237">
        <ele>-2.27</ele>
        <time>2017-10-09T12:31:08Z</time>
      </trkpt>
      <trkpt lat="41.2979" lon="9.26223">
        <ele>-1.79</ele>
        <time>2017-10-09T12:31:18Z</time>
      </trkpt>
      <trkpt lat="41.29747" lon="9.26201">
        <ele>-2.75</ele>
        <time>2017-10-09T12:31:33Z</time>
      </trkpt>
      <trkpt lat="41.29711" lon="9.26184">
        <ele>-2.75</ele>
        <time>2017-10-09T12:31:45Z</time>
      </trkpt>
      <trkpt lat="41.29673" lon="9.26166">
        <ele>-2.75</ele>
        <time>2017-10-09T12:31:59Z</time>
      </trkpt>
      <trkpt lat="41.29646" lon="9.26154">
        <ele>-1.79</ele>
        <time>2017-10-09T12:32:09Z</time>
      </trkpt>
      <trkpt lat="41.29604" lon="9.26133">
        <ele>-2.75</ele>
        <time>2017-10-09T12:32:25Z</time>
      </trkpt>
      <trkpt lat="41.29574" lon="9.26118">
        <ele>-3.23</ele>
        <time>2017-10-09T12:32:36Z</time>
      </trkpt>
      <trkpt lat="41.29541" lon="9.26104">
        <ele>-2.75</ele>
        <time>2017-10-09T12:32:48Z</time>
      </trkpt>
      <trkpt lat="41.29508" lon="9.26089">
        <ele>-2.75</ele>
        <time>2017-10-09T12:33:00Z</time>
      </trkpt>
      <trkpt lat="41.29477" lon="9.26075">
        <ele>-2.75</ele>
        <time>2017-10-09T12:33:11Z</time>
      </trkpt>
      <trkpt lat="41.29446" lon="9.26061">
        <ele>-2.75</ele>
        <time>2017-10-09T12:33:22Z</time>
      </trkpt>
      <trkpt lat="41.29408" lon="9.26043">
        <ele>-2.75</ele>
        <time>2017-10-09T12:33:36Z</time>
      </trkpt>
      <trkpt lat="41.29378" lon="9.2603">
        <ele>-1.79</ele>
        <time>2017-10-09T12:33:47Z</time>
      </trkpt>
      <trkpt lat="41.29349" lon="9.26017">
        <ele>-1.3</ele>
        <time>2017-10-09T12:33:58Z</time>
      </trkpt>
      <trkpt lat="41.29321" lon="9.26004">
        <ele>-1.79</ele>
        <time>2017-10-09T12:34:08Z</time>
      </trkpt>
      <trkpt lat="41.29299" lon="9.25995">
        <ele>-1.79</ele>
        <time>2017-10-09T12:34:16Z</time>
      </trkpt>
      <trkpt lat="41.29263" lon="9.25979">
        <ele>-1.79</ele>
        <time>2017-10-09T12:34:29Z</time>
      </trkpt>
      <trkpt lat="41.29233" lon="9.25967">
        <ele>-1.79</ele>
        <time>2017-10-09T12:34:40Z</time>
      </trkpt>
      <trkpt lat="41.29202" lon="9.25954">
        <ele>-1.3</ele>
        <time>2017-10-09T12:34:52Z</time>
      </trkpt>
      <trkpt lat="41.29177" lon="9.25943">
        <ele>-1.79</ele>
        <time>2017-10-09T12:35:01Z</time>
      </trkpt>
      <trkpt lat="41.29147" lon="9.2593">
        <ele>-1.79</ele>
        <time>2017-10-09T12:35:12Z</time>
      </trkpt>
      <trkpt lat="41.2911" lon="9.25915">
        <ele>-1.79</ele>
        <time>2017-10-09T12:35:25Z</time>
      </trkpt>
      <trkpt lat="41.29098" lon="9.25911">
        <ele>-1.3</ele>
        <time>2017-10-09T12:35:29Z</time>
      </trkpt>
      <trkpt lat="41.29061" lon="9.25894">
        <ele>-1.79</ele>
        <time>2017-10-09T12:35:42Z</time>
      </trkpt>
      <trkpt lat="41.29023" lon="9.25879">
        <ele>-1.3</ele>
        <time>2017-10-09T12:35:55Z</time>
      </trkpt>
      <trkpt lat="41.28991" lon="9.25866">
        <ele>-0.82</ele>
        <time>2017-10-09T12:36:06Z</time>
      </trkpt>
      <trkpt lat="41.28958" lon="9.25853">
        <ele>-1.79</ele>
        <time>2017-10-09T12:36:18Z</time>
      </trkpt>
      <trkpt lat="41.2892" lon="9.25837">
        <ele>-1.79</ele>
        <time>2017-10-09T12:36:32Z</time>
      </trkpt>
      <trkpt lat="41.28877" lon="9.25818">
        <ele>-1.79</ele>
        <time>2017-10-09T12:36:47Z</time>
      </trkpt>
      <trkpt lat="41.2883" lon="9.25799">
        <ele>-2.75</ele>
        <time>2017-10-09T12:37:04Z</time>
      </trkpt>
      <trkpt lat="41.28789" lon="9.2578">
        <ele>-2.27</ele>
        <time>2017-10-09T12:37:18Z</time>
      </trkpt>
      <trkpt lat="41.28754" lon="9.25765">
        <ele>-1.79</ele>
        <time>2017-10-09T12:37:30Z</time>
      </trkpt>
      <trkpt lat="41.28718" lon="9.25751">
        <ele>-1.79</ele>
        <time>2017-10-09T12:37:42Z</time>
      </trkpt>
      <trkpt lat="41.28674" lon="9.25733">
        <ele>-1.3</ele>
        <time>2017-10-09T12:37:57Z</time>
      </trkpt>
      <trkpt lat="41.28628" lon="9.25713">
        <ele>-1.3</ele>
        <time>2017-10-09T12:38:13Z</time>
      </trkpt>
      <trkpt lat="41.28582" lon="9.25694">
        <ele>-1.3</ele>
        <time>2017-10-09T12:38:29Z</time>
      </trkpt>
      <trkpt lat="41.28551" lon="9.25682">
        <ele>-2.27</ele>
        <time>2017-10-09T12:38:40Z</time>
      </trkpt>
      <trkpt lat="41.28514" lon="9.25667">
        <ele>-2.27</ele>
        <time>2017-10-09T12:38:53Z</time>
      </trkpt>
      <trkpt lat="41.28478" lon="9.25654">
        <ele>-1.79</ele>
        <time>2017-10-09T12:39:06Z</time>
      </trkpt>
      <trkpt lat="41.28441" lon="9.25639">
        <ele>-1.3</ele>
        <time>2017-10-09T12:39:19Z</time>
      </trkpt>
      <trkpt lat="41.28398" lon="9.2562">
        <ele>-0.82</ele>
        <time>2017-10-09T12:39:34Z</time>
      </trkpt>
      <trkpt lat="41.28361" lon="9.25604">
        <ele>-0.82</ele>
        <time>2017-10-09T12:39:47Z</time>
      </trkpt>
      <trkpt lat="41.28318" lon="9.25586">
        <ele>-0.82</ele>
        <time>2017-10-09T12:40:02Z</time>
      </trkpt>
      <trkpt lat="41.28274" lon="9.25565">
        <ele>-1.3</ele>
        <time>2017-10-09T12:40:17Z</time>
      </trkpt>
      <trkpt lat="41.28232" lon="9.25547">
        <ele>-1.3</ele>
        <time>2017-10-09T12:40:31Z</time>
      </trkpt>
      <trkpt lat="41.28198" lon="9.25531">
        <ele>-1.3</ele>
        <time>2017-10-09T12:40:42Z</time>
      </trkpt>
      <trkpt lat="41.2816" lon="9.25515">
        <ele>-1.79</ele>
        <time>2017-10-09T12:40:54Z</time>
      </trkpt>
      <trkpt lat="41.2812" lon="9.25496">
        <ele>-0.82</ele>
        <time>2017-10-09T12:41:07Z</time>
      </trkpt>
      <trkpt lat="41.28079" lon="9.25481">
        <ele>-0.82</ele>
        <time>2017-10-09T12:41:21Z</time>
      </trkpt>
      <trkpt lat="41.28044" lon="9.25466">
        <ele>-0.82</ele>
        <time>2017-10-09T12:41:33Z</time>
      </trkpt>
      <trkpt lat="41.28006" lon="9.2545">
        <ele>-0.34</ele>
        <time>2017-10-09T12:41:45Z</time>
      </trkpt>
      <trkpt lat="41.2797" lon="9.25438">
        <ele>-0.82</ele>
        <time>2017-10-09T12:41:56Z</time>
      </trkpt>
      <trkpt lat="41.27922" lon="9.25422">
        <ele>-0.82</ele>
        <time>2017-10-09T12:42:11Z</time>
      </trkpt>
      <trkpt lat="41.27879" lon="9.25408">
        <ele>-0.34</ele>
        <time>2017-10-09T12:42:25Z</time>
      </trkpt>
      <trkpt lat="41.27844" lon="9.25398">
        <ele>-0.82</ele>
        <time>2017-10-09T12:42:37Z</time>
      </trkpt>
      <trkpt lat="41.27808" lon="9.25389">
        <ele>-0.82</ele>
        <time>2017-10-09T12:42:49Z</time>
      </trkpt>
      <trkpt lat="41.27772" lon="9.25378">
        <ele>-1.3</ele>
        <time>2017-10-09T12:43:01Z</time>
      </trkpt>
      <trkpt lat="41.27732" lon="9.25364">
        <ele>-1.3</ele>
        <time>2017-10-09T12:43:14Z</time>
      </trkpt>
      <trkpt lat="41.27689" lon="9.25347">
        <ele>-0.82</ele>
        <time>2017-10-09T12:43:28Z</time>
      </trkpt>
      <trkpt lat="41.27651" lon="9.25336">
        <ele>-0.82</ele>
        <time>2017-10-09T12:43:40Z</time>
      </trkpt>
      <trkpt lat="41.27615" lon="9.25327">
        <ele>-0.82</ele>
        <time>2017-10-09T12:43:52Z</time>
      </trkpt>
      <trkpt lat="41.27577" lon="9.25313">
        <ele>-0.82</ele>
        <time>2017-10-09T12:44:05Z</time>
      </trkpt>
      <trkpt lat="41.27552" lon="9.25303">
        <ele>0.14</ele>
        <time>2017-10-09T12:44:14Z</time>
      </trkpt>
      <trkpt lat="41.27512" lon="9.25288">
        <ele>0.14</ele>
        <time>2017-10-09T12:44:28Z</time>
      </trkpt>
      <trkpt lat="41.27477" lon="9.25276">
        <ele>-0.34</ele>
        <time>2017-10-09T12:44:40Z</time>
      </trkpt>
      <trkpt lat="41.27432" lon="9.2526">
        <ele>-1.3</ele>
        <time>2017-10-09T12:44:55Z</time>
      </trkpt>
      <trkpt lat="41.27385" lon="9.25242">
        <ele>-0.82</ele>
        <time>2017-10-09T12:45:11Z</time>
      </trkpt>
      <trkpt lat="41.27353" lon="9.25233">
        <ele>-0.34</ele>
        <time>2017-10-09T12:45:22Z</time>
      </trkpt>
      <trkpt lat="41.27314" lon="9.2522">
        <ele>-0.34</ele>
        <time>2017-10-09T12:45:36Z</time>
      </trkpt>
      <trkpt lat="41.27275" lon="9.25205">
        <ele>-0.34</ele>
        <time>2017-10-09T12:45:50Z</time>
      </trkpt>
      <trkpt lat="41.27241" lon="9.25192">
        <ele>-0.34</ele>
        <time>2017-10-09T12:46:02Z</time>
      </trkpt>
      <trkpt lat="41.27204" lon="9.25181">
        <ele>-0.34</ele>
        <time>2017-10-09T12:46:15Z</time>
      </trkpt>
      <trkpt lat="41.27163" lon="9.25169">
        <ele>0.14</ele>
        <time>2017-10-09T12:46:30Z</time>
      </trkpt>
      <trkpt lat="41.27125" lon="9.25155">
        <ele>0.14</ele>
        <time>2017-10-09T12:46:43Z</time>
      </trkpt>
      <trkpt lat="41.2709" lon="9.25143">
        <ele>-0.34</ele>
        <time>2017-10-09T12:46:55Z</time>
      </trkpt>
      <trkpt lat="41.27051" lon="9.25129">
        <ele>0.14</ele>
        <time>2017-10-09T12:47:08Z</time>
      </trkpt>
      <trkpt lat="41.27011" lon="9.25116">
        <ele>0.62</ele>
        <time>2017-10-09T12:47:21Z</time>
      </trkpt>
      <trkpt lat="41.26978" lon="9.25103">
        <ele>0.14</ele>
        <time>2017-10-09T12:47:32Z</time>
      </trkpt>
      <trkpt lat="41.26938" lon="9.2509">
        <ele>0.14</ele>
        <time>2017-10-09T12:47:45Z</time>
      </trkpt>
      <trkpt lat="41.26899" lon="9.25076">
        <ele>0.14</ele>
        <time>2017-10-09T12:47:58Z</time>
      </trkpt>
      <trkpt lat="41.26866" lon="9.25064">
        <ele>-0.34</ele>
        <time>2017-10-09T12:48:09Z</time>
      </trkpt>
      <trkpt lat="41.26828" lon="9.25051">
        <ele>-0.34</ele>
        <time>2017-10-09T12:48:22Z</time>
      </trkpt>
      <trkpt lat="41.26789" lon="9.25038">
        <ele>0.14</ele>
        <time>2017-10-09T12:48:35Z</time>
      </trkpt>
      <trkpt lat="41.2674" lon="9.25022">
        <ele>-0.34</ele>
        <time>2017-10-09T12:48:52Z</time>
      </trkpt>
      <trkpt lat="41.26691" lon="9.25004">
        <ele>0.14</ele>
        <time>2017-10-09T12:49:08Z</time>
      </trkpt>
      <trkpt lat="41.26644" lon="9.24989">
        <ele>0.14</ele>
        <time>2017-10-09T12:49:23Z</time>
      </trkpt>
      <trkpt lat="41.26602" lon="9.24975">
        <ele>0.14</ele>
        <time>2017-10-09T12:49:37Z</time>
      </trkpt>
      <trkpt lat="41.2656" lon="9.24962">
        <ele>0.62</ele>
        <time>2017-10-09T12:49:51Z</time>
      </trkpt>
      <trkpt lat="41.26508" lon="9.24943">
        <ele>0.62</ele>
        <time>2017-10-09T12:50:09Z</time>
      </trkpt>
      <trkpt lat="41.2647" lon="9.24929">
        <ele>0.62</ele>
        <time>2017-10-09T12:50:22Z</time>
      </trkpt>
      <trkpt lat="41.26425" lon="9.24914">
        <ele>1.1</ele>
        <time>2017-10-09T12:50:37Z</time>
      </trkpt>
      <trkpt lat="41.26381" lon="9.24894">
        <ele>0.14</ele>
        <time>2017-10-09T12:50:52Z</time>
      </trkpt>
      <trkpt lat="41.26342" lon="9.24879">
        <ele>0.62</ele>
        <time>2017-10-09T12:51:05Z</time>
      </trkpt>
      <trkpt lat="41.26302" lon="9.2486">
        <ele>0.14</ele>
        <time>2017-10-09T12:51:18Z</time>
      </trkpt>
      <trkpt lat="41.26256" lon="9.24843">
        <ele>0.62</ele>
        <time>2017-10-09T12:51:33Z</time>
      </trkpt>
      <trkpt lat="41.26207" lon="9.24827">
        <ele>0.62</ele>
        <time>2017-10-09T12:51:49Z</time>
      </trkpt>
      <trkpt lat="41.26161" lon="9.24815">
        <ele>0.62</ele>
        <time>2017-10-09T12:52:04Z</time>
      </trkpt>
      <trkpt lat="41.26108" lon="9.24803">
        <ele>0.14</ele>
        <time>2017-10-09T12:52:21Z</time>
      </trkpt>
      <trkpt lat="41.26065" lon="9.24785">
        <ele>0.14</ele>
        <time>2017-10-09T12:52:35Z</time>
      </trkpt>
      <trkpt lat="41.26016" lon="9.24772">
        <ele>0.14</ele>
        <time>2017-10-09T12:52:51Z</time>
      </trkpt>
      <trkpt lat="41.25966" lon="9.24751">
        <ele>0.14</ele>
        <time>2017-10-09T12:53:08Z</time>
      </trkpt>
      <trkpt lat="41.25926" lon="9.24746">
        <ele>0.14</ele>
        <time>2017-10-09T12:53:21Z</time>
      </trkpt>
      <trkpt lat="41.25878" lon="9.24738">
        <ele>0.62</ele>
        <time>2017-10-09T12:53:37Z</time>
      </trkpt>
      <trkpt lat="41.25834" lon="9.24719">
        <ele>1.1</ele>
        <time>2017-10-09T12:53:52Z</time>
      </trkpt>
      <trkpt lat="41.25784" lon="9.24701">
        <ele>1.1</ele>
        <time>2017-10-09T12:54:09Z</time>
      </trkpt>
      <trkpt lat="41.25739" lon="9.24683">
        <ele>1.1</ele>
        <time>2017-10-09T12:54:24Z</time>
      </trkpt>
      <trkpt lat="41.25697" lon="9.24669">
        <ele>1.1</ele>
        <time>2017-10-09T12:54:38Z</time>
      </trkpt>
      <trkpt lat="41.25641" lon="9.24646">
        <ele>1.58</ele>
        <time>2017-10-09T12:54:58Z</time>
      </trkpt>
      <trkpt lat="41.25588" lon="9.24618">
        <ele>2.06</ele>
        <time>2017-10-09T12:55:17Z</time>
      </trkpt>
      <trkpt lat="41.25541" lon="9.24591">
        <ele>1.58</ele>
        <time>2017-10-09T12:55:34Z</time>
      </trkpt>
      <trkpt lat="41.255" lon="9.24566">
        <ele>2.06</ele>
        <time>2017-10-09T12:55:50Z</time>
      </trkpt>
      <trkpt lat="41.25447" lon="9.24522">
        <ele>1.58</ele>
        <time>2017-10-09T12:56:12Z</time>
      </trkpt>
      <trkpt lat="41.25395" lon="9.24465">
        <ele>1.1</ele>
        <time>2017-10-09T12:56:33Z</time>
      </trkpt>
      <trkpt lat="41.25343" lon="9.24411">
        <ele>0.14</ele>
        <time>2017-10-09T12:56:53Z</time>
      </trkpt>
      <trkpt lat="41.25297" lon="9.24366">
        <ele>0.62</ele>
        <time>2017-10-09T12:57:11Z</time>
      </trkpt>
      <trkpt lat="41.25237" lon="9.2431">
        <ele>1.1</ele>
        <time>2017-10-09T12:57:34Z</time>
      </trkpt>
      <trkpt lat="41.25185" lon="9.24265">
        <ele>0.62</ele>
        <time>2017-10-09T12:57:53Z</time>
      </trkpt>
      <trkpt lat="41.25136" lon="9.24218">
        <ele>0.14</ele>
        <time>2017-10-09T12:58:12Z</time>
      </trkpt>
      <trkpt lat="41.2508" lon="9.24168">
        <ele>0.14</ele>
        <time>2017-10-09T12:58:32Z</time>
      </trkpt>
      <trkpt lat="41.25013" lon="9.24127">
        <ele>0.14</ele>
        <time>2017-10-09T12:58:55Z</time>
      </trkpt>
      <trkpt lat="41.24951" lon="9.24081">
        <ele>0.62</ele>
        <time>2017-10-09T12:59:16Z</time>
      </trkpt>
      <trkpt lat="41.24891" lon="9.24052">
        <ele>-0.34</ele>
        <time>2017-10-09T12:59:38Z</time>
      </trkpt>
      <trkpt lat="41.24846" lon="9.24035">
        <ele>0.14</ele>
        <time>2017-10-09T12:59:57Z</time>
      </trkpt>
      <trkpt lat="41.24781" lon="9.24001">
        <ele>0.14</ele>
        <time>2017-10-09T13:00:28Z</time>
      </trkpt>
      <trkpt lat="41.24747" lon="9.23972">
        <ele>0.62</ele>
        <time>2017-10-09T13:00:49Z</time>
      </trkpt>
      <trkpt lat="41.24716" lon="9.23944">
        <ele>0.14</ele>
        <time>2017-10-09T13:01:15Z</time>
      </trkpt>
      <trkpt lat="41.24693" lon="9.23924">
        <ele>1.1</ele>
        <time>2017-10-09T13:01:44Z</time>
      </trkpt>
      <trkpt lat="41.24679" lon="9.23917">
        <ele>1.1</ele>
        <time>2017-10-09T13:02:10Z</time>
      </trkpt>
      <trkpt lat="41.24671" lon="9.23915">
        <ele>1.1</ele>
        <time>2017-10-09T13:02:35Z</time>
      </trkpt>
      <trkpt lat="41.24658" lon="9.23918">
        <ele>0.62</ele>
        <time>2017-10-09T13:02:59Z</time>
      </trkpt>
      <trkpt lat="41.24658" lon="9.23931">
        <ele>1.58</ele>
        <time>2017-10-09T13:03:23Z</time>
      </trkpt>
      <trkpt lat="41.24656" lon="9.23943">
        <ele>1.1</ele>
        <time>2017-10-09T13:03:48Z</time>
      </trkpt>
      <trkpt lat="41.24656" lon="9.23942">
        <ele>0.14</ele>
        <time>2017-10-09T13:04:11Z</time>
      </trkpt>
      <trkpt lat="41.24656" lon="9.23942">
        <ele>0.14</ele>
        <time>2017-10-09T13:04:27Z</time>
      </trkpt>
      <trkpt lat="41.24648" lon="9.2395">
        <ele>0.62</ele>
        <time>2017-10-09T13:04:48Z</time>
      </trkpt>
      <trkpt lat="41.24648" lon="9.23948">
        <ele>0.62</ele>
        <time>2017-10-09T13:05:12Z</time>
      </trkpt>
      <trkpt lat="41.24648" lon="9.23947">
        <ele>0.62</ele>
        <time>2017-10-09T13:05:31Z</time>
      </trkpt>
      <trkpt lat="41.2465" lon="9.23947">
        <ele>0.62</ele>
        <time>2017-10-09T13:05:53Z</time>
      </trkpt>
      <trkpt lat="41.24651" lon="9.23949">
        <ele>-0.34</ele>
        <time>2017-10-09T13:06:14Z</time>
      </trkpt>
      <trkpt lat="41.24652" lon="9.23949">
        <ele>-0.82</ele>
        <time>2017-10-09T13:06:35Z</time>
      </trkpt>
      <trkpt lat="41.24651" lon="9.23947">
        <ele>-0.34</ele>
        <time>2017-10-09T13:06:59Z</time>
      </trkpt>
      <trkpt lat="41.24653" lon="9.23948">
        <ele>-0.34</ele>
        <time>2017-10-09T13:07:17Z</time>
      </trkpt>
      <trkpt lat="41.24654" lon="9.2395">
        <ele>-0.34</ele>
        <time>2017-10-09T13:07:39Z</time>
      </trkpt>
      <trkpt lat="41.24654" lon="9.2395">
        <ele>-0.82</ele>
        <time>2017-10-09T13:08:00Z</time>
      </trkpt>
      <trkpt lat="41.24649" lon="9.23961">
        <ele>0.62</ele>
        <time>2017-10-09T13:08:27Z</time>
      </trkpt>
      <trkpt lat="41.24647" lon="9.23961">
        <ele>-0.34</ele>
        <time>2017-10-09T13:08:52Z</time>
      </trkpt>
      <trkpt lat="41.24646" lon="9.23967">
        <ele>-0.82</ele>
        <time>2017-10-09T13:09:12Z</time>
      </trkpt>
      <trkpt lat="41.24647" lon="9.23969">
        <ele>-0.82</ele>
        <time>2017-10-09T13:09:35Z</time>
      </trkpt>
      <trkpt lat="41.24647" lon="9.23968">
        <ele>-0.82</ele>
        <time>2017-10-09T13:10:02Z</time>
      </trkpt>
      <trkpt lat="41.24645" lon="9.23975">
        <ele>-0.34</ele>
        <time>2017-10-09T13:10:27Z</time>
      </trkpt>
      <trkpt lat="41.24643" lon="9.23976">
        <ele>-0.34</ele>
        <time>2017-10-09T13:10:51Z</time>
      </trkpt>
      <trkpt lat="41.24643" lon="9.23975">
        <ele>0.14</ele>
        <time>2017-10-09T13:11:15Z</time>
      </trkpt>
      <trkpt lat="41.24649" lon="9.23978">
        <ele>0.14</ele>
        <time>2017-10-09T13:11:37Z</time>
      </trkpt>
      <trkpt lat="41.2465" lon="9.23979">
        <ele>0.14</ele>
        <time>2017-10-09T13:11:57Z</time>
      </trkpt>
      <trkpt lat="41.2465" lon="9.23977">
        <ele>0.14</ele>
        <time>2017-10-09T13:12:24Z</time>
      </trkpt>
      <trkpt lat="41.24648" lon="9.23975">
        <ele>0.14</ele>
        <time>2017-10-09T13:12:49Z</time>
      </trkpt>
      <trkpt lat="41.24644" lon="9.23975">
        <ele>-0.34</ele>
        <time>2017-10-09T13:13:12Z</time>
      </trkpt>
      <trkpt lat="41.24641" lon="9.23975">
        <ele>-0.34</ele>
        <time>2017-10-09T13:13:30Z</time>
      </trkpt>
      <trkpt lat="41.24642" lon="9.23975">
        <ele>0.62</ele>
        <time>2017-10-09T13:13:53Z</time>
      </trkpt>
      <trkpt lat="41.24645" lon="9.23976">
        <ele>1.1</ele>
        <time>2017-10-09T13:14:17Z</time>
      </trkpt>
      <trkpt lat="41.24647" lon="9.23977">
        <ele>0.14</ele>
        <time>2017-10-09T13:14:38Z</time>
      </trkpt>
      <trkpt lat="41.24648" lon="9.23977">
        <ele>0.14</ele>
        <time>2017-10-09T13:14:58Z</time>
      </trkpt>
      <trkpt lat="41.24647" lon="9.23976">
        <ele>0.62</ele>
        <time>2017-10-09T13:15:25Z</time>
      </trkpt>
      <trkpt lat="41.24639" lon="9.23975">
        <ele>-0.82</ele>
        <time>2017-10-09T13:15:47Z</time>
      </trkpt>
      <trkpt lat="41.24639" lon="9.23975">
        <ele>0.62</ele>
        <time>2017-10-09T13:16:12Z</time>
      </trkpt>
      <trkpt lat="41.24642" lon="9.23975">
        <ele>0.62</ele>
        <time>2017-10-09T13:16:33Z</time>
      </trkpt>
      <trkpt lat="41.24646" lon="9.23977">
        <ele>0.14</ele>
        <time>2017-10-09T13:16:52Z</time>
      </trkpt>
      <trkpt lat="41.24649" lon="9.23977">
        <ele>-0.34</ele>
        <time>2017-10-09T13:17:14Z</time>
      </trkpt>
      <trkpt lat="41.2465" lon="9.23976">
        <ele>-0.82</ele>
        <time>2017-10-09T13:17:31Z</time>
      </trkpt>
      <trkpt lat="41.24646" lon="9.23976">
        <ele>-0.34</ele>
        <time>2017-10-09T13:17:57Z</time>
      </trkpt>
      <trkpt lat="41.24643" lon="9.23976">
        <ele>-0.82</ele>
        <time>2017-10-09T13:18:20Z</time>
      </trkpt>
      <trkpt lat="41.24644" lon="9.23976">
        <ele>-0.34</ele>
        <time>2017-10-09T13:18:36Z</time>
      </trkpt>
      <trkpt lat="41.24645" lon="9.23975">
        <ele>-0.34</ele>
        <time>2017-10-09T13:18:54Z</time>
      </trkpt>
      <trkpt lat="41.24647" lon="9.23976">
        <ele>0.14</ele>
        <time>2017-10-09T13:19:16Z</time>
      </trkpt>
      <trkpt lat="41.24649" lon="9.23977">
        <ele>-0.34</ele>
        <time>2017-10-09T13:19:34Z</time>
      </trkpt>
      <trkpt lat="41.24647" lon="9.23977">
        <ele>-0.34</ele>
        <time>2017-10-09T13:19:53Z</time>
      </trkpt>
      <trkpt lat="41.24646" lon="9.23976">
        <ele>-0.34</ele>
        <time>2017-10-09T13:20:12Z</time>
      </trkpt>
      <trkpt lat="41.24643" lon="9.23975">
        <ele>-1.3</ele>
        <time>2017-10-09T13:20:37Z</time>
      </trkpt>
      <trkpt lat="41.24643" lon="9.23976">
        <ele>-0.34</ele>
        <time>2017-10-09T13:20:56Z</time>
      </trkpt>
      <trkpt lat="41.24645" lon="9.23978">
        <ele>-0.34</ele>
        <time>2017-10-09T13:21:22Z</time>
      </trkpt>
      <trkpt lat="41.24647" lon="9.23978">
        <ele>-1.3</ele>
        <time>2017-10-09T13:21:44Z</time>
      </trkpt>
      <trkpt lat="41.24649" lon="9.23978">
        <ele>-1.79</ele>
        <time>2017-10-09T13:22:06Z</time>
      </trkpt>
      <trkpt lat="41.2465" lon="9.23978">
        <ele>-1.3</ele>
        <time>2017-10-09T13:22:27Z</time>
      </trkpt>
      <trkpt lat="41.2465" lon="9.23977">
        <ele>-0.82</ele>
        <time>2017-10-09T13:22:49Z</time>
      </trkpt>
      <trkpt lat="41.24648" lon="9.23976">
        <ele>-0.34</ele>
        <time>2017-10-09T13:23:08Z</time>
      </trkpt>
      <trkpt lat="41.24645" lon="9.23975">
        <ele>0.62</ele>
        <time>2017-10-09T13:23:30Z</time>
      </trkpt>
      <trkpt lat="41.24642" lon="9.23974">
        <ele>0.62</ele>
        <time>2017-10-09T13:23:50Z</time>
      </trkpt>
      <trkpt lat="41.24641" lon="9.23975">
        <ele>-0.34</ele>
        <time>2017-10-09T13:24:12Z</time>
      </trkpt>
      <trkpt lat="41.24643" lon="9.23977">
        <ele>-0.34</ele>
        <time>2017-10-09T13:24:36Z</time>
      </trkpt>
      <trkpt lat="41.24645" lon="9.23977">
        <ele>-0.34</ele>
        <time>2017-10-09T13:24:57Z</time>
      </trkpt>
      <trkpt lat="41.24647" lon="9.23978">
        <ele>-0.34</ele>
        <time>2017-10-09T13:25:16Z</time>
      </trkpt>
      <trkpt lat="41.24651" lon="9.23978">
        <ele>-0.82</ele>
        <time>2017-10-09T13:25:37Z</time>
      </trkpt>
      <trkpt lat="41.24652" lon="9.23977">
        <ele>-0.82</ele>
        <time>2017-10-09T13:26:01Z</time>
      </trkpt>
      <trkpt lat="41.2465" lon="9.23977">
        <ele>-0.82</ele>
        <time>2017-10-09T13:26:23Z</time>
      </trkpt>
      <trkpt lat="41.24649" lon="9.23977">
        <ele>-0.82</ele>
        <time>2017-10-09T13:26:44Z</time>
      </trkpt>
      <trkpt lat="41.24646" lon="9.23979">
        <ele>0.14</ele>
        <time>2017-10-09T13:27:05Z</time>
      </trkpt>
      <trkpt lat="41.24646" lon="9.23977">
        <ele>-0.82</ele>
        <time>2017-10-09T13:27:30Z</time>
      </trkpt>
      <trkpt lat="41.24649" lon="9.23977">
        <ele>-1.3</ele>
        <time>2017-10-09T13:27:49Z</time>
      </trkpt>
      <trkpt lat="41.24652" lon="9.23978">
        <ele>-1.3</ele>
        <time>2017-10-09T13:28:10Z</time>
      </trkpt>
      <trkpt lat="41.24653" lon="9.23977">
        <ele>-1.79</ele>
        <time>2017-10-09T13:28:31Z</time>
      </trkpt>
      <trkpt lat="41.24653" lon="9.23977">
        <ele>-0.82</ele>
        <time>2017-10-09T13:28:54Z</time>
      </trkpt>
      <trkpt lat="41.2465" lon="9.23977">
        <ele>-0.82</ele>
        <time>2017-10-09T13:29:17Z</time>
      </trkpt>
      <trkpt lat="41.24648" lon="9.23978">
        <ele>0.14</ele>
        <time>2017-10-09T13:29:38Z</time>
      </trkpt>
      <trkpt lat="41.24647" lon="9.23978">
        <ele>-0.34</ele>
        <time>2017-10-09T13:29:57Z</time>
      </trkpt>
      <trkpt lat="41.24648" lon="9.23978">
        <ele>0.14</ele>
        <time>2017-10-09T13:30:18Z</time>
      </trkpt>
      <trkpt lat="41.2465" lon="9.23977">
        <ele>0.14</ele>
        <time>2017-10-09T13:30:36Z</time>
      </trkpt>
      <trkpt lat="41.24651" lon="9.23977">
        <ele>-0.34</ele>
        <time>2017-10-09T13:30:56Z</time>
      </trkpt>
      <trkpt lat="41.24652" lon="9.23977">
        <ele>-0.82</ele>
        <time>2017-10-09T13:31:17Z</time>
      </trkpt>
      <trkpt lat="41.24651" lon="9.23977">
        <ele>-0.34</ele>
        <time>2017-10-09T13:31:39Z</time>
      </trkpt>
      <trkpt lat="41.2465" lon="9.23976">
        <ele>0.14</ele>
        <time>2017-10-09T13:32:02Z</time>
      </trkpt>
      <trkpt lat="41.24646" lon="9.23976">
        <ele>0.62</ele>
        <time>2017-10-09T13:32:24Z</time>
      </trkpt>
      <trkpt lat="41.24641" lon="9.23975">
        <ele>0.62</ele>
        <time>2017-10-09T13:32:47Z</time>
      </trkpt>
      <trkpt lat="41.2464" lon="9.23974">
        <ele>0.14</ele>
        <time>2017-10-09T13:33:09Z</time>
      </trkpt>
      <trkpt lat="41.2464" lon="9.23975">
        <ele>0.14</ele>
        <time>2017-10-09T13:33:27Z</time>
      </trkpt>
      <trkpt lat="41.24642" lon="9.23976">
        <ele>-0.34</ele>
        <time>2017-10-09T13:33:45Z</time>
      </trkpt>
      <trkpt lat="41.24644" lon="9.23976">
        <ele>-0.34</ele>
        <time>2017-10-09T13:34:07Z</time>
      </trkpt>
      <trkpt lat="41.24645" lon="9.23976">
        <ele>-0.34</ele>
        <time>2017-10-09T13:34:21Z</time>
      </trkpt>
      <trkpt lat="41.24643" lon="9.23976">
        <ele>-0.34</ele>
        <time>2017-10-09T13:34:41Z</time>
      </trkpt>
      <trkpt lat="41.24641" lon="9.23975">
        <ele>0.14</ele>
        <time>2017-10-09T13:35:04Z</time>
      </trkpt>
      <trkpt lat="41.2464" lon="9.23975">
        <ele>-0.34</ele>
        <time>2017-10-09T13:35:27Z</time>
      </trkpt>
      <trkpt lat="41.24641" lon="9.23976">
        <ele>-0.82</ele>
        <time>2017-10-09T13:35:50Z</time>
      </trkpt>
      <trkpt lat="41.24643" lon="9.23977">
        <ele>-1.79</ele>
        <time>2017-10-09T13:36:08Z</time>
      </trkpt>
      <trkpt lat="41.24646" lon="9.23977">
        <ele>-1.3</ele>
        <time>2017-10-09T13:36:28Z</time>
      </trkpt>
      <trkpt lat="41.24647" lon="9.23977">
        <ele>-1.3</ele>
        <time>2017-10-09T13:36:48Z</time>
      </trkpt>
      <trkpt lat="41.24648" lon="9.23977">
        <ele>-1.3</ele>
        <time>2017-10-09T13:37:06Z</time>
      </trkpt>
      <trkpt lat="41.24648" lon="9.23978">
        <ele>-1.3</ele>
        <time>2017-10-09T13:37:25Z</time>
      </trkpt>
      <trkpt lat="41.24649" lon="9.23977">
        <ele>-1.3</ele>
        <time>2017-10-09T13:37:48Z</time>
      </trkpt>
      <trkpt lat="41.2465" lon="9.23976">
        <ele>-0.82</ele>
        <time>2017-10-09T13:38:09Z</time>
      </trkpt>
      <trkpt lat="41.24649" lon="9.23977">
        <ele>-0.82</ele>
        <time>2017-10-09T13:38:29Z</time>
      </trkpt>
      <trkpt lat="41.24645" lon="9.23978">
        <ele>-0.34</ele>
        <time>2017-10-09T13:38:48Z</time>
      </trkpt>
      <trkpt lat="41.24647" lon="9.23977">
        <ele>-0.82</ele>
        <time>2017-10-09T13:39:09Z</time>
      </trkpt>
      <trkpt lat="41.24648" lon="9.23977">
        <ele>-0.82</ele>
        <time>2017-10-09T13:39:24Z</time>
      </trkpt>
      <trkpt lat="41.24651" lon="9.23977">
        <ele>-1.3</ele>
        <time>2017-10-09T13:39:43Z</time>
      </trkpt>
      <trkpt lat="41.24652" lon="9.23977">
        <ele>-1.79</ele>
        <time>2017-10-09T13:40:04Z</time>
      </trkpt>
      <trkpt lat="41.24652" lon="9.23975">
        <ele>-1.79</ele>
        <time>2017-10-09T13:40:22Z</time>
      </trkpt>
      <trkpt lat="41.2465" lon="9.23976">
        <ele>-1.79</ele>
        <time>2017-10-09T13:40:49Z</time>
      </trkpt>
      <trkpt lat="41.24645" lon="9.23978">
        <ele>-1.3</ele>
        <time>2017-10-09T13:41:10Z</time>
      </trkpt>
      <trkpt lat="41.24645" lon="9.23977">
        <ele>-0.82</ele>
        <time>2017-10-09T13:41:28Z</time>
      </trkpt>
      <trkpt lat="41.24648" lon="9.23976">
        <ele>-1.3</ele>
        <time>2017-10-09T13:41:51Z</time>
      </trkpt>
      <trkpt lat="41.24653" lon="9.23977">
        <ele>-1.79</ele>
        <time>2017-10-09T13:42:10Z</time>
      </trkpt>
      <trkpt lat="41.24653" lon="9.23976">
        <ele>-1.79</ele>
        <time>2017-10-09T13:42:35Z</time>
      </trkpt>
      <trkpt lat="41.24652" lon="9.23976">
        <ele>-1.79</ele>
        <time>2017-10-09T13:42:54Z</time>
      </trkpt>
      <trkpt lat="41.2465" lon="9.23977">
        <ele>-1.3</ele>
        <time>2017-10-09T13:43:16Z</time>
      </trkpt>
      <trkpt lat="41.24644" lon="9.23975">
        <ele>-0.82</ele>
        <time>2017-10-09T13:43:42Z</time>
      </trkpt>
      <trkpt lat="41.24641" lon="9.23974">
        <ele>-0.34</ele>
        <time>2017-10-09T13:44:04Z</time>
      </trkpt>
      <trkpt lat="41.24641" lon="9.23974">
        <ele>-0.34</ele>
        <time>2017-10-09T13:44:25Z</time>
      </trkpt>
      <trkpt lat="41.24642" lon="9.23976">
        <ele>-0.34</ele>
        <time>2017-10-09T13:44:43Z</time>
      </trkpt>
      <trkpt lat="41.24644" lon="9.23977">
        <ele>-0.82</ele>
        <time>2017-10-09T13:44:58Z</time>
      </trkpt>
      <trkpt lat="41.24647" lon="9.23976">
        <ele>-1.79</ele>
        <time>2017-10-09T13:45:20Z</time>
      </trkpt>
      <trkpt lat="41.24649" lon="9.23977">
        <ele>-1.79</ele>
        <time>2017-10-09T13:45:40Z</time>
      </trkpt>
      <trkpt lat="41.2465" lon="9.23977">
        <ele>-1.79</ele>
        <time>2017-10-09T13:46:01Z</time>
      </trkpt>
      <trkpt lat="41.2465" lon="9.23977">
        <ele>-1.3</ele>
        <time>2017-10-09T13:46:27Z</time>
      </trkpt>
      <trkpt lat="41.24648" lon="9.23977">
        <ele>-0.82</ele>
        <time>2017-10-09T13:46:49Z</time>
      </trkpt>
      <trkpt lat="41.24646" lon="9.23977">
        <ele>-0.82</ele>
        <time>2017-10-09T13:47:10Z</time>
      </trkpt>
      <trkpt lat="41.24647" lon="9.23978">
        <ele>-0.82</ele>
        <time>2017-10-09T13:47:33Z</time>
      </trkpt>
      <trkpt lat="41.24648" lon="9.23977">
        <ele>-0.34</ele>
        <time>2017-10-09T13:47:52Z</time>
      </trkpt>
      <trkpt lat="41.24651" lon="9.23977">
        <ele>0.14</ele>
        <time>2017-10-09T13:48:16Z</time>
      </trkpt>
      <trkpt lat="41.24652" lon="9.23978">
        <ele>0.14</ele>
        <time>2017-10-09T13:48:36Z</time>
      </trkpt>
      <trkpt lat="41.24654" lon="9.23977">
        <ele>-0.34</ele>
        <time>2017-10-09T13:48:58Z</time>
      </trkpt>
      <trkpt lat="41.24653" lon="9.23977">
        <ele>-0.34</ele>
        <time>2017-10-09T13:49:20Z</time>
      </trkpt>
      <trkpt lat="41.24652" lon="9.23977">
        <ele>-0.82</ele>
        <time>2017-10-09T13:49:42Z</time>
      </trkpt>
      <trkpt lat="41.24649" lon="9.23977">
        <ele>-0.34</ele>
        <time>2017-10-09T13:50:03Z</time>
      </trkpt>
      <trkpt lat="41.24647" lon="9.23977">
        <ele>0.14</ele>
        <time>2017-10-09T13:50:28Z</time>
      </trkpt>
      <trkpt lat="41.24648" lon="9.23977">
        <ele>0.14</ele>
        <time>2017-10-09T13:50:47Z</time>
      </trkpt>
      <trkpt lat="41.2465" lon="9.23978">
        <ele>0.14</ele>
        <time>2017-10-09T13:51:11Z</time>
      </trkpt>
      <trkpt lat="41.24652" lon="9.23978">
        <ele>-0.34</ele>
        <time>2017-10-09T13:51:32Z</time>
      </trkpt>
      <trkpt lat="41.24654" lon="9.23977">
        <ele>-1.79</ele>
        <time>2017-10-09T13:51:54Z</time>
      </trkpt>
      <trkpt lat="41.24654" lon="9.23977">
        <ele>-1.79</ele>
        <time>2017-10-09T13:52:20Z</time>
      </trkpt>
      <trkpt lat="41.24652" lon="9.23977">
        <ele>-0.82</ele>
        <time>2017-10-09T13:52:40Z</time>
      </trkpt>
      <trkpt lat="41.24649" lon="9.23978">
        <ele>-0.34</ele>
        <time>2017-10-09T13:53:04Z</time>
      </trkpt>
      <trkpt lat="41.24649" lon="9.23978">
        <ele>0.14</ele>
        <time>2017-10-09T13:53:24Z</time>
      </trkpt>
      <trkpt lat="41.24651" lon="9.23978">
        <ele>-0.34</ele>
        <time>2017-10-09T13:53:44Z</time>
      </trkpt>
      <trkpt lat="41.24652" lon="9.23978">
        <ele>-0.34</ele>
        <time>2017-10-09T13:54:06Z</time>
      </trkpt>
      <trkpt lat="41.24654" lon="9.23978">
        <ele>-0.82</ele>
        <time>2017-10-09T13:54:28Z</time>
      </trkpt>
      <trkpt lat="41.24652" lon="9.23976">
        <ele>-0.34</ele>
        <time>2017-10-09T13:54:58Z</time>
      </trkpt>
      <trkpt lat="41.24646" lon="9.23975">
        <ele>-0.34</ele>
        <time>2017-10-09T13:55:24Z</time>
      </trkpt>
      <trkpt lat="41.24642" lon="9.23975">
        <ele>-0.34</ele>
        <time>2017-10-09T13:55:45Z</time>
      </trkpt>
      <trkpt lat="41.24643" lon="9.23976">
        <ele>-0.82</ele>
        <time>2017-10-09T13:56:10Z</time>
      </trkpt>
      <trkpt lat="41.24647" lon="9.23977">
        <ele>-0.82</ele>
        <time>2017-10-09T13:56:35Z</time>
      </trkpt>
      <trkpt lat="41.24648" lon="9.23978">
        <ele>-1.3</ele>
        <time>2017-10-09T13:56:56Z</time>
      </trkpt>
      <trkpt lat="41.24649" lon="9.23978">
        <ele>-1.3</ele>
        <time>2017-10-09T13:57:19Z</time>
      </trkpt>
      <trkpt lat="41.24649" lon="9.23977">
        <ele>-0.82</ele>
        <time>2017-10-09T13:57:47Z</time>
      </trkpt>
      <trkpt lat="41.24648" lon="9.23978">
        <ele>0.14</ele>
        <time>2017-10-09T13:58:09Z</time>
      </trkpt>
      <trkpt lat="41.24648" lon="9.23978">
        <ele>0.14</ele>
        <time>2017-10-09T13:58:29Z</time>
      </trkpt>
      <trkpt lat="41.2465" lon="9.23977">
        <ele>0.62</ele>
        <time>2017-10-09T13:58:49Z</time>
      </trkpt>
      <trkpt lat="41.24653" lon="9.23978">
        <ele>0.14</ele>
        <time>2017-10-09T13:59:08Z</time>
      </trkpt>
      <trkpt lat="41.24654" lon="9.23977">
        <ele>-0.82</ele>
        <time>2017-10-09T13:59:29Z</time>
      </trkpt>
      <trkpt lat="41.24654" lon="9.23977">
        <ele>-1.3</ele>
        <time>2017-10-09T13:59:52Z</time>
      </trkpt>
      <trkpt lat="41.24652" lon="9.23978">
        <ele>-1.79</ele>
        <time>2017-10-09T14:00:20Z</time>
      </trkpt>
      <trkpt lat="41.24648" lon="9.23977">
        <ele>-0.34</ele>
        <time>2017-10-09T14:00:38Z</time>
      </trkpt>
      <trkpt lat="41.24646" lon="9.23978">
        <ele>0.14</ele>
        <time>2017-10-09T14:00:58Z</time>
      </trkpt>
      <trkpt lat="41.24648" lon="9.23977">
        <ele>0.14</ele>
        <time>2017-10-09T14:01:21Z</time>
      </trkpt>
      <trkpt lat="41.2465" lon="9.23978">
        <ele>0.14</ele>
        <time>2017-10-09T14:01:40Z</time>
      </trkpt>
      <trkpt lat="41.24652" lon="9.23978">
        <ele>-0.34</ele>
        <time>2017-10-09T14:01:59Z</time>
      </trkpt>
      <trkpt lat="41.24655" lon="9.23979">
        <ele>-0.34</ele>
        <time>2017-10-09T14:02:24Z</time>
      </trkpt>
      <trkpt lat="41.24655" lon="9.23979">
        <ele>-0.82</ele>
        <time>2017-10-09T14:02:42Z</time>
      </trkpt>
      <trkpt lat="41.24649" lon="9.23977">
        <ele>-1.79</ele>
        <time>2017-10-09T14:03:13Z</time>
      </trkpt>
      <trkpt lat="41.24646" lon="9.23976">
        <ele>-0.34</ele>
        <time>2017-10-09T14:03:33Z</time>
      </trkpt>
      <trkpt lat="41.24643" lon="9.23976">
        <ele>0.14</ele>
        <time>2017-10-09T14:03:51Z</time>
      </trkpt>
      <trkpt lat="41.24644" lon="9.23977">
        <ele>0.14</ele>
        <time>2017-10-09T14:04:11Z</time>
      </trkpt>
      <trkpt lat="41.24646" lon="9.23977">
        <ele>0.62</ele>
        <time>2017-10-09T14:04:33Z</time>
      </trkpt>
      <trkpt lat="41.24651" lon="9.23978">
        <ele>0.14</ele>
        <time>2017-10-09T14:04:55Z</time>
      </trkpt>
      <trkpt lat="41.24653" lon="9.23978">
        <ele>-0.34</ele>
        <time>2017-10-09T14:05:14Z</time>
      </trkpt>
      <trkpt lat="41.24655" lon="9.23978">
        <ele>-0.82</ele>
        <time>2017-10-09T14:05:37Z</time>
      </trkpt>
      <trkpt lat="41.24655" lon="9.23978">
        <ele>-0.82</ele>
        <time>2017-10-09T14:05:59Z</time>
      </trkpt>
      <trkpt lat="41.24653" lon="9.23976">
        <ele>-1.3</ele>
        <time>2017-10-09T14:06:19Z</time>
      </trkpt>
      <trkpt lat="41.24645" lon="9.23976">
        <ele>0.14</ele>
        <time>2017-10-09T14:06:39Z</time>
      </trkpt>
      <trkpt lat="41.24643" lon="9.23977">
        <ele>0.14</ele>
        <time>2017-10-09T14:06:58Z</time>
      </trkpt>
      <trkpt lat="41.24645" lon="9.23977">
        <ele>1.1</ele>
        <time>2017-10-09T14:07:22Z</time>
      </trkpt>
      <trkpt lat="41.2465" lon="9.23978">
        <ele>-0.34</ele>
        <time>2017-10-09T14:07:50Z</time>
      </trkpt>
      <trkpt lat="41.24653" lon="9.23977">
        <ele>-0.34</ele>
        <time>2017-10-09T14:08:03Z</time>
      </trkpt>
      <trkpt lat="41.24653" lon="9.23977">
        <ele>-0.82</ele>
        <time>2017-10-09T14:08:27Z</time>
      </trkpt>
      <trkpt lat="41.24652" lon="9.23978">
        <ele>-0.82</ele>
        <time>2017-10-09T14:08:54Z</time>
      </trkpt>
      <trkpt lat="41.24649" lon="9.23977">
        <ele>0.14</ele>
        <time>2017-10-09T14:09:19Z</time>
      </trkpt>
      <trkpt lat="41.24647" lon="9.23976">
        <ele>0.14</ele>
        <time>2017-10-09T14:09:40Z</time>
      </trkpt>
      <trkpt lat="41.24648" lon="9.23976">
        <ele>0.62</ele>
        <time>2017-10-09T14:10:04Z</time>
      </trkpt>
      <trkpt lat="41.24651" lon="9.23976">
        <ele>0.14</ele>
        <time>2017-10-09T14:10:25Z</time>
      </trkpt>
      <trkpt lat="41.24653" lon="9.23977">
        <ele>0.14</ele>
        <time>2017-10-09T14:10:46Z</time>
      </trkpt>
      <trkpt lat="41.24655" lon="9.23977">
        <ele>-1.3</ele>
        <time>2017-10-09T14:11:06Z</time>
      </trkpt>
      <trkpt lat="41.24654" lon="9.23977">
        <ele>-1.3</ele>
        <time>2017-10-09T14:11:29Z</time>
      </trkpt>
      <trkpt lat="41.24651" lon="9.23976">
        <ele>-0.82</ele>
        <time>2017-10-09T14:11:53Z</time>
      </trkpt>
      <trkpt lat="41.24646" lon="9.23976">
        <ele>-0.34</ele>
        <time>2017-10-09T14:12:16Z</time>
      </trkpt>
      <trkpt lat="41.24645" lon="9.23975">
        <ele>0.62</ele>
        <time>2017-10-09T14:12:37Z</time>
      </trkpt>
      <trkpt lat="41.24655" lon="9.23969">
        <ele>1.1</ele>
        <time>2017-10-09T14:13:03Z</time>
      </trkpt>
      <trkpt lat="41.24659" lon="9.23968">
        <ele>0.62</ele>
        <time>2017-10-09T14:13:30Z</time>
      </trkpt>
      <trkpt lat="41.2466" lon="9.23967">
        <ele>0.14</ele>
        <time>2017-10-09T14:13:54Z</time>
      </trkpt>
      <trkpt lat="41.24662" lon="9.23969">
        <ele>-0.34</ele>
        <time>2017-10-09T14:14:16Z</time>
      </trkpt>
      <trkpt lat="41.2466" lon="9.23976">
        <ele>-1.79</ele>
        <time>2017-10-09T14:14:38Z</time>
      </trkpt>
      <trkpt lat="41.24658" lon="9.23977">
        <ele>-1.3</ele>
        <time>2017-10-09T14:14:58Z</time>
      </trkpt>
      <trkpt lat="41.24656" lon="9.23974">
        <ele>-2.75</ele>
        <time>2017-10-09T14:15:21Z</time>
      </trkpt>
      <trkpt lat="41.2465" lon="9.23968">
        <ele>-2.75</ele>
        <time>2017-10-09T14:15:48Z</time>
      </trkpt>
      <trkpt lat="41.24647" lon="9.23969">
        <ele>-1.79</ele>
        <time>2017-10-09T14:16:07Z</time>
      </trkpt>
      <trkpt lat="41.24641" lon="9.23975">
        <ele>0.14</ele>
        <time>2017-10-09T14:16:28Z</time>
      </trkpt>
      <trkpt lat="41.24643" lon="9.23976">
        <ele>0.62</ele>
        <time>2017-10-09T14:16:48Z</time>
      </trkpt>
      <trkpt lat="41.24646" lon="9.23975">
        <ele>0.62</ele>
        <time>2017-10-09T14:17:10Z</time>
      </trkpt>
      <trkpt lat="41.2465" lon="9.23977">
        <ele>0.62</ele>
        <time>2017-10-09T15:02:45Z</time>
      </trkpt>
      <trkpt lat="41.24649" lon="9.23975">
        <ele>-1.3</ele>
        <time>2017-10-09T15:03:08Z</time>
      </trkpt>
      <trkpt lat="41.24645" lon="9.23975">
        <ele>-0.82</ele>
        <time>2017-10-09T15:03:35Z</time>
      </trkpt>
      <trkpt lat="41.24641" lon="9.23975">
        <ele>-1.3</ele>
        <time>2017-10-09T15:03:54Z</time>
      </trkpt>
      <trkpt lat="41.24645" lon="9.23975">
        <ele>-1.3</ele>
        <time>2017-10-09T15:04:16Z</time>
      </trkpt>
      <trkpt lat="41.2465" lon="9.23976">
        <ele>-1.79</ele>
        <time>2017-10-09T15:04:38Z</time>
      </trkpt>
      <trkpt lat="41.24655" lon="9.23976">
        <ele>-1.3</ele>
        <time>2017-10-09T15:05:04Z</time>
      </trkpt>
      <trkpt lat="41.24659" lon="9.23975">
        <ele>-0.82</ele>
        <time>2017-10-09T15:05:33Z</time>
      </trkpt>
      <trkpt lat="41.24658" lon="9.23975">
        <ele>-0.82</ele>
        <time>2017-10-09T15:06:00Z</time>
      </trkpt>
      <trkpt lat="41.24653" lon="9.2397">
        <ele>-0.34</ele>
        <time>2017-10-09T15:06:24Z</time>
      </trkpt>
      <trkpt lat="41.24647" lon="9.23967">
        <ele>-1.3</ele>
        <time>2017-10-09T15:06:48Z</time>
      </trkpt>
      <trkpt lat="41.24642" lon="9.23968">
        <ele>-0.82</ele>
        <time>2017-10-09T15:07:12Z</time>
      </trkpt>
      <trkpt lat="41.24638" lon="9.23971">
        <ele>-1.3</ele>
        <time>2017-10-09T15:07:35Z</time>
      </trkpt>
      <trkpt lat="41.24642" lon="9.23976">
        <ele>-1.79</ele>
        <time>2017-10-09T15:07:56Z</time>
      </trkpt>
      <trkpt lat="41.24645" lon="9.23977">
        <ele>-1.79</ele>
        <time>2017-10-09T15:08:20Z</time>
      </trkpt>
      <trkpt lat="41.24642" lon="9.23976">
        <ele>-1.3</ele>
        <time>2017-10-09T15:08:42Z</time>
      </trkpt>
      <trkpt lat="41.24643" lon="9.23975">
        <ele>-1.3</ele>
        <time>2017-10-09T15:09:05Z</time>
      </trkpt>
      <trkpt lat="41.24654" lon="9.23972">
        <ele>-0.82</ele>
        <time>2017-10-09T15:09:29Z</time>
      </trkpt>
      <trkpt lat="41.24644" lon="9.23967">
        <ele>-1.3</ele>
        <time>2017-10-09T15:09:53Z</time>
      </trkpt>
      <trkpt lat="41.24633" lon="9.2396">
        <ele>-1.3</ele>
        <time>2017-10-09T15:10:20Z</time>
      </trkpt>
      <trkpt lat="41.24641" lon="9.23966">
        <ele>-0.82</ele>
        <time>2017-10-09T15:10:42Z</time>
      </trkpt>
      <trkpt lat="41.2465" lon="9.23969">
        <ele>-0.82</ele>
        <time>2017-10-09T15:11:08Z</time>
      </trkpt>
      <trkpt lat="41.24649" lon="9.23967">
        <ele>-0.34</ele>
        <time>2017-10-09T15:11:27Z</time>
      </trkpt>
      <trkpt lat="41.24637" lon="9.23957">
        <ele>-0.82</ele>
        <time>2017-10-09T15:11:51Z</time>
      </trkpt>
      <trkpt lat="41.24639" lon="9.23955">
        <ele>-0.34</ele>
        <time>2017-10-09T15:12:19Z</time>
      </trkpt>
      <trkpt lat="41.24654" lon="9.23962">
        <ele>0.14</ele>
        <time>2017-10-09T15:12:42Z</time>
      </trkpt>
      <trkpt lat="41.2466" lon="9.23958">
        <ele>-1.3</ele>
        <time>2017-10-09T15:13:02Z</time>
      </trkpt>
      <trkpt lat="41.24648" lon="9.2395">
        <ele>-2.75</ele>
        <time>2017-10-09T15:13:26Z</time>
      </trkpt>
      <trkpt lat="41.2464" lon="9.23938">
        <ele>-3.71</ele>
        <time>2017-10-09T15:13:53Z</time>
      </trkpt>
      <trkpt lat="41.24637" lon="9.23934">
        <ele>-1.3</ele>
        <time>2017-10-09T15:14:15Z</time>
      </trkpt>
      <trkpt lat="41.24643" lon="9.23937">
        <ele>-2.27</ele>
        <time>2017-10-09T15:14:46Z</time>
      </trkpt>
      <trkpt lat="41.24652" lon="9.23944">
        <ele>-1.79</ele>
        <time>2017-10-09T15:15:10Z</time>
      </trkpt>
      <trkpt lat="41.24654" lon="9.23944">
        <ele>-2.27</ele>
        <time>2017-10-09T15:15:34Z</time>
      </trkpt>
      <trkpt lat="41.24648" lon="9.23938">
        <ele>-3.23</ele>
        <time>2017-10-09T15:15:59Z</time>
      </trkpt>
      <trkpt lat="41.24651" lon="9.23935">
        <ele>-2.27</ele>
        <time>2017-10-09T15:16:26Z</time>
      </trkpt>
      <trkpt lat="41.24659" lon="9.23934">
        <ele>-3.23</ele>
        <time>2017-10-09T15:16:52Z</time>
      </trkpt>
      <trkpt lat="41.24652" lon="9.23929">
        <ele>-3.71</ele>
        <time>2017-10-09T15:17:18Z</time>
      </trkpt>
      <trkpt lat="41.24641" lon="9.23924">
        <ele>-3.71</ele>
        <time>2017-10-09T15:17:45Z</time>
      </trkpt>
      <trkpt lat="41.2463" lon="9.2392">
        <ele>-3.23</ele>
        <time>2017-10-09T15:18:14Z</time>
      </trkpt>
      <trkpt lat="41.24618" lon="9.23915">
        <ele>-3.23</ele>
        <time>2017-10-09T15:18:42Z</time>
      </trkpt>
      <trkpt lat="41.24604" lon="9.23914">
        <ele>-2.75</ele>
        <time>2017-10-09T15:19:09Z</time>
      </trkpt>
      <trkpt lat="41.24604" lon="9.23915">
        <ele>-0.82</ele>
        <time>2017-10-09T15:19:37Z</time>
      </trkpt>
      <trkpt lat="41.24625" lon="9.23921">
        <ele>0.62</ele>
        <time>2017-10-09T15:20:04Z</time>
      </trkpt>
      <trkpt lat="41.24655" lon="9.23933">
        <ele>1.58</ele>
        <time>2017-10-09T15:20:33Z</time>
      </trkpt>
      <trkpt lat="41.24695" lon="9.23963">
        <ele>-0.82</ele>
        <time>2017-10-09T15:21:08Z</time>
      </trkpt>
      <trkpt lat="41.24722" lon="9.23984">
        <ele>-0.82</ele>
        <time>2017-10-09T15:21:32Z</time>
      </trkpt>
      <trkpt lat="41.24751" lon="9.24008">
        <ele>0.14</ele>
        <time>2017-10-09T15:21:54Z</time>
      </trkpt>
      <trkpt lat="41.24791" lon="9.24046">
        <ele>0.62</ele>
        <time>2017-10-09T15:22:20Z</time>
      </trkpt>
      <trkpt lat="41.24827" lon="9.24082">
        <ele>-0.82</ele>
        <time>2017-10-09T15:22:43Z</time>
      </trkpt>
      <trkpt lat="41.24866" lon="9.24122">
        <ele>-0.82</ele>
        <time>2017-10-09T15:23:08Z</time>
      </trkpt>
      <trkpt lat="41.2491" lon="9.24167">
        <ele>0.14</ele>
        <time>2017-10-09T15:23:33Z</time>
      </trkpt>
      <trkpt lat="41.24962" lon="9.24219">
        <ele>0.62</ele>
        <time>2017-10-09T15:24:01Z</time>
      </trkpt>
      <trkpt lat="41.25019" lon="9.24273">
        <ele>0.14</ele>
        <time>2017-10-09T15:24:30Z</time>
      </trkpt>
      <trkpt lat="41.25069" lon="9.2432">
        <ele>-0.34</ele>
        <time>2017-10-09T15:24:55Z</time>
      </trkpt>
      <trkpt lat="41.25118" lon="9.2436">
        <ele>-0.34</ele>
        <time>2017-10-09T15:25:16Z</time>
      </trkpt>
      <trkpt lat="41.25164" lon="9.24397">
        <ele>-0.34</ele>
        <time>2017-10-09T15:25:36Z</time>
      </trkpt>
      <trkpt lat="41.2522" lon="9.24439">
        <ele>-0.82</ele>
        <time>2017-10-09T15:25:57Z</time>
      </trkpt>
      <trkpt lat="41.25281" lon="9.24488">
        <ele>-0.82</ele>
        <time>2017-10-09T15:26:20Z</time>
      </trkpt>
      <trkpt lat="41.25335" lon="9.24529">
        <ele>-0.34</ele>
        <time>2017-10-09T15:26:43Z</time>
      </trkpt>
      <trkpt lat="41.25395" lon="9.24573">
        <ele>0.14</ele>
        <time>2017-10-09T15:27:05Z</time>
      </trkpt>
      <trkpt lat="41.25459" lon="9.24625">
        <ele>0.14</ele>
        <time>2017-10-09T15:27:30Z</time>
      </trkpt>
      <trkpt lat="41.25509" lon="9.24663">
        <ele>-0.34</ele>
        <time>2017-10-09T15:27:51Z</time>
      </trkpt>
      <trkpt lat="41.25567" lon="9.24705">
        <ele>-0.34</ele>
        <time>2017-10-09T15:28:13Z</time>
      </trkpt>
      <trkpt lat="41.25622" lon="9.24748">
        <ele>-0.82</ele>
        <time>2017-10-09T15:28:34Z</time>
      </trkpt>
      <trkpt lat="41.25672" lon="9.24785">
        <ele>-0.82</ele>
        <time>2017-10-09T15:28:52Z</time>
      </trkpt>
      <trkpt lat="41.25715" lon="9.24786">
        <ele>-0.82</ele>
        <time>2017-10-09T15:29:06Z</time>
      </trkpt>
      <trkpt lat="41.25765" lon="9.24771">
        <ele>-0.34</ele>
        <time>2017-10-09T15:29:23Z</time>
      </trkpt>
      <trkpt lat="41.25822" lon="9.24754">
        <ele>0.62</ele>
        <time>2017-10-09T15:29:42Z</time>
      </trkpt>
      <trkpt lat="41.25873" lon="9.24737">
        <ele>-1.3</ele>
        <time>2017-10-09T15:29:58Z</time>
      </trkpt>
      <trkpt lat="41.25921" lon="9.24722">
        <ele>-2.75</ele>
        <time>2017-10-09T15:30:13Z</time>
      </trkpt>
      <trkpt lat="41.25966" lon="9.24709">
        <ele>-2.75</ele>
        <time>2017-10-09T15:30:27Z</time>
      </trkpt>
      <trkpt lat="41.26021" lon="9.24687">
        <ele>-2.75</ele>
        <time>2017-10-09T15:30:45Z</time>
      </trkpt>
      <trkpt lat="41.26072" lon="9.24671">
        <ele>-2.75</ele>
        <time>2017-10-09T15:31:01Z</time>
      </trkpt>
      <trkpt lat="41.26123" lon="9.24651">
        <ele>-2.75</ele>
        <time>2017-10-09T15:31:17Z</time>
      </trkpt>
      <trkpt lat="41.2617" lon="9.24628">
        <ele>-3.71</ele>
        <time>2017-10-09T15:31:32Z</time>
      </trkpt>
      <trkpt lat="41.26214" lon="9.24608">
        <ele>-4.19</ele>
        <time>2017-10-09T15:31:46Z</time>
      </trkpt>
      <trkpt lat="41.26256" lon="9.24595">
        <ele>-3.71</ele>
        <time>2017-10-09T15:31:59Z</time>
      </trkpt>
      <trkpt lat="41.26293" lon="9.24584">
        <ele>-3.23</ele>
        <time>2017-10-09T15:32:10Z</time>
      </trkpt>
      <trkpt lat="41.26343" lon="9.24563">
        <ele>-3.23</ele>
        <time>2017-10-09T15:32:25Z</time>
      </trkpt>
      <trkpt lat="41.26384" lon="9.24544">
        <ele>-3.23</ele>
        <time>2017-10-09T15:32:38Z</time>
      </trkpt>
      <trkpt lat="41.26429" lon="9.24519">
        <ele>-2.75</ele>
        <time>2017-10-09T15:32:53Z</time>
      </trkpt>
      <trkpt lat="41.26469" lon="9.24498">
        <ele>-2.75</ele>
        <time>2017-10-09T15:33:07Z</time>
      </trkpt>
      <trkpt lat="41.26503" lon="9.24476">
        <ele>-2.27</ele>
        <time>2017-10-09T15:33:20Z</time>
      </trkpt>
      <trkpt lat="41.26541" lon="9.24456">
        <ele>-1.79</ele>
        <time>2017-10-09T15:33:33Z</time>
      </trkpt>
      <trkpt lat="41.26575" lon="9.24432">
        <ele>-2.27</ele>
        <time>2017-10-09T15:33:45Z</time>
      </trkpt>
      <trkpt lat="41.26615" lon="9.24402">
        <ele>-2.27</ele>
        <time>2017-10-09T15:33:59Z</time>
      </trkpt>
      <trkpt lat="41.2666" lon="9.24367">
        <ele>-3.23</ele>
        <time>2017-10-09T15:34:15Z</time>
      </trkpt>
      <trkpt lat="41.26689" lon="9.24343">
        <ele>-4.19</ele>
        <time>2017-10-09T15:34:26Z</time>
      </trkpt>
      <trkpt lat="41.26724" lon="9.24316">
        <ele>-5.15</ele>
        <time>2017-10-09T15:34:40Z</time>
      </trkpt>
      <trkpt lat="41.26759" lon="9.24292">
        <ele>-4.67</ele>
        <time>2017-10-09T15:34:53Z</time>
      </trkpt>
      <trkpt lat="41.26797" lon="9.24265">
        <ele>-4.67</ele>
        <time>2017-10-09T15:35:07Z</time>
      </trkpt>
      <trkpt lat="41.26831" lon="9.2424">
        <ele>-4.19</ele>
        <time>2017-10-09T15:35:20Z</time>
      </trkpt>
      <trkpt lat="41.26873" lon="9.24214">
        <ele>-2.75</ele>
        <time>2017-10-09T15:35:36Z</time>
      </trkpt>
      <trkpt lat="41.26915" lon="9.24186">
        <ele>-2.27</ele>
        <time>2017-10-09T15:35:52Z</time>
      </trkpt>
      <trkpt lat="41.26945" lon="9.24166">
        <ele>-2.27</ele>
        <time>2017-10-09T15:36:03Z</time>
      </trkpt>
      <trkpt lat="41.26984" lon="9.24142">
        <ele>-2.75</ele>
        <time>2017-10-09T15:36:17Z</time>
      </trkpt>
      <trkpt lat="41.27021" lon="9.24114">
        <ele>-2.27</ele>
        <time>2017-10-09T15:36:31Z</time>
      </trkpt>
      <trkpt lat="41.27068" lon="9.24081">
        <ele>-2.75</ele>
        <time>2017-10-09T15:36:48Z</time>
      </trkpt>
      <trkpt lat="41.27108" lon="9.24052">
        <ele>-2.27</ele>
        <time>2017-10-09T15:37:03Z</time>
      </trkpt>
      <trkpt lat="41.2714" lon="9.24028">
        <ele>-2.27</ele>
        <time>2017-10-09T15:37:15Z</time>
      </trkpt>
      <trkpt lat="41.27171" lon="9.24003">
        <ele>-2.75</ele>
        <time>2017-10-09T15:37:27Z</time>
      </trkpt>
      <trkpt lat="41.27209" lon="9.23975">
        <ele>-3.23</ele>
        <time>2017-10-09T15:37:41Z</time>
      </trkpt>
      <trkpt lat="41.27245" lon="9.23952">
        <ele>-3.71</ele>
        <time>2017-10-09T15:37:54Z</time>
      </trkpt>
      <trkpt lat="41.2728" lon="9.23925">
        <ele>-4.19</ele>
        <time>2017-10-09T15:38:07Z</time>
      </trkpt>
      <trkpt lat="41.27318" lon="9.23896">
        <ele>-3.71</ele>
        <time>2017-10-09T15:38:21Z</time>
      </trkpt>
      <trkpt lat="41.27349" lon="9.2387">
        <ele>-3.71</ele>
        <time>2017-10-09T15:38:33Z</time>
      </trkpt>
      <trkpt lat="41.27378" lon="9.23848">
        <ele>-2.75</ele>
        <time>2017-10-09T15:38:44Z</time>
      </trkpt>
      <trkpt lat="41.2741" lon="9.23815">
        <ele>-2.75</ele>
        <time>2017-10-09T15:38:58Z</time>
      </trkpt>
      <trkpt lat="41.27445" lon="9.23787">
        <ele>-2.27</ele>
        <time>2017-10-09T15:39:12Z</time>
      </trkpt>
      <trkpt lat="41.27478" lon="9.23765">
        <ele>-1.3</ele>
        <time>2017-10-09T15:39:25Z</time>
      </trkpt>
      <trkpt lat="41.27508" lon="9.23747">
        <ele>-0.82</ele>
        <time>2017-10-09T15:39:36Z</time>
      </trkpt>
      <trkpt lat="41.27545" lon="9.23725">
        <ele>-1.79</ele>
        <time>2017-10-09T15:39:49Z</time>
      </trkpt>
      <trkpt lat="41.27579" lon="9.23704">
        <ele>-1.79</ele>
        <time>2017-10-09T15:40:01Z</time>
      </trkpt>
      <trkpt lat="41.27615" lon="9.23681">
        <ele>-1.79</ele>
        <time>2017-10-09T15:40:14Z</time>
      </trkpt>
      <trkpt lat="41.27645" lon="9.23657">
        <ele>-1.79</ele>
        <time>2017-10-09T15:40:26Z</time>
      </trkpt>
      <trkpt lat="41.27678" lon="9.23632">
        <ele>-0.82</ele>
        <time>2017-10-09T15:40:39Z</time>
      </trkpt>
      <trkpt lat="41.27709" lon="9.23607">
        <ele>-1.79</ele>
        <time>2017-10-09T15:40:51Z</time>
      </trkpt>
      <trkpt lat="41.27739" lon="9.23578">
        <ele>-1.3</ele>
        <time>2017-10-09T15:41:03Z</time>
      </trkpt>
      <trkpt lat="41.27772" lon="9.23547">
        <ele>-1.79</ele>
        <time>2017-10-09T15:41:16Z</time>
      </trkpt>
      <trkpt lat="41.27808" lon="9.23511">
        <ele>-0.34</ele>
        <time>2017-10-09T15:41:31Z</time>
      </trkpt>
      <trkpt lat="41.27835" lon="9.23484">
        <ele>0.14</ele>
        <time>2017-10-09T15:41:43Z</time>
      </trkpt>
      <trkpt lat="41.27859" lon="9.23455">
        <ele>0.62</ele>
        <time>2017-10-09T15:41:54Z</time>
      </trkpt>
      <trkpt lat="41.27891" lon="9.23419">
        <ele>1.58</ele>
        <time>2017-10-09T15:42:08Z</time>
      </trkpt>
      <trkpt lat="41.27921" lon="9.23389">
        <ele>1.58</ele>
        <time>2017-10-09T15:42:21Z</time>
      </trkpt>
      <trkpt lat="41.27956" lon="9.23362">
        <ele>0.62</ele>
        <time>2017-10-09T15:42:34Z</time>
      </trkpt>
      <trkpt lat="41.27983" lon="9.23334">
        <ele>-0.34</ele>
        <time>2017-10-09T15:42:45Z</time>
      </trkpt>
      <trkpt lat="41.28017" lon="9.23299">
        <ele>-0.34</ele>
        <time>2017-10-09T15:42:59Z</time>
      </trkpt>
      <trkpt lat="41.28049" lon="9.23272">
        <ele>0.14</ele>
        <time>2017-10-09T15:43:11Z</time>
      </trkpt>
      <trkpt lat="41.28083" lon="9.23248">
        <ele>-0.82</ele>
        <time>2017-10-09T15:43:23Z</time>
      </trkpt>
      <trkpt lat="41.28121" lon="9.23222">
        <ele>-1.3</ele>
        <time>2017-10-09T15:43:36Z</time>
      </trkpt>
      <trkpt lat="41.28155" lon="9.23186">
        <ele>-1.79</ele>
        <time>2017-10-09T15:43:50Z</time>
      </trkpt>
      <trkpt lat="41.28185" lon="9.23159">
        <ele>-1.3</ele>
        <time>2017-10-09T15:44:02Z</time>
      </trkpt>
      <trkpt lat="41.2822" lon="9.23123">
        <ele>-0.82</ele>
        <time>2017-10-09T15:44:16Z</time>
      </trkpt>
      <trkpt lat="41.28247" lon="9.23097">
        <ele>-0.82</ele>
        <time>2017-10-09T15:44:27Z</time>
      </trkpt>
      <trkpt lat="41.28282" lon="9.23082">
        <ele>-1.3</ele>
        <time>2017-10-09T15:44:39Z</time>
      </trkpt>
      <trkpt lat="41.28302" lon="9.23056">
        <ele>-0.82</ele>
        <time>2017-10-09T15:44:49Z</time>
      </trkpt>
      <trkpt lat="41.28286" lon="9.2303">
        <ele>-0.34</ele>
        <time>2017-10-09T15:45:01Z</time>
      </trkpt>
      <trkpt lat="41.2828" lon="9.23016">
        <ele>-0.82</ele>
        <time>2017-10-09T15:45:07Z</time>
      </trkpt>
      <trkpt lat="41.28275" lon="9.23011">
        <ele>-1.3</ele>
        <time>2017-10-09T15:45:11Z</time>
      </trkpt>
      <trkpt lat="41.28265" lon="9.23">
        <ele>-1.3</ele>
        <time>2017-10-09T15:45:19Z</time>
      </trkpt>
      <trkpt lat="41.28249" lon="9.22981">
        <ele>-0.34</ele>
        <time>2017-10-09T15:45:32Z</time>
      </trkpt>
      <trkpt lat="41.28243" lon="9.22974">
        <ele>-0.34</ele>
        <time>2017-10-09T15:45:37Z</time>
      </trkpt>
      <trkpt lat="41.28224" lon="9.22954">
        <ele>-0.82</ele>
        <time>2017-10-09T15:45:49Z</time>
      </trkpt>
      <trkpt lat="41.28204" lon="9.22928">
        <ele>-0.82</ele>
        <time>2017-10-09T15:46:01Z</time>
      </trkpt>
      <trkpt lat="41.28181" lon="9.22898">
        <ele>-0.34</ele>
        <time>2017-10-09T15:46:15Z</time>
      </trkpt>
      <trkpt lat="41.28158" lon="9.22864">
        <ele>0.62</ele>
        <time>2017-10-09T15:46:30Z</time>
      </trkpt>
      <trkpt lat="41.28132" lon="9.22837">
        <ele>1.1</ele>
        <time>2017-10-09T15:46:44Z</time>
      </trkpt>
      <trkpt lat="41.28102" lon="9.22803">
        <ele>1.1</ele>
        <time>2017-10-09T15:46:58Z</time>
      </trkpt>
      <trkpt lat="41.28072" lon="9.22771">
        <ele>0.62</ele>
        <time>2017-10-09T15:47:11Z</time>
      </trkpt>
      <trkpt lat="41.28058" lon="9.22756">
        <ele>1.1</ele>
        <time>2017-10-09T15:47:17Z</time>
      </trkpt>
      <trkpt lat="41.28046" lon="9.22739">
        <ele>0.62</ele>
        <time>2017-10-09T15:47:23Z</time>
      </trkpt>
      <trkpt lat="41.28004" lon="9.22695">
        <ele>0.14</ele>
        <time>2017-10-09T15:47:40Z</time>
      </trkpt>
      <trkpt lat="41.27978" lon="9.22663">
        <ele>1.1</ele>
        <time>2017-10-09T15:47:52Z</time>
      </trkpt>
      <trkpt lat="41.2795" lon="9.22629">
        <ele>1.1</ele>
        <time>2017-10-09T15:48:05Z</time>
      </trkpt>
      <trkpt lat="41.27919" lon="9.22594">
        <ele>0.14</ele>
        <time>2017-10-09T15:48:19Z</time>
      </trkpt>
      <trkpt lat="41.27888" lon="9.22558">
        <ele>1.1</ele>
        <time>2017-10-09T15:48:33Z</time>
      </trkpt>
      <trkpt lat="41.27859" lon="9.22524">
        <ele>1.58</ele>
        <time>2017-10-09T15:48:46Z</time>
      </trkpt>
      <trkpt lat="41.27824" lon="9.22484">
        <ele>1.1</ele>
        <time>2017-10-09T15:49:01Z</time>
      </trkpt>
      <trkpt lat="41.27795" lon="9.22447">
        <ele>0.14</ele>
        <time>2017-10-09T15:49:14Z</time>
      </trkpt>
      <trkpt lat="41.27765" lon="9.22411">
        <ele>0.14</ele>
        <time>2017-10-09T15:49:27Z</time>
      </trkpt>
      <trkpt lat="41.27731" lon="9.2237">
        <ele>0.14</ele>
        <time>2017-10-09T15:49:42Z</time>
      </trkpt>
      <trkpt lat="41.277" lon="9.22338">
        <ele>1.1</ele>
        <time>2017-10-09T15:49:56Z</time>
      </trkpt>
      <trkpt lat="41.2767" lon="9.22304">
        <ele>1.58</ele>
        <time>2017-10-09T15:50:11Z</time>
      </trkpt>
      <trkpt lat="41.27645" lon="9.22277">
        <ele>0.62</ele>
        <time>2017-10-09T15:50:23Z</time>
      </trkpt>
      <trkpt lat="41.27613" lon="9.22237">
        <ele>0.62</ele>
        <time>2017-10-09T15:50:39Z</time>
      </trkpt>
      <trkpt lat="41.27589" lon="9.22201">
        <ele>1.1</ele>
        <time>2017-10-09T15:50:52Z</time>
      </trkpt>
      <trkpt lat="41.27563" lon="9.22166">
        <ele>1.58</ele>
        <time>2017-10-09T15:51:05Z</time>
      </trkpt>
      <trkpt lat="41.27531" lon="9.22121">
        <ele>0.62</ele>
        <time>2017-10-09T15:51:21Z</time>
      </trkpt>
      <trkpt lat="41.27506" lon="9.22088">
        <ele>0.14</ele>
        <time>2017-10-09T15:51:33Z</time>
      </trkpt>
      <trkpt lat="41.27483" lon="9.22059">
        <ele>0.14</ele>
        <time>2017-10-09T15:51:44Z</time>
      </trkpt>
      <trkpt lat="41.2746" lon="9.22029">
        <ele>0.14</ele>
        <time>2017-10-09T15:51:56Z</time>
      </trkpt>
      <trkpt lat="41.27446" lon="9.22012">
        <ele>0.62</ele>
        <time>2017-10-09T15:52:03Z</time>
      </trkpt>
      <trkpt lat="41.27417" lon="9.21975">
        <ele>-0.34</ele>
        <time>2017-10-09T15:52:19Z</time>
      </trkpt>
      <trkpt lat="41.27391" lon="9.21944">
        <ele>-0.34</ele>
        <time>2017-10-09T15:52:34Z</time>
      </trkpt>
      <trkpt lat="41.27366" lon="9.21913">
        <ele>0.14</ele>
        <time>2017-10-09T15:52:49Z</time>
      </trkpt>
      <trkpt lat="41.27336" lon="9.21878">
        <ele>0.14</ele>
        <time>2017-10-09T15:53:05Z</time>
      </trkpt>
      <trkpt lat="41.2731" lon="9.21847">
        <ele>0.62</ele>
        <time>2017-10-09T15:53:19Z</time>
      </trkpt>
      <trkpt lat="41.27284" lon="9.21818">
        <ele>-0.34</ele>
        <time>2017-10-09T15:53:32Z</time>
      </trkpt>
      <trkpt lat="41.27256" lon="9.21782">
        <ele>0.14</ele>
        <time>2017-10-09T15:53:46Z</time>
      </trkpt>
      <trkpt lat="41.27226" lon="9.21751">
        <ele>-0.34</ele>
        <time>2017-10-09T15:54:00Z</time>
      </trkpt>
      <trkpt lat="41.27207" lon="9.21728">
        <ele>-0.34</ele>
        <time>2017-10-09T15:54:09Z</time>
      </trkpt>
      <trkpt lat="41.27176" lon="9.21692">
        <ele>0.14</ele>
        <time>2017-10-09T15:54:23Z</time>
      </trkpt>
      <trkpt lat="41.27143" lon="9.21653">
        <ele>0.14</ele>
        <time>2017-10-09T15:54:37Z</time>
      </trkpt>
      <trkpt lat="41.27112" lon="9.21617">
        <ele>0.62</ele>
        <time>2017-10-09T15:54:50Z</time>
      </trkpt>
      <trkpt lat="41.27081" lon="9.21577">
        <ele>0.62</ele>
        <time>2017-10-09T15:55:03Z</time>
      </trkpt>
      <trkpt lat="41.27053" lon="9.21546">
        <ele>0.14</ele>
        <time>2017-10-09T15:55:14Z</time>
      </trkpt>
      <trkpt lat="41.27021" lon="9.21509">
        <ele>0.62</ele>
        <time>2017-10-09T15:55:27Z</time>
      </trkpt>
      <trkpt lat="41.26988" lon="9.21474">
        <ele>0.62</ele>
        <time>2017-10-09T15:55:40Z</time>
      </trkpt>
      <trkpt lat="41.26958" lon="9.21441">
        <ele>-0.34</ele>
        <time>2017-10-09T15:55:53Z</time>
      </trkpt>
      <trkpt lat="41.26933" lon="9.21414">
        <ele>0.14</ele>
        <time>2017-10-09T15:56:04Z</time>
      </trkpt>
      <trkpt lat="41.26904" lon="9.21382">
        <ele>0.14</ele>
        <time>2017-10-09T15:56:17Z</time>
      </trkpt>
      <trkpt lat="41.26877" lon="9.21353">
        <ele>-0.34</ele>
        <time>2017-10-09T15:56:29Z</time>
      </trkpt>
      <trkpt lat="41.26844" lon="9.21319">
        <ele>0.62</ele>
        <time>2017-10-09T15:56:44Z</time>
      </trkpt>
      <trkpt lat="41.26815" lon="9.21285">
        <ele>0.14</ele>
        <time>2017-10-09T15:56:57Z</time>
      </trkpt>
      <trkpt lat="41.26783" lon="9.21251">
        <ele>0.62</ele>
        <time>2017-10-09T15:57:11Z</time>
      </trkpt>
      <trkpt lat="41.26749" lon="9.2121">
        <ele>0.14</ele>
        <time>2017-10-09T15:57:26Z</time>
      </trkpt>
      <trkpt lat="41.26715" lon="9.21171">
        <ele>0.62</ele>
        <time>2017-10-09T15:57:40Z</time>
      </trkpt>
      <trkpt lat="41.2668" lon="9.21138">
        <ele>0.62</ele>
        <time>2017-10-09T15:57:54Z</time>
      </trkpt>
      <trkpt lat="41.26648" lon="9.21103">
        <ele>0.62</ele>
        <time>2017-10-09T15:58:08Z</time>
      </trkpt>
      <trkpt lat="41.26617" lon="9.2107">
        <ele>0.14</ele>
        <time>2017-10-09T15:58:21Z</time>
      </trkpt>
      <trkpt lat="41.26576" lon="9.21024">
        <ele>-0.34</ele>
        <time>2017-10-09T15:58:39Z</time>
      </trkpt>
      <trkpt lat="41.26541" lon="9.20987">
        <ele>-0.34</ele>
        <time>2017-10-09T15:58:54Z</time>
      </trkpt>
      <trkpt lat="41.26508" lon="9.20953">
        <ele>-0.34</ele>
        <time>2017-10-09T15:59:08Z</time>
      </trkpt>
      <trkpt lat="41.26478" lon="9.20922">
        <ele>0.14</ele>
        <time>2017-10-09T15:59:21Z</time>
      </trkpt>
      <trkpt lat="41.26439" lon="9.20882">
        <ele>-0.34</ele>
        <time>2017-10-09T15:59:38Z</time>
      </trkpt>
      <trkpt lat="41.26415" lon="9.20858">
        <ele>0.14</ele>
        <time>2017-10-09T15:59:49Z</time>
      </trkpt>
      <trkpt lat="41.26388" lon="9.20829">
        <ele>0.62</ele>
        <time>2017-10-09T16:00:02Z</time>
      </trkpt>
      <trkpt lat="41.26357" lon="9.20802">
        <ele>1.58</ele>
        <time>2017-10-09T16:00:16Z</time>
      </trkpt>
      <trkpt lat="41.26319" lon="9.2077">
        <ele>2.06</ele>
        <time>2017-10-09T16:00:32Z</time>
      </trkpt>
      <trkpt lat="41.26291" lon="9.20743">
        <ele>1.58</ele>
        <time>2017-10-09T16:00:44Z</time>
      </trkpt>
      <trkpt lat="41.26259" lon="9.2071">
        <ele>0.14</ele>
        <time>2017-10-09T16:00:57Z</time>
      </trkpt>
      <trkpt lat="41.26216" lon="9.2067">
        <ele>0.14</ele>
        <time>2017-10-09T16:01:13Z</time>
      </trkpt>
      <trkpt lat="41.26179" lon="9.20642">
        <ele>-0.34</ele>
        <time>2017-10-09T16:01:27Z</time>
      </trkpt>
      <trkpt lat="41.26144" lon="9.20613">
        <ele>-0.82</ele>
        <time>2017-10-09T16:01:41Z</time>
      </trkpt>
      <trkpt lat="41.26115" lon="9.20579">
        <ele>-0.82</ele>
        <time>2017-10-09T16:01:55Z</time>
      </trkpt>
      <trkpt lat="41.26087" lon="9.20548">
        <ele>0.14</ele>
        <time>2017-10-09T16:02:09Z</time>
      </trkpt>
      <trkpt lat="41.26061" lon="9.20522">
        <ele>1.1</ele>
        <time>2017-10-09T16:02:22Z</time>
      </trkpt>
      <trkpt lat="41.26025" lon="9.20496">
        <ele>0.62</ele>
        <time>2017-10-09T16:02:37Z</time>
      </trkpt>
      <trkpt lat="41.25992" lon="9.2047">
        <ele>0.14</ele>
        <time>2017-10-09T16:02:50Z</time>
      </trkpt>
      <trkpt lat="41.25954" lon="9.20444">
        <ele>-0.82</ele>
        <time>2017-10-09T16:03:04Z</time>
      </trkpt>
      <trkpt lat="41.25922" lon="9.20416">
        <ele>-0.34</ele>
        <time>2017-10-09T16:03:17Z</time>
      </trkpt>
      <trkpt lat="41.25876" lon="9.20381">
        <ele>0.14</ele>
        <time>2017-10-09T16:03:34Z</time>
      </trkpt>
      <trkpt lat="41.25833" lon="9.2035">
        <ele>1.1</ele>
        <time>2017-10-09T16:03:50Z</time>
      </trkpt>
      <trkpt lat="41.25795" lon="9.20324">
        <ele>1.1</ele>
        <time>2017-10-09T16:04:04Z</time>
      </trkpt>
      <trkpt lat="41.25755" lon="9.20295">
        <ele>0.14</ele>
        <time>2017-10-09T16:04:19Z</time>
      </trkpt>
      <trkpt lat="41.25727" lon="9.20264">
        <ele>0.62</ele>
        <time>2017-10-09T16:04:32Z</time>
      </trkpt>
      <trkpt lat="41.25698" lon="9.20231">
        <ele>1.1</ele>
        <time>2017-10-09T16:04:46Z</time>
      </trkpt>
      <trkpt lat="41.25671" lon="9.20206">
        <ele>0.14</ele>
        <time>2017-10-09T16:04:58Z</time>
      </trkpt>
      <trkpt lat="41.25637" lon="9.20176">
        <ele>-0.34</ele>
        <time>2017-10-09T16:05:13Z</time>
      </trkpt>
      <trkpt lat="41.25604" lon="9.20152">
        <ele>0.14</ele>
        <time>2017-10-09T16:05:26Z</time>
      </trkpt>
      <trkpt lat="41.2557" lon="9.20125">
        <ele>0.62</ele>
        <time>2017-10-09T16:05:40Z</time>
      </trkpt>
      <trkpt lat="41.25539" lon="9.20108">
        <ele>0.14</ele>
        <time>2017-10-09T16:05:51Z</time>
      </trkpt>
      <trkpt lat="41.25502" lon="9.20095">
        <ele>0.14</ele>
        <time>2017-10-09T16:06:05Z</time>
      </trkpt>
      <trkpt lat="41.2547" lon="9.20089">
        <ele>0.14</ele>
        <time>2017-10-09T16:06:20Z</time>
      </trkpt>
      <trkpt lat="41.25446" lon="9.20087">
        <ele>0.14</ele>
        <time>2017-10-09T16:06:34Z</time>
      </trkpt>
      <trkpt lat="41.2544" lon="9.20083">
        <ele>0.14</ele>
        <time>2017-10-09T16:06:39Z</time>
      </trkpt>
      <trkpt lat="41.25436" lon="9.20078">
        <ele>0.14</ele>
        <time>2017-10-09T16:06:44Z</time>
      </trkpt>
      <trkpt lat="41.25433" lon="9.2006">
        <ele>-0.34</ele>
        <time>2017-10-09T16:07:01Z</time>
      </trkpt>
      <trkpt lat="41.25433" lon="9.2005">
        <ele>0.14</ele>
        <time>2017-10-09T16:07:15Z</time>
      </trkpt>
      <trkpt lat="41.25433" lon="9.20042">
        <ele>0.62</ele>
        <time>2017-10-09T16:07:32Z</time>
      </trkpt>
      <trkpt lat="41.25426" lon="9.20021">
        <ele>1.58</ele>
        <time>2017-10-09T16:07:48Z</time>
      </trkpt>
      <trkpt lat="41.25426" lon="9.20018">
        <ele>1.58</ele>
        <time>2017-10-09T16:07:50Z</time>
      </trkpt>
      <trkpt lat="41.25424" lon="9.20011">
        <ele>1.58</ele>
        <time>2017-10-09T16:07:54Z</time>
      </trkpt>
      <trkpt lat="41.25409" lon="9.19991">
        <ele>1.1</ele>
        <time>2017-10-09T16:08:10Z</time>
      </trkpt>
      <trkpt lat="41.25404" lon="9.19989">
        <ele>1.1</ele>
        <time>2017-10-09T16:08:13Z</time>
      </trkpt>
      <trkpt lat="41.25387" lon="9.19981">
        <ele>1.1</ele>
        <time>2017-10-09T16:08:24Z</time>
      </trkpt>
      <trkpt lat="41.25355" lon="9.19966">
        <ele>0.62</ele>
        <time>2017-10-09T16:08:41Z</time>
      </trkpt>
      <trkpt lat="41.25325" lon="9.19944">
        <ele>0.14</ele>
        <time>2017-10-09T16:08:57Z</time>
      </trkpt>
      <trkpt lat="41.25293" lon="9.19927">
        <ele>1.1</ele>
        <time>2017-10-09T16:09:13Z</time>
      </trkpt>
      <trkpt lat="41.25262" lon="9.19911">
        <ele>0.62</ele>
        <time>2017-10-09T16:09:28Z</time>
      </trkpt>
      <trkpt lat="41.25229" lon="9.19892">
        <ele>0.14</ele>
        <time>2017-10-09T16:09:44Z</time>
      </trkpt>
      <trkpt lat="41.25198" lon="9.19882">
        <ele>0.14</ele>
        <time>2017-10-09T16:09:57Z</time>
      </trkpt>
      <trkpt lat="41.25162" lon="9.19867">
        <ele>-0.34</ele>
        <time>2017-10-09T16:10:12Z</time>
      </trkpt>
      <trkpt lat="41.25124" lon="9.1985">
        <ele>0.14</ele>
        <time>2017-10-09T16:10:28Z</time>
      </trkpt>
      <trkpt lat="41.25088" lon="9.19836">
        <ele>0.62</ele>
        <time>2017-10-09T16:10:43Z</time>
      </trkpt>
      <trkpt lat="41.25048" lon="9.19814">
        <ele>0.14</ele>
        <time>2017-10-09T16:11:01Z</time>
      </trkpt>
      <trkpt lat="41.25009" lon="9.19797">
        <ele>0.14</ele>
        <time>2017-10-09T16:11:17Z</time>
      </trkpt>
      <trkpt lat="41.24983" lon="9.19784">
        <ele>0.62</ele>
        <time>2017-10-09T16:11:28Z</time>
      </trkpt>
      <trkpt lat="41.24954" lon="9.19771">
        <ele>0.62</ele>
        <time>2017-10-09T16:11:40Z</time>
      </trkpt>
      <trkpt lat="41.24913" lon="9.19762">
        <ele>0.14</ele>
        <time>2017-10-09T16:11:56Z</time>
      </trkpt>
      <trkpt lat="41.2487" lon="9.19752">
        <ele>0.14</ele>
        <time>2017-10-09T16:12:13Z</time>
      </trkpt>
      <trkpt lat="41.24832" lon="9.19741">
        <ele>0.14</ele>
        <time>2017-10-09T16:12:28Z</time>
      </trkpt>
      <trkpt lat="41.24789" lon="9.19733">
        <ele>0.62</ele>
        <time>2017-10-09T16:12:45Z</time>
      </trkpt>
      <trkpt lat="41.24753" lon="9.19724">
        <ele>0.62</ele>
        <time>2017-10-09T16:12:59Z</time>
      </trkpt>
      <trkpt lat="41.24706" lon="9.19709">
        <ele>0.14</ele>
        <time>2017-10-09T16:13:18Z</time>
      </trkpt>
      <trkpt lat="41.24669" lon="9.19705">
        <ele>-0.34</ele>
        <time>2017-10-09T16:13:32Z</time>
      </trkpt>
      <trkpt lat="41.24628" lon="9.19692">
        <ele>-0.34</ele>
        <time>2017-10-09T16:13:48Z</time>
      </trkpt>
      <trkpt lat="41.24577" lon="9.19684">
        <ele>-0.34</ele>
        <time>2017-10-09T16:14:07Z</time>
      </trkpt>
      <trkpt lat="41.24526" lon="9.19677">
        <ele>0.14</ele>
        <time>2017-10-09T16:14:26Z</time>
      </trkpt>
      <trkpt lat="41.2447" lon="9.19669">
        <ele>-0.34</ele>
        <time>2017-10-09T16:14:47Z</time>
      </trkpt>
      <trkpt lat="41.24414" lon="9.19658">
        <ele>0.62</ele>
        <time>2017-10-09T16:15:08Z</time>
      </trkpt>
      <trkpt lat="41.24345" lon="9.19641">
        <ele>0.62</ele>
        <time>2017-10-09T16:15:34Z</time>
      </trkpt>
      <trkpt lat="41.24266" lon="9.1962">
        <ele>0.14</ele>
        <time>2017-10-09T16:16:04Z</time>
      </trkpt>
      <trkpt lat="41.2419" lon="9.19595">
        <ele>-0.34</ele>
        <time>2017-10-09T16:16:34Z</time>
      </trkpt>
      <trkpt lat="41.24128" lon="9.19588">
        <ele>0.14</ele>
        <time>2017-10-09T16:17:00Z</time>
      </trkpt>
      <trkpt lat="41.24066" lon="9.19567">
        <ele>-0.34</ele>
        <time>2017-10-09T16:17:31Z</time>
      </trkpt>
      <trkpt lat="41.24032" lon="9.19552">
        <ele>1.1</ele>
        <time>2017-10-09T16:17:54Z</time>
      </trkpt>
      <trkpt lat="41.24" lon="9.19537">
        <ele>1.1</ele>
        <time>2017-10-09T16:18:15Z</time>
      </trkpt>
      <trkpt lat="41.23949" lon="9.19511">
        <ele>0.14</ele>
        <time>2017-10-09T16:18:43Z</time>
      </trkpt>
      <trkpt lat="41.23892" lon="9.19493">
        <ele>0.14</ele>
        <time>2017-10-09T16:19:16Z</time>
      </trkpt>
      <trkpt lat="41.23845" lon="9.19506">
        <ele>0.62</ele>
        <time>2017-10-09T16:19:46Z</time>
      </trkpt>
      <trkpt lat="41.23813" lon="9.1954">
        <ele>0.62</ele>
        <time>2017-10-09T16:20:13Z</time>
      </trkpt>
      <trkpt lat="41.23785" lon="9.19579">
        <ele>-0.34</ele>
        <time>2017-10-09T16:20:47Z</time>
      </trkpt>
      <trkpt lat="41.23768" lon="9.19608">
        <ele>0.14</ele>
        <time>2017-10-09T16:21:17Z</time>
      </trkpt>
      <trkpt lat="41.23761" lon="9.1963">
        <ele>1.1</ele>
        <time>2017-10-09T16:21:41Z</time>
      </trkpt>
      <trkpt lat="41.23757" lon="9.19638">
        <ele>0.14</ele>
        <time>2017-10-09T16:22:12Z</time>
      </trkpt>
      <trkpt lat="41.23755" lon="9.19628">
        <ele>0.14</ele>
        <time>2017-10-09T16:22:34Z</time>
      </trkpt>
      <trkpt lat="41.23759" lon="9.19651">
        <ele>1.1</ele>
        <time>2017-10-09T16:22:59Z</time>
      </trkpt>
      <trkpt lat="41.23758" lon="9.19655">
        <ele>2.54</ele>
        <time>2017-10-09T16:23:20Z</time>
      </trkpt>
      <trkpt lat="41.23755" lon="9.19644">
        <ele>2.54</ele>
        <time>2017-10-09T16:23:31Z</time>
      </trkpt>
      <trkpt lat="41.2376" lon="9.19616">
        <ele>2.06</ele>
        <time>2017-10-09T16:23:56Z</time>
      </trkpt>
      <trkpt lat="41.23753" lon="9.19599">
        <ele>3.02</ele>
        <time>2017-10-09T16:24:24Z</time>
      </trkpt>
      <trkpt lat="41.23749" lon="9.19597">
        <ele>3.5</ele>
        <time>2017-10-09T16:24:53Z</time>
      </trkpt>
      <trkpt lat="41.23748" lon="9.19595">
        <ele>2.06</ele>
        <time>2017-10-09T16:25:22Z</time>
      </trkpt>
      <trkpt lat="41.23748" lon="9.19595">
        <ele>2.06</ele>
        <time>2017-10-09T16:25:31Z</time>
      </trkpt>
    </trkseg>
  </trk>
</gpx>